<?xml version="1.0" encoding="UTF-8" standalone="no" ?>
<gpx xmlns="http://www.topografix.com/GPX/1/1" xmlns:xsi="http://www.w3.org/2001/XMLSchema-instance" xsi:schemaLocation="http://www.topografix.com/GPX/1/1 http://www.topografix.com/GPX/1/1/gpx.xsd" version="1.1" creator="VisuGPX - https://www.visugpx.com">
  <metadata>
    <name>Thorigné (deux Sèvres) 8km</name>
  </metadata>
  <wpt lat="46.30314" lon="-0.24943">
    <ele>92.7</ele>
  </wpt>
  <wpt lat="46.30503" lon="-0.2614">
    <ele>111.8</ele>
  </wpt>
  <trk>
    <name><![CDATA[Thorigné (deux Sèvres) 8km_1]]></name>
    <trkseg>
      <trkpt lat="46.29232" lon="-0.25229">
        <ele>178.2</ele>
        <time>2012-03-06T13:59:26Z</time>
      </trkpt>
      <trkpt lat="46.29237" lon="-0.2522">
        <ele>151.6</ele>
        <time>2012-03-06T14:00:09Z</time>
      </trkpt>
      <trkpt lat="46.29242" lon="-0.25222">
        <ele>154.5</ele>
        <time>2012-03-06T14:00:09Z</time>
      </trkpt>
      <trkpt lat="46.29241" lon="-0.25224">
        <ele>155.2</ele>
        <time>2012-03-06T14:00:12Z</time>
      </trkpt>
      <trkpt lat="46.29243" lon="-0.25225">
        <ele>158.9</ele>
        <time>2012-03-06T14:00:20Z</time>
      </trkpt>
      <trkpt lat="46.29243" lon="-0.25225">
        <ele>158.6</ele>
        <time>2012-03-06T14:00:21Z</time>
      </trkpt>
      <trkpt lat="46.29243" lon="-0.25224">
        <ele>155.8</ele>
        <time>2012-03-06T14:00:26Z</time>
      </trkpt>
      <trkpt lat="46.29241" lon="-0.25223">
        <ele>156.1</ele>
        <time>2012-03-06T14:00:33Z</time>
      </trkpt>
      <trkpt lat="46.29239" lon="-0.25221">
        <ele>155.5</ele>
        <time>2012-03-06T14:00:39Z</time>
      </trkpt>
      <trkpt lat="46.2924" lon="-0.25221">
        <ele>154</ele>
        <time>2012-03-06T14:00:41Z</time>
      </trkpt>
      <trkpt lat="46.2924" lon="-0.25221">
        <ele>153.8</ele>
        <time>2012-03-06T14:00:49Z</time>
      </trkpt>
      <trkpt lat="46.2924" lon="-0.25221">
        <ele>153.8</ele>
        <time>2012-03-06T14:00:51Z</time>
      </trkpt>
      <trkpt lat="46.29239" lon="-0.25221">
        <ele>153.8</ele>
        <time>2012-03-06T14:00:59Z</time>
      </trkpt>
      <trkpt lat="46.29239" lon="-0.25221">
        <ele>153.9</ele>
        <time>2012-03-06T14:01:02Z</time>
      </trkpt>
      <trkpt lat="46.29239" lon="-0.25221">
        <ele>154</ele>
        <time>2012-03-06T14:01:10Z</time>
      </trkpt>
      <trkpt lat="46.29239" lon="-0.25221">
        <ele>154</ele>
        <time>2012-03-06T14:01:22Z</time>
      </trkpt>
      <trkpt lat="46.29239" lon="-0.25221">
        <ele>154</ele>
        <time>2012-03-06T14:01:22Z</time>
      </trkpt>
      <trkpt lat="46.29239" lon="-0.25221">
        <ele>154</ele>
        <time>2012-03-06T14:01:30Z</time>
      </trkpt>
      <trkpt lat="46.29239" lon="-0.25221">
        <ele>154</ele>
        <time>2012-03-06T14:01:31Z</time>
      </trkpt>
      <trkpt lat="46.29239" lon="-0.25221">
        <ele>154</ele>
        <time>2012-03-06T14:01:40Z</time>
      </trkpt>
      <trkpt lat="46.2924" lon="-0.25221">
        <ele>154</ele>
        <time>2012-03-06T14:01:41Z</time>
      </trkpt>
      <trkpt lat="46.2924" lon="-0.25221">
        <ele>153.9</ele>
        <time>2012-03-06T14:01:52Z</time>
      </trkpt>
      <trkpt lat="46.2924" lon="-0.25221">
        <ele>153.9</ele>
        <time>2012-03-06T14:01:56Z</time>
      </trkpt>
      <trkpt lat="46.2924" lon="-0.25221">
        <ele>153.9</ele>
        <time>2012-03-06T14:02:03Z</time>
      </trkpt>
      <trkpt lat="46.2924" lon="-0.25221">
        <ele>153.9</ele>
        <time>2012-03-06T14:02:09Z</time>
      </trkpt>
      <trkpt lat="46.2924" lon="-0.25221">
        <ele>153.9</ele>
        <time>2012-03-06T14:02:13Z</time>
      </trkpt>
      <trkpt lat="46.2924" lon="-0.25221">
        <ele>153.9</ele>
        <time>2012-03-06T14:02:19Z</time>
      </trkpt>
      <trkpt lat="46.2924" lon="-0.25221">
        <ele>154</ele>
        <time>2012-03-06T14:02:21Z</time>
      </trkpt>
      <trkpt lat="46.2924" lon="-0.2522">
        <ele>153.9</ele>
        <time>2012-03-06T14:02:30Z</time>
      </trkpt>
      <trkpt lat="46.2924" lon="-0.2522">
        <ele>153.9</ele>
        <time>2012-03-06T14:02:32Z</time>
      </trkpt>
      <trkpt lat="46.2924" lon="-0.2522">
        <ele>153.9</ele>
        <time>2012-03-06T14:02:37Z</time>
      </trkpt>
      <trkpt lat="46.29241" lon="-0.25216">
        <ele>154.8</ele>
        <time>2012-03-06T14:02:47Z</time>
      </trkpt>
      <trkpt lat="46.29241" lon="-0.25215">
        <ele>153.7</ele>
        <time>2012-03-06T14:02:47Z</time>
      </trkpt>
      <trkpt lat="46.29245" lon="-0.25211">
        <ele>151.1</ele>
        <time>2012-03-06T14:02:56Z</time>
      </trkpt>
      <trkpt lat="46.29245" lon="-0.25209">
        <ele>151.8</ele>
        <time>2012-03-06T14:02:56Z</time>
      </trkpt>
      <trkpt lat="46.29247" lon="-0.2521">
        <ele>151.4</ele>
        <time>2012-03-06T14:03:04Z</time>
      </trkpt>
      <trkpt lat="46.29248" lon="-0.2521">
        <ele>151.9</ele>
        <time>2012-03-06T14:03:08Z</time>
      </trkpt>
      <trkpt lat="46.29248" lon="-0.2521">
        <ele>152.3</ele>
        <time>2012-03-06T14:03:15Z</time>
      </trkpt>
      <trkpt lat="46.29248" lon="-0.2521">
        <ele>152.3</ele>
        <time>2012-03-06T14:03:16Z</time>
      </trkpt>
      <trkpt lat="46.29249" lon="-0.25207">
        <ele>152.1</ele>
        <time>2012-03-06T14:03:26Z</time>
      </trkpt>
      <trkpt lat="46.29249" lon="-0.25207">
        <ele>152</ele>
        <time>2012-03-06T14:03:27Z</time>
      </trkpt>
      <trkpt lat="46.29257" lon="-0.25211">
        <ele>151.3</ele>
        <time>2012-03-06T14:03:36Z</time>
      </trkpt>
      <trkpt lat="46.29259" lon="-0.25212">
        <ele>151.5</ele>
        <time>2012-03-06T14:03:36Z</time>
      </trkpt>
      <trkpt lat="46.29266" lon="-0.25213">
        <ele>149.7</ele>
        <time>2012-03-06T14:03:48Z</time>
      </trkpt>
      <trkpt lat="46.29267" lon="-0.25214">
        <ele>150</ele>
        <time>2012-03-06T14:03:48Z</time>
      </trkpt>
      <trkpt lat="46.29268" lon="-0.25214">
        <ele>150.2</ele>
        <time>2012-03-06T14:03:51Z</time>
      </trkpt>
      <trkpt lat="46.29276" lon="-0.25209">
        <ele>151.3</ele>
        <time>2012-03-06T14:04:01Z</time>
      </trkpt>
      <trkpt lat="46.29279" lon="-0.25207">
        <ele>151.2</ele>
        <time>2012-03-06T14:04:01Z</time>
      </trkpt>
      <trkpt lat="46.29286" lon="-0.252">
        <ele>152.6</ele>
        <time>2012-03-06T14:04:11Z</time>
      </trkpt>
      <trkpt lat="46.29287" lon="-0.252">
        <ele>152.2</ele>
        <time>2012-03-06T14:04:11Z</time>
      </trkpt>
      <trkpt lat="46.29294" lon="-0.25194">
        <ele>151.5</ele>
        <time>2012-03-06T14:04:21Z</time>
      </trkpt>
      <trkpt lat="46.29298" lon="-0.2519">
        <ele>151</ele>
        <time>2012-03-06T14:04:30Z</time>
      </trkpt>
      <trkpt lat="46.29302" lon="-0.25189">
        <ele>150.5</ele>
        <time>2012-03-06T14:04:31Z</time>
      </trkpt>
      <trkpt lat="46.29307" lon="-0.2518">
        <ele>150.6</ele>
        <time>2012-03-06T14:04:42Z</time>
      </trkpt>
      <trkpt lat="46.29308" lon="-0.2518">
        <ele>150.5</ele>
        <time>2012-03-06T14:04:43Z</time>
      </trkpt>
      <trkpt lat="46.29315" lon="-0.25175">
        <ele>149.7</ele>
        <time>2012-03-06T14:04:51Z</time>
      </trkpt>
      <trkpt lat="46.29316" lon="-0.25175">
        <ele>149.9</ele>
        <time>2012-03-06T14:04:51Z</time>
      </trkpt>
      <trkpt lat="46.29321" lon="-0.25173">
        <ele>149.6</ele>
        <time>2012-03-06T14:04:57Z</time>
      </trkpt>
      <trkpt lat="46.29325" lon="-0.25169">
        <ele>151.4</ele>
        <time>2012-03-06T14:05:01Z</time>
      </trkpt>
      <trkpt lat="46.29329" lon="-0.25164">
        <ele>150.6</ele>
        <time>2012-03-06T14:05:06Z</time>
      </trkpt>
      <trkpt lat="46.29341" lon="-0.25157">
        <ele>151</ele>
        <time>2012-03-06T14:05:17Z</time>
      </trkpt>
      <trkpt lat="46.29342" lon="-0.25156">
        <ele>150.5</ele>
        <time>2012-03-06T14:05:17Z</time>
      </trkpt>
      <trkpt lat="46.29348" lon="-0.2515">
        <ele>149.8</ele>
        <time>2012-03-06T14:05:27Z</time>
      </trkpt>
      <trkpt lat="46.29349" lon="-0.25148">
        <ele>150.2</ele>
        <time>2012-03-06T14:05:28Z</time>
      </trkpt>
      <trkpt lat="46.29355" lon="-0.25145">
        <ele>150.6</ele>
        <time>2012-03-06T14:05:35Z</time>
      </trkpt>
      <trkpt lat="46.29357" lon="-0.25144">
        <ele>150.4</ele>
        <time>2012-03-06T14:05:37Z</time>
      </trkpt>
      <trkpt lat="46.29362" lon="-0.2514">
        <ele>150.3</ele>
        <time>2012-03-06T14:05:46Z</time>
      </trkpt>
      <trkpt lat="46.29364" lon="-0.2514">
        <ele>149.8</ele>
        <time>2012-03-06T14:05:46Z</time>
      </trkpt>
      <trkpt lat="46.29374" lon="-0.25139">
        <ele>151.3</ele>
        <time>2012-03-06T14:05:57Z</time>
      </trkpt>
      <trkpt lat="46.29378" lon="-0.2514">
        <ele>151.4</ele>
        <time>2012-03-06T14:06:03Z</time>
      </trkpt>
      <trkpt lat="46.29381" lon="-0.25141">
        <ele>150.9</ele>
        <time>2012-03-06T14:06:07Z</time>
      </trkpt>
      <trkpt lat="46.29395" lon="-0.2514">
        <ele>153.7</ele>
        <time>2012-03-06T14:06:16Z</time>
      </trkpt>
      <trkpt lat="46.29396" lon="-0.2514">
        <ele>153.7</ele>
        <time>2012-03-06T14:06:17Z</time>
      </trkpt>
      <trkpt lat="46.29402" lon="-0.25138">
        <ele>154.3</ele>
        <time>2012-03-06T14:06:24Z</time>
      </trkpt>
      <trkpt lat="46.29402" lon="-0.25139">
        <ele>154</ele>
        <time>2012-03-06T14:06:27Z</time>
      </trkpt>
      <trkpt lat="46.29411" lon="-0.25136">
        <ele>151.2</ele>
        <time>2012-03-06T14:06:35Z</time>
      </trkpt>
      <trkpt lat="46.29411" lon="-0.25135">
        <ele>151.7</ele>
        <time>2012-03-06T14:06:36Z</time>
      </trkpt>
      <trkpt lat="46.29424" lon="-0.25133">
        <ele>151.6</ele>
        <time>2012-03-06T14:06:49Z</time>
      </trkpt>
      <trkpt lat="46.29424" lon="-0.25133">
        <ele>151.8</ele>
        <time>2012-03-06T14:06:50Z</time>
      </trkpt>
      <trkpt lat="46.29428" lon="-0.2513">
        <ele>152.5</ele>
        <time>2012-03-06T14:06:53Z</time>
      </trkpt>
      <trkpt lat="46.29433" lon="-0.25128">
        <ele>153.8</ele>
        <time>2012-03-06T14:06:58Z</time>
      </trkpt>
      <trkpt lat="46.29438" lon="-0.25125">
        <ele>154.4</ele>
        <time>2012-03-06T14:07:01Z</time>
      </trkpt>
      <trkpt lat="46.29448" lon="-0.25118">
        <ele>155.6</ele>
        <time>2012-03-06T14:07:11Z</time>
      </trkpt>
      <trkpt lat="46.29449" lon="-0.25118">
        <ele>155.6</ele>
        <time>2012-03-06T14:07:12Z</time>
      </trkpt>
      <trkpt lat="46.29453" lon="-0.25112">
        <ele>157.7</ele>
        <time>2012-03-06T14:07:21Z</time>
      </trkpt>
      <trkpt lat="46.29454" lon="-0.25111">
        <ele>157.9</ele>
        <time>2012-03-06T14:07:22Z</time>
      </trkpt>
      <trkpt lat="46.29458" lon="-0.25101">
        <ele>157.3</ele>
        <time>2012-03-06T14:07:31Z</time>
      </trkpt>
      <trkpt lat="46.29457" lon="-0.251">
        <ele>158.3</ele>
        <time>2012-03-06T14:07:31Z</time>
      </trkpt>
      <trkpt lat="46.29465" lon="-0.25082">
        <ele>159.8</ele>
        <time>2012-03-06T14:07:44Z</time>
      </trkpt>
      <trkpt lat="46.29466" lon="-0.25081">
        <ele>160.3</ele>
        <time>2012-03-06T14:07:44Z</time>
      </trkpt>
      <trkpt lat="46.29466" lon="-0.25079">
        <ele>160.5</ele>
        <time>2012-03-06T14:07:46Z</time>
      </trkpt>
      <trkpt lat="46.29477" lon="-0.25067">
        <ele>158.6</ele>
        <time>2012-03-06T14:07:59Z</time>
      </trkpt>
      <trkpt lat="46.2948" lon="-0.25067">
        <ele>159.1</ele>
        <time>2012-03-06T14:08:01Z</time>
      </trkpt>
      <trkpt lat="46.29491" lon="-0.25069">
        <ele>159.9</ele>
        <time>2012-03-06T14:08:10Z</time>
      </trkpt>
      <trkpt lat="46.29491" lon="-0.2507">
        <ele>159.1</ele>
        <time>2012-03-06T14:08:11Z</time>
      </trkpt>
      <trkpt lat="46.29497" lon="-0.25073">
        <ele>159</ele>
        <time>2012-03-06T14:08:23Z</time>
      </trkpt>
      <trkpt lat="46.29499" lon="-0.25072">
        <ele>158.5</ele>
        <time>2012-03-06T14:08:23Z</time>
      </trkpt>
      <trkpt lat="46.29503" lon="-0.25071">
        <ele>157.2</ele>
        <time>2012-03-06T14:08:29Z</time>
      </trkpt>
      <trkpt lat="46.29506" lon="-0.25068">
        <ele>156.3</ele>
        <time>2012-03-06T14:08:32Z</time>
      </trkpt>
      <trkpt lat="46.29516" lon="-0.25059">
        <ele>157.9</ele>
        <time>2012-03-06T14:08:40Z</time>
      </trkpt>
      <trkpt lat="46.29511" lon="-0.25058">
        <ele>157.1</ele>
        <time>2012-03-06T14:08:41Z</time>
      </trkpt>
      <trkpt lat="46.29509" lon="-0.2504">
        <ele>156.2</ele>
        <time>2012-03-06T14:08:51Z</time>
      </trkpt>
      <trkpt lat="46.29507" lon="-0.25036">
        <ele>156.3</ele>
        <time>2012-03-06T14:08:52Z</time>
      </trkpt>
      <trkpt lat="46.29511" lon="-0.25028">
        <ele>158.1</ele>
        <time>2012-03-06T14:09:01Z</time>
      </trkpt>
      <trkpt lat="46.29514" lon="-0.25015">
        <ele>158.7</ele>
        <time>2012-03-06T14:09:11Z</time>
      </trkpt>
      <trkpt lat="46.29514" lon="-0.25013">
        <ele>158.5</ele>
        <time>2012-03-06T14:09:11Z</time>
      </trkpt>
      <trkpt lat="46.29517" lon="-0.24998">
        <ele>159.1</ele>
        <time>2012-03-06T14:09:24Z</time>
      </trkpt>
      <trkpt lat="46.29517" lon="-0.24996">
        <ele>159.3</ele>
        <time>2012-03-06T14:09:24Z</time>
      </trkpt>
      <trkpt lat="46.29526" lon="-0.24977">
        <ele>159.4</ele>
        <time>2012-03-06T14:09:40Z</time>
      </trkpt>
      <trkpt lat="46.29526" lon="-0.24976">
        <ele>159.1</ele>
        <time>2012-03-06T14:09:40Z</time>
      </trkpt>
      <trkpt lat="46.29526" lon="-0.24974">
        <ele>159.2</ele>
        <time>2012-03-06T14:09:42Z</time>
      </trkpt>
      <trkpt lat="46.29532" lon="-0.24965">
        <ele>159.8</ele>
        <time>2012-03-06T14:09:52Z</time>
      </trkpt>
      <trkpt lat="46.29533" lon="-0.24962">
        <ele>160.3</ele>
        <time>2012-03-06T14:09:53Z</time>
      </trkpt>
      <trkpt lat="46.29534" lon="-0.24954">
        <ele>160.9</ele>
        <time>2012-03-06T14:09:59Z</time>
      </trkpt>
      <trkpt lat="46.29537" lon="-0.24951">
        <ele>161.5</ele>
        <time>2012-03-06T14:10:01Z</time>
      </trkpt>
      <trkpt lat="46.29537" lon="-0.24942">
        <ele>162</ele>
        <time>2012-03-06T14:10:11Z</time>
      </trkpt>
      <trkpt lat="46.29536" lon="-0.24938">
        <ele>161.9</ele>
        <time>2012-03-06T14:10:11Z</time>
      </trkpt>
      <trkpt lat="46.29544" lon="-0.24922">
        <ele>161.9</ele>
        <time>2012-03-06T14:10:23Z</time>
      </trkpt>
      <trkpt lat="46.29548" lon="-0.24916">
        <ele>162.4</ele>
        <time>2012-03-06T14:10:29Z</time>
      </trkpt>
      <trkpt lat="46.29549" lon="-0.24911">
        <ele>162.7</ele>
        <time>2012-03-06T14:10:33Z</time>
      </trkpt>
      <trkpt lat="46.2955" lon="-0.24902">
        <ele>161.4</ele>
        <time>2012-03-06T14:10:40Z</time>
      </trkpt>
      <trkpt lat="46.29551" lon="-0.24901">
        <ele>161.4</ele>
        <time>2012-03-06T14:10:41Z</time>
      </trkpt>
      <trkpt lat="46.29549" lon="-0.24881">
        <ele>163.5</ele>
        <time>2012-03-06T14:10:53Z</time>
      </trkpt>
      <trkpt lat="46.29549" lon="-0.24882">
        <ele>163.4</ele>
        <time>2012-03-06T14:10:53Z</time>
      </trkpt>
      <trkpt lat="46.29555" lon="-0.24876">
        <ele>165.2</ele>
        <time>2012-03-06T14:10:59Z</time>
      </trkpt>
      <trkpt lat="46.29554" lon="-0.24873">
        <ele>165.7</ele>
        <time>2012-03-06T14:11:02Z</time>
      </trkpt>
      <trkpt lat="46.29556" lon="-0.24867">
        <ele>166.5</ele>
        <time>2012-03-06T14:11:06Z</time>
      </trkpt>
      <trkpt lat="46.29565" lon="-0.24857">
        <ele>165.9</ele>
        <time>2012-03-06T14:11:14Z</time>
      </trkpt>
      <trkpt lat="46.29568" lon="-0.24853">
        <ele>164.6</ele>
        <time>2012-03-06T14:11:17Z</time>
      </trkpt>
      <trkpt lat="46.29571" lon="-0.24849">
        <ele>163.9</ele>
        <time>2012-03-06T14:11:23Z</time>
      </trkpt>
      <trkpt lat="46.29569" lon="-0.24841">
        <ele>163.8</ele>
        <time>2012-03-06T14:11:27Z</time>
      </trkpt>
      <trkpt lat="46.29573" lon="-0.24831">
        <ele>163.3</ele>
        <time>2012-03-06T14:11:34Z</time>
      </trkpt>
      <trkpt lat="46.29574" lon="-0.24831">
        <ele>163.8</ele>
        <time>2012-03-06T14:11:37Z</time>
      </trkpt>
      <trkpt lat="46.29576" lon="-0.24819">
        <ele>163.7</ele>
        <time>2012-03-06T14:11:45Z</time>
      </trkpt>
      <trkpt lat="46.29577" lon="-0.24819">
        <ele>163.6</ele>
        <time>2012-03-06T14:11:46Z</time>
      </trkpt>
      <trkpt lat="46.29577" lon="-0.24798">
        <ele>162.5</ele>
        <time>2012-03-06T14:12:00Z</time>
      </trkpt>
      <trkpt lat="46.29577" lon="-0.24795">
        <ele>162.1</ele>
        <time>2012-03-06T14:12:00Z</time>
      </trkpt>
      <trkpt lat="46.29577" lon="-0.24794">
        <ele>162.4</ele>
        <time>2012-03-06T14:12:01Z</time>
      </trkpt>
      <trkpt lat="46.2958" lon="-0.24788">
        <ele>162.7</ele>
        <time>2012-03-06T14:12:08Z</time>
      </trkpt>
      <trkpt lat="46.29581" lon="-0.24779">
        <ele>163.1</ele>
        <time>2012-03-06T14:12:14Z</time>
      </trkpt>
      <trkpt lat="46.29581" lon="-0.24773">
        <ele>162.8</ele>
        <time>2012-03-06T14:12:17Z</time>
      </trkpt>
      <trkpt lat="46.29585" lon="-0.24764">
        <ele>160.1</ele>
        <time>2012-03-06T14:12:26Z</time>
      </trkpt>
      <trkpt lat="46.29585" lon="-0.24764">
        <ele>160</ele>
        <time>2012-03-06T14:12:27Z</time>
      </trkpt>
      <trkpt lat="46.29588" lon="-0.24749">
        <ele>158.5</ele>
        <time>2012-03-06T14:12:36Z</time>
      </trkpt>
      <trkpt lat="46.29593" lon="-0.24742">
        <ele>156.6</ele>
        <time>2012-03-06T14:12:47Z</time>
      </trkpt>
      <trkpt lat="46.29594" lon="-0.24736">
        <ele>157.1</ele>
        <time>2012-03-06T14:12:47Z</time>
      </trkpt>
      <trkpt lat="46.29592" lon="-0.24717">
        <ele>158.8</ele>
        <time>2012-03-06T14:12:57Z</time>
      </trkpt>
      <trkpt lat="46.29591" lon="-0.24706">
        <ele>159.6</ele>
        <time>2012-03-06T14:13:03Z</time>
      </trkpt>
      <trkpt lat="46.29591" lon="-0.24695">
        <ele>159.8</ele>
        <time>2012-03-06T14:13:09Z</time>
      </trkpt>
      <trkpt lat="46.29592" lon="-0.24692">
        <ele>159.9</ele>
        <time>2012-03-06T14:13:12Z</time>
      </trkpt>
      <trkpt lat="46.29592" lon="-0.24678">
        <ele>158.9</ele>
        <time>2012-03-06T14:13:20Z</time>
      </trkpt>
      <trkpt lat="46.29592" lon="-0.24676">
        <ele>158.8</ele>
        <time>2012-03-06T14:13:21Z</time>
      </trkpt>
      <trkpt lat="46.29598" lon="-0.24659">
        <ele>161.1</ele>
        <time>2012-03-06T14:13:34Z</time>
      </trkpt>
      <trkpt lat="46.29601" lon="-0.24657">
        <ele>162.1</ele>
        <time>2012-03-06T14:13:34Z</time>
      </trkpt>
      <trkpt lat="46.29601" lon="-0.24652">
        <ele>162.1</ele>
        <time>2012-03-06T14:13:38Z</time>
      </trkpt>
      <trkpt lat="46.29603" lon="-0.24641">
        <ele>162.3</ele>
        <time>2012-03-06T14:13:45Z</time>
      </trkpt>
      <trkpt lat="46.29604" lon="-0.24639">
        <ele>162.9</ele>
        <time>2012-03-06T14:13:47Z</time>
      </trkpt>
      <trkpt lat="46.29603" lon="-0.24631">
        <ele>164.1</ele>
        <time>2012-03-06T14:13:56Z</time>
      </trkpt>
      <trkpt lat="46.29603" lon="-0.24631">
        <ele>164.4</ele>
        <time>2012-03-06T14:13:56Z</time>
      </trkpt>
      <trkpt lat="46.29603" lon="-0.24623">
        <ele>162.6</ele>
        <time>2012-03-06T14:14:05Z</time>
      </trkpt>
      <trkpt lat="46.29604" lon="-0.2462">
        <ele>162.2</ele>
        <time>2012-03-06T14:14:07Z</time>
      </trkpt>
      <trkpt lat="46.29617" lon="-0.24611">
        <ele>162.6</ele>
        <time>2012-03-06T14:14:18Z</time>
      </trkpt>
      <trkpt lat="46.29618" lon="-0.24609">
        <ele>162.8</ele>
        <time>2012-03-06T14:14:18Z</time>
      </trkpt>
      <trkpt lat="46.29622" lon="-0.24601">
        <ele>162.6</ele>
        <time>2012-03-06T14:14:25Z</time>
      </trkpt>
      <trkpt lat="46.29623" lon="-0.24599">
        <ele>163.1</ele>
        <time>2012-03-06T14:14:26Z</time>
      </trkpt>
      <trkpt lat="46.2963" lon="-0.24584">
        <ele>162.4</ele>
        <time>2012-03-06T14:14:38Z</time>
      </trkpt>
      <trkpt lat="46.29637" lon="-0.24578">
        <ele>162.8</ele>
        <time>2012-03-06T14:14:45Z</time>
      </trkpt>
      <trkpt lat="46.29639" lon="-0.24575">
        <ele>162.5</ele>
        <time>2012-03-06T14:14:46Z</time>
      </trkpt>
      <trkpt lat="46.29646" lon="-0.2456">
        <ele>163</ele>
        <time>2012-03-06T14:14:59Z</time>
      </trkpt>
      <trkpt lat="46.29648" lon="-0.24556">
        <ele>162.6</ele>
        <time>2012-03-06T14:15:01Z</time>
      </trkpt>
      <trkpt lat="46.29652" lon="-0.24545">
        <ele>161.3</ele>
        <time>2012-03-06T14:15:10Z</time>
      </trkpt>
      <trkpt lat="46.29661" lon="-0.24529">
        <ele>161.1</ele>
        <time>2012-03-06T14:15:23Z</time>
      </trkpt>
      <trkpt lat="46.29671" lon="-0.24521">
        <ele>161.2</ele>
        <time>2012-03-06T14:15:30Z</time>
      </trkpt>
      <trkpt lat="46.2967" lon="-0.2452">
        <ele>160.1</ele>
        <time>2012-03-06T14:15:31Z</time>
      </trkpt>
      <trkpt lat="46.29676" lon="-0.24503">
        <ele>161.9</ele>
        <time>2012-03-06T14:15:44Z</time>
      </trkpt>
      <trkpt lat="46.29677" lon="-0.24501">
        <ele>161.7</ele>
        <time>2012-03-06T14:15:44Z</time>
      </trkpt>
      <trkpt lat="46.29678" lon="-0.24498">
        <ele>161.8</ele>
        <time>2012-03-06T14:15:47Z</time>
      </trkpt>
      <trkpt lat="46.29683" lon="-0.24484">
        <ele>160.8</ele>
        <time>2012-03-06T14:15:55Z</time>
      </trkpt>
      <trkpt lat="46.2969" lon="-0.24479">
        <ele>160.7</ele>
        <time>2012-03-06T14:16:06Z</time>
      </trkpt>
      <trkpt lat="46.29691" lon="-0.24478">
        <ele>161</ele>
        <time>2012-03-06T14:16:06Z</time>
      </trkpt>
      <trkpt lat="46.29703" lon="-0.24472">
        <ele>162.8</ele>
        <time>2012-03-06T14:16:18Z</time>
      </trkpt>
      <trkpt lat="46.29704" lon="-0.24471">
        <ele>162.6</ele>
        <time>2012-03-06T14:16:18Z</time>
      </trkpt>
      <trkpt lat="46.29712" lon="-0.24476">
        <ele>161.8</ele>
        <time>2012-03-06T14:16:25Z</time>
      </trkpt>
      <trkpt lat="46.29714" lon="-0.24478">
        <ele>162.6</ele>
        <time>2012-03-06T14:16:27Z</time>
      </trkpt>
      <trkpt lat="46.2972" lon="-0.24487">
        <ele>160.7</ele>
        <time>2012-03-06T14:16:36Z</time>
      </trkpt>
      <trkpt lat="46.29725" lon="-0.24497">
        <ele>160.4</ele>
        <time>2012-03-06T14:16:46Z</time>
      </trkpt>
      <trkpt lat="46.29735" lon="-0.24507">
        <ele>159.5</ele>
        <time>2012-03-06T14:16:58Z</time>
      </trkpt>
      <trkpt lat="46.29736" lon="-0.24508">
        <ele>159.8</ele>
        <time>2012-03-06T14:16:59Z</time>
      </trkpt>
      <trkpt lat="46.29738" lon="-0.24511">
        <ele>160.4</ele>
        <time>2012-03-06T14:17:03Z</time>
      </trkpt>
      <trkpt lat="46.29739" lon="-0.24515">
        <ele>162.4</ele>
        <time>2012-03-06T14:17:06Z</time>
      </trkpt>
      <trkpt lat="46.29745" lon="-0.24531">
        <ele>159.9</ele>
        <time>2012-03-06T14:17:15Z</time>
      </trkpt>
      <trkpt lat="46.29745" lon="-0.24531">
        <ele>160.1</ele>
        <time>2012-03-06T14:17:17Z</time>
      </trkpt>
      <trkpt lat="46.29749" lon="-0.24539">
        <ele>160.8</ele>
        <time>2012-03-06T14:17:24Z</time>
      </trkpt>
      <trkpt lat="46.29752" lon="-0.24543">
        <ele>161.9</ele>
        <time>2012-03-06T14:17:28Z</time>
      </trkpt>
      <trkpt lat="46.29755" lon="-0.2455">
        <ele>162.5</ele>
        <time>2012-03-06T14:17:35Z</time>
      </trkpt>
      <trkpt lat="46.29755" lon="-0.24552">
        <ele>162.5</ele>
        <time>2012-03-06T14:17:36Z</time>
      </trkpt>
      <trkpt lat="46.29759" lon="-0.24567">
        <ele>163.4</ele>
        <time>2012-03-06T14:17:47Z</time>
      </trkpt>
      <trkpt lat="46.29759" lon="-0.24569">
        <ele>163.7</ele>
        <time>2012-03-06T14:17:47Z</time>
      </trkpt>
      <trkpt lat="46.29764" lon="-0.24581">
        <ele>164.4</ele>
        <time>2012-03-06T14:17:56Z</time>
      </trkpt>
      <trkpt lat="46.29765" lon="-0.24584">
        <ele>164.2</ele>
        <time>2012-03-06T14:17:57Z</time>
      </trkpt>
      <trkpt lat="46.29768" lon="-0.24598">
        <ele>164.6</ele>
        <time>2012-03-06T14:18:04Z</time>
      </trkpt>
      <trkpt lat="46.29769" lon="-0.24599">
        <ele>163.5</ele>
        <time>2012-03-06T14:18:06Z</time>
      </trkpt>
      <trkpt lat="46.29774" lon="-0.24618">
        <ele>162</ele>
        <time>2012-03-06T14:18:18Z</time>
      </trkpt>
      <trkpt lat="46.29776" lon="-0.24626">
        <ele>161.9</ele>
        <time>2012-03-06T14:18:25Z</time>
      </trkpt>
      <trkpt lat="46.29778" lon="-0.24627">
        <ele>161.8</ele>
        <time>2012-03-06T14:18:26Z</time>
      </trkpt>
      <trkpt lat="46.29787" lon="-0.2464">
        <ele>163.8</ele>
        <time>2012-03-06T14:18:39Z</time>
      </trkpt>
      <trkpt lat="46.29787" lon="-0.24642">
        <ele>163.9</ele>
        <time>2012-03-06T14:18:40Z</time>
      </trkpt>
      <trkpt lat="46.29786" lon="-0.24643">
        <ele>164.4</ele>
        <time>2012-03-06T14:18:42Z</time>
      </trkpt>
      <trkpt lat="46.29789" lon="-0.24651">
        <ele>163.9</ele>
        <time>2012-03-06T14:18:49Z</time>
      </trkpt>
      <trkpt lat="46.29793" lon="-0.2466">
        <ele>165.4</ele>
        <time>2012-03-06T14:18:54Z</time>
      </trkpt>
      <trkpt lat="46.29796" lon="-0.24664">
        <ele>163.6</ele>
        <time>2012-03-06T14:18:58Z</time>
      </trkpt>
      <trkpt lat="46.29798" lon="-0.24675">
        <ele>163.3</ele>
        <time>2012-03-06T14:19:02Z</time>
      </trkpt>
      <trkpt lat="46.29802" lon="-0.24681">
        <ele>164.4</ele>
        <time>2012-03-06T14:19:10Z</time>
      </trkpt>
      <trkpt lat="46.29804" lon="-0.24681">
        <ele>164.5</ele>
        <time>2012-03-06T14:19:11Z</time>
      </trkpt>
      <trkpt lat="46.29808" lon="-0.24698">
        <ele>164.1</ele>
        <time>2012-03-06T14:19:21Z</time>
      </trkpt>
      <trkpt lat="46.29812" lon="-0.24715">
        <ele>167</ele>
        <time>2012-03-06T14:19:31Z</time>
      </trkpt>
      <trkpt lat="46.29814" lon="-0.24716">
        <ele>166.2</ele>
        <time>2012-03-06T14:19:31Z</time>
      </trkpt>
      <trkpt lat="46.29822" lon="-0.24727">
        <ele>165.6</ele>
        <time>2012-03-06T14:19:43Z</time>
      </trkpt>
      <trkpt lat="46.29823" lon="-0.24726">
        <ele>164.9</ele>
        <time>2012-03-06T14:19:44Z</time>
      </trkpt>
      <trkpt lat="46.29824" lon="-0.24735">
        <ele>164</ele>
        <time>2012-03-06T14:19:49Z</time>
      </trkpt>
      <trkpt lat="46.29825" lon="-0.24738">
        <ele>165.8</ele>
        <time>2012-03-06T14:19:51Z</time>
      </trkpt>
      <trkpt lat="46.2983" lon="-0.24758">
        <ele>164.1</ele>
        <time>2012-03-06T14:20:01Z</time>
      </trkpt>
      <trkpt lat="46.29835" lon="-0.24771">
        <ele>163.4</ele>
        <time>2012-03-06T14:20:11Z</time>
      </trkpt>
      <trkpt lat="46.29835" lon="-0.24775">
        <ele>163.6</ele>
        <time>2012-03-06T14:20:11Z</time>
      </trkpt>
      <trkpt lat="46.29845" lon="-0.24789">
        <ele>163.1</ele>
        <time>2012-03-06T14:20:23Z</time>
      </trkpt>
      <trkpt lat="46.29847" lon="-0.24799">
        <ele>161.8</ele>
        <time>2012-03-06T14:20:30Z</time>
      </trkpt>
      <trkpt lat="46.29848" lon="-0.248">
        <ele>160.9</ele>
        <time>2012-03-06T14:20:31Z</time>
      </trkpt>
      <trkpt lat="46.29858" lon="-0.24806">
        <ele>160.6</ele>
        <time>2012-03-06T14:20:44Z</time>
      </trkpt>
      <trkpt lat="46.29859" lon="-0.2481">
        <ele>160.8</ele>
        <time>2012-03-06T14:20:44Z</time>
      </trkpt>
      <trkpt lat="46.29861" lon="-0.24818">
        <ele>162.2</ele>
        <time>2012-03-06T14:20:48Z</time>
      </trkpt>
      <trkpt lat="46.29865" lon="-0.24827">
        <ele>161.1</ele>
        <time>2012-03-06T14:20:54Z</time>
      </trkpt>
      <trkpt lat="46.29867" lon="-0.24832">
        <ele>161</ele>
        <time>2012-03-06T14:20:57Z</time>
      </trkpt>
      <trkpt lat="46.29871" lon="-0.24836">
        <ele>159.3</ele>
        <time>2012-03-06T14:21:02Z</time>
      </trkpt>
      <trkpt lat="46.29877" lon="-0.24845">
        <ele>159.5</ele>
        <time>2012-03-06T14:21:10Z</time>
      </trkpt>
      <trkpt lat="46.29879" lon="-0.2485">
        <ele>159</ele>
        <time>2012-03-06T14:21:11Z</time>
      </trkpt>
      <trkpt lat="46.29887" lon="-0.2486">
        <ele>158.7</ele>
        <time>2012-03-06T14:21:22Z</time>
      </trkpt>
      <trkpt lat="46.29888" lon="-0.24862">
        <ele>158.9</ele>
        <time>2012-03-06T14:21:22Z</time>
      </trkpt>
      <trkpt lat="46.29894" lon="-0.24875">
        <ele>159.7</ele>
        <time>2012-03-06T14:21:32Z</time>
      </trkpt>
      <trkpt lat="46.29894" lon="-0.24876">
        <ele>159.7</ele>
        <time>2012-03-06T14:21:32Z</time>
      </trkpt>
      <trkpt lat="46.29902" lon="-0.24885">
        <ele>158.6</ele>
        <time>2012-03-06T14:21:41Z</time>
      </trkpt>
      <trkpt lat="46.29913" lon="-0.24895">
        <ele>155.1</ele>
        <time>2012-03-06T14:21:53Z</time>
      </trkpt>
      <trkpt lat="46.29915" lon="-0.24899">
        <ele>157.2</ele>
        <time>2012-03-06T14:21:56Z</time>
      </trkpt>
      <trkpt lat="46.29919" lon="-0.24904">
        <ele>158.4</ele>
        <time>2012-03-06T14:22:01Z</time>
      </trkpt>
      <trkpt lat="46.2992" lon="-0.24904">
        <ele>159.1</ele>
        <time>2012-03-06T14:22:06Z</time>
      </trkpt>
      <trkpt lat="46.29925" lon="-0.2491">
        <ele>160.1</ele>
        <time>2012-03-06T14:22:11Z</time>
      </trkpt>
      <trkpt lat="46.29931" lon="-0.24914">
        <ele>161.2</ele>
        <time>2012-03-06T14:22:16Z</time>
      </trkpt>
      <trkpt lat="46.29936" lon="-0.24918">
        <ele>161</ele>
        <time>2012-03-06T14:22:21Z</time>
      </trkpt>
      <trkpt lat="46.29942" lon="-0.24921">
        <ele>160.4</ele>
        <time>2012-03-06T14:22:26Z</time>
      </trkpt>
      <trkpt lat="46.29948" lon="-0.24924">
        <ele>161.6</ele>
        <time>2012-03-06T14:22:31Z</time>
      </trkpt>
      <trkpt lat="46.29953" lon="-0.24927">
        <ele>161.6</ele>
        <time>2012-03-06T14:22:36Z</time>
      </trkpt>
      <trkpt lat="46.29959" lon="-0.2493">
        <ele>161.6</ele>
        <time>2012-03-06T14:22:41Z</time>
      </trkpt>
      <trkpt lat="46.29964" lon="-0.24931">
        <ele>161.2</ele>
        <time>2012-03-06T14:22:46Z</time>
      </trkpt>
      <trkpt lat="46.29969" lon="-0.24934">
        <ele>161.3</ele>
        <time>2012-03-06T14:22:51Z</time>
      </trkpt>
      <trkpt lat="46.29972" lon="-0.24937">
        <ele>160.8</ele>
        <time>2012-03-06T14:22:56Z</time>
      </trkpt>
      <trkpt lat="46.29981" lon="-0.24943">
        <ele>160.4</ele>
        <time>2012-03-06T14:23:03Z</time>
      </trkpt>
      <trkpt lat="46.29983" lon="-0.24946">
        <ele>159.8</ele>
        <time>2012-03-06T14:23:06Z</time>
      </trkpt>
      <trkpt lat="46.2999" lon="-0.24967">
        <ele>159.4</ele>
        <time>2012-03-06T14:23:15Z</time>
      </trkpt>
      <trkpt lat="46.29998" lon="-0.2498">
        <ele>159.1</ele>
        <time>2012-03-06T14:23:26Z</time>
      </trkpt>
      <trkpt lat="46.3" lon="-0.24985">
        <ele>160</ele>
        <time>2012-03-06T14:23:32Z</time>
      </trkpt>
      <trkpt lat="46.30004" lon="-0.24995">
        <ele>158.5</ele>
        <time>2012-03-06T14:23:39Z</time>
      </trkpt>
      <trkpt lat="46.30005" lon="-0.24999">
        <ele>158.7</ele>
        <time>2012-03-06T14:23:41Z</time>
      </trkpt>
      <trkpt lat="46.30009" lon="-0.25011">
        <ele>156.9</ele>
        <time>2012-03-06T14:23:50Z</time>
      </trkpt>
      <trkpt lat="46.30011" lon="-0.25013">
        <ele>156.6</ele>
        <time>2012-03-06T14:23:51Z</time>
      </trkpt>
      <trkpt lat="46.30016" lon="-0.25031">
        <ele>157.5</ele>
        <time>2012-03-06T14:24:03Z</time>
      </trkpt>
      <trkpt lat="46.3002" lon="-0.25041">
        <ele>157.3</ele>
        <time>2012-03-06T14:24:10Z</time>
      </trkpt>
      <trkpt lat="46.30021" lon="-0.25043">
        <ele>156.7</ele>
        <time>2012-03-06T14:24:11Z</time>
      </trkpt>
      <trkpt lat="46.30029" lon="-0.2506">
        <ele>155.9</ele>
        <time>2012-03-06T14:24:24Z</time>
      </trkpt>
      <trkpt lat="46.3003" lon="-0.25062">
        <ele>156.1</ele>
        <time>2012-03-06T14:24:24Z</time>
      </trkpt>
      <trkpt lat="46.30031" lon="-0.25065">
        <ele>156.5</ele>
        <time>2012-03-06T14:24:27Z</time>
      </trkpt>
      <trkpt lat="46.30036" lon="-0.25075">
        <ele>156.5</ele>
        <time>2012-03-06T14:24:35Z</time>
      </trkpt>
      <trkpt lat="46.30037" lon="-0.25077">
        <ele>156.6</ele>
        <time>2012-03-06T14:24:36Z</time>
      </trkpt>
      <trkpt lat="46.30043" lon="-0.25093">
        <ele>155.7</ele>
        <time>2012-03-06T14:24:48Z</time>
      </trkpt>
      <trkpt lat="46.30044" lon="-0.25095">
        <ele>155.4</ele>
        <time>2012-03-06T14:24:48Z</time>
      </trkpt>
      <trkpt lat="46.30049" lon="-0.25103">
        <ele>155.8</ele>
        <time>2012-03-06T14:24:55Z</time>
      </trkpt>
      <trkpt lat="46.3005" lon="-0.25107">
        <ele>154.9</ele>
        <time>2012-03-06T14:24:56Z</time>
      </trkpt>
      <trkpt lat="46.30057" lon="-0.25119">
        <ele>157.3</ele>
        <time>2012-03-06T14:25:05Z</time>
      </trkpt>
      <trkpt lat="46.30058" lon="-0.25124">
        <ele>158.9</ele>
        <time>2012-03-06T14:25:06Z</time>
      </trkpt>
      <trkpt lat="46.30067" lon="-0.25139">
        <ele>158.9</ele>
        <time>2012-03-06T14:25:18Z</time>
      </trkpt>
      <trkpt lat="46.30067" lon="-0.25141">
        <ele>158.6</ele>
        <time>2012-03-06T14:25:18Z</time>
      </trkpt>
      <trkpt lat="46.30071" lon="-0.25148">
        <ele>158.7</ele>
        <time>2012-03-06T14:25:24Z</time>
      </trkpt>
      <trkpt lat="46.30074" lon="-0.25154">
        <ele>158.7</ele>
        <time>2012-03-06T14:25:28Z</time>
      </trkpt>
      <trkpt lat="46.30078" lon="-0.2516">
        <ele>160.2</ele>
        <time>2012-03-06T14:25:34Z</time>
      </trkpt>
      <trkpt lat="46.30079" lon="-0.25165">
        <ele>158.4</ele>
        <time>2012-03-06T14:25:38Z</time>
      </trkpt>
      <trkpt lat="46.3008" lon="-0.25168">
        <ele>158.6</ele>
        <time>2012-03-06T14:25:45Z</time>
      </trkpt>
      <trkpt lat="46.3008" lon="-0.25168">
        <ele>158.8</ele>
        <time>2012-03-06T14:25:46Z</time>
      </trkpt>
      <trkpt lat="46.30084" lon="-0.25164">
        <ele>159.8</ele>
        <time>2012-03-06T14:25:58Z</time>
      </trkpt>
      <trkpt lat="46.30084" lon="-0.25162">
        <ele>159.7</ele>
        <time>2012-03-06T14:25:58Z</time>
      </trkpt>
      <trkpt lat="46.30088" lon="-0.25157">
        <ele>161</ele>
        <time>2012-03-06T14:26:03Z</time>
      </trkpt>
      <trkpt lat="46.30092" lon="-0.25145">
        <ele>157.9</ele>
        <time>2012-03-06T14:26:10Z</time>
      </trkpt>
      <trkpt lat="46.30093" lon="-0.25142">
        <ele>157.8</ele>
        <time>2012-03-06T14:26:11Z</time>
      </trkpt>
      <trkpt lat="46.30105" lon="-0.25129">
        <ele>155.8</ele>
        <time>2012-03-06T14:26:23Z</time>
      </trkpt>
      <trkpt lat="46.30106" lon="-0.25128">
        <ele>155.7</ele>
        <time>2012-03-06T14:26:24Z</time>
      </trkpt>
      <trkpt lat="46.30112" lon="-0.25122">
        <ele>156</ele>
        <time>2012-03-06T14:26:30Z</time>
      </trkpt>
      <trkpt lat="46.30114" lon="-0.25119">
        <ele>156.5</ele>
        <time>2012-03-06T14:26:31Z</time>
      </trkpt>
      <trkpt lat="46.30123" lon="-0.25115">
        <ele>154.8</ele>
        <time>2012-03-06T14:26:43Z</time>
      </trkpt>
      <trkpt lat="46.30126" lon="-0.25115">
        <ele>153.7</ele>
        <time>2012-03-06T14:26:50Z</time>
      </trkpt>
      <trkpt lat="46.30127" lon="-0.25114">
        <ele>153.6</ele>
        <time>2012-03-06T14:26:51Z</time>
      </trkpt>
      <trkpt lat="46.30141" lon="-0.25117">
        <ele>154.4</ele>
        <time>2012-03-06T14:27:02Z</time>
      </trkpt>
      <trkpt lat="46.30149" lon="-0.25116">
        <ele>155.8</ele>
        <time>2012-03-06T14:27:10Z</time>
      </trkpt>
      <trkpt lat="46.3015" lon="-0.25116">
        <ele>155.3</ele>
        <time>2012-03-06T14:27:11Z</time>
      </trkpt>
      <trkpt lat="46.30157" lon="-0.25117">
        <ele>155</ele>
        <time>2012-03-06T14:27:20Z</time>
      </trkpt>
      <trkpt lat="46.30161" lon="-0.2512">
        <ele>155.9</ele>
        <time>2012-03-06T14:27:21Z</time>
      </trkpt>
      <trkpt lat="46.30173" lon="-0.25132">
        <ele>158.3</ele>
        <time>2012-03-06T14:27:34Z</time>
      </trkpt>
      <trkpt lat="46.30174" lon="-0.25132">
        <ele>158.7</ele>
        <time>2012-03-06T14:27:34Z</time>
      </trkpt>
      <trkpt lat="46.30177" lon="-0.25136">
        <ele>159.7</ele>
        <time>2012-03-06T14:27:38Z</time>
      </trkpt>
      <trkpt lat="46.30181" lon="-0.2514">
        <ele>160.2</ele>
        <time>2012-03-06T14:27:44Z</time>
      </trkpt>
      <trkpt lat="46.30183" lon="-0.25139">
        <ele>160</ele>
        <time>2012-03-06T14:27:48Z</time>
      </trkpt>
      <trkpt lat="46.30189" lon="-0.25133">
        <ele>158.7</ele>
        <time>2012-03-06T14:27:54Z</time>
      </trkpt>
      <trkpt lat="46.30193" lon="-0.25126">
        <ele>157.9</ele>
        <time>2012-03-06T14:27:58Z</time>
      </trkpt>
      <trkpt lat="46.30196" lon="-0.25119">
        <ele>156.9</ele>
        <time>2012-03-06T14:28:03Z</time>
      </trkpt>
      <trkpt lat="46.30199" lon="-0.2511">
        <ele>157.2</ele>
        <time>2012-03-06T14:28:10Z</time>
      </trkpt>
      <trkpt lat="46.302" lon="-0.25108">
        <ele>157.6</ele>
        <time>2012-03-06T14:28:11Z</time>
      </trkpt>
      <trkpt lat="46.3021" lon="-0.25087">
        <ele>156.4</ele>
        <time>2012-03-06T14:28:24Z</time>
      </trkpt>
      <trkpt lat="46.3021" lon="-0.25086">
        <ele>155.9</ele>
        <time>2012-03-06T14:28:26Z</time>
      </trkpt>
      <trkpt lat="46.30222" lon="-0.25072">
        <ele>156.4</ele>
        <time>2012-03-06T14:28:39Z</time>
      </trkpt>
      <trkpt lat="46.30225" lon="-0.25071">
        <ele>157.6</ele>
        <time>2012-03-06T14:28:43Z</time>
      </trkpt>
      <trkpt lat="46.30232" lon="-0.25061">
        <ele>157</ele>
        <time>2012-03-06T14:28:50Z</time>
      </trkpt>
      <trkpt lat="46.30234" lon="-0.25058">
        <ele>156.5</ele>
        <time>2012-03-06T14:28:51Z</time>
      </trkpt>
      <trkpt lat="46.30242" lon="-0.25046">
        <ele>154.1</ele>
        <time>2012-03-06T14:29:01Z</time>
      </trkpt>
      <trkpt lat="46.30244" lon="-0.25038">
        <ele>152.1</ele>
        <time>2012-03-06T14:29:07Z</time>
      </trkpt>
      <trkpt lat="46.30252" lon="-0.25028">
        <ele>150.7</ele>
        <time>2012-03-06T14:29:17Z</time>
      </trkpt>
      <trkpt lat="46.30253" lon="-0.25027">
        <ele>150.2</ele>
        <time>2012-03-06T14:29:17Z</time>
      </trkpt>
      <trkpt lat="46.30258" lon="-0.25017">
        <ele>149</ele>
        <time>2012-03-06T14:29:27Z</time>
      </trkpt>
      <trkpt lat="46.30262" lon="-0.25014">
        <ele>148.5</ele>
        <time>2012-03-06T14:29:27Z</time>
      </trkpt>
      <trkpt lat="46.30268" lon="-0.25008">
        <ele>146.4</ele>
        <time>2012-03-06T14:29:35Z</time>
      </trkpt>
      <trkpt lat="46.3027" lon="-0.25006">
        <ele>146.6</ele>
        <time>2012-03-06T14:29:37Z</time>
      </trkpt>
      <trkpt lat="46.30281" lon="-0.25">
        <ele>145.6</ele>
        <time>2012-03-06T14:29:47Z</time>
      </trkpt>
      <trkpt lat="46.30282" lon="-0.25">
        <ele>145.7</ele>
        <time>2012-03-06T14:29:47Z</time>
      </trkpt>
      <trkpt lat="46.3029" lon="-0.25001">
        <ele>143.6</ele>
        <time>2012-03-06T14:29:56Z</time>
      </trkpt>
      <trkpt lat="46.30291" lon="-0.25001">
        <ele>143.6</ele>
        <time>2012-03-06T14:29:56Z</time>
      </trkpt>
      <trkpt lat="46.30297" lon="-0.25005">
        <ele>142.1</ele>
        <time>2012-03-06T14:30:04Z</time>
      </trkpt>
      <trkpt lat="46.30299" lon="-0.25007">
        <ele>142.1</ele>
        <time>2012-03-06T14:30:06Z</time>
      </trkpt>
      <trkpt lat="46.30307" lon="-0.25018">
        <ele>140.5</ele>
        <time>2012-03-06T14:30:16Z</time>
      </trkpt>
      <trkpt lat="46.30308" lon="-0.2502">
        <ele>140.7</ele>
        <time>2012-03-06T14:30:16Z</time>
      </trkpt>
      <trkpt lat="46.30311" lon="-0.25029">
        <ele>142.5</ele>
        <time>2012-03-06T14:30:23Z</time>
      </trkpt>
      <trkpt lat="46.30317" lon="-0.25034">
        <ele>142</ele>
        <time>2012-03-06T14:30:31Z</time>
      </trkpt>
      <trkpt lat="46.30318" lon="-0.25033">
        <ele>141.8</ele>
        <time>2012-03-06T14:30:31Z</time>
      </trkpt>
      <trkpt lat="46.30323" lon="-0.25024">
        <ele>139.9</ele>
        <time>2012-03-06T14:30:39Z</time>
      </trkpt>
      <trkpt lat="46.30323" lon="-0.25021">
        <ele>139.3</ele>
        <time>2012-03-06T14:30:41Z</time>
      </trkpt>
      <trkpt lat="46.30323" lon="-0.25005">
        <ele>139.8</ele>
        <time>2012-03-06T14:30:51Z</time>
      </trkpt>
      <trkpt lat="46.30323" lon="-0.25003">
        <ele>139.4</ele>
        <time>2012-03-06T14:30:51Z</time>
      </trkpt>
      <trkpt lat="46.30319" lon="-0.24982">
        <ele>137.7</ele>
        <time>2012-03-06T14:31:03Z</time>
      </trkpt>
      <trkpt lat="46.3032" lon="-0.24974">
        <ele>138.6</ele>
        <time>2012-03-06T14:31:09Z</time>
      </trkpt>
      <trkpt lat="46.3032" lon="-0.24974">
        <ele>138.7</ele>
        <time>2012-03-06T14:31:12Z</time>
      </trkpt>
      <trkpt lat="46.30318" lon="-0.24963">
        <ele>138.6</ele>
        <time>2012-03-06T14:31:22Z</time>
      </trkpt>
      <trkpt lat="46.30317" lon="-0.2496">
        <ele>138.9</ele>
        <time>2012-03-06T14:31:23Z</time>
      </trkpt>
      <trkpt lat="46.30313" lon="-0.24947">
        <ele>140.4</ele>
        <time>2012-03-06T14:31:31Z</time>
      </trkpt>
      <trkpt lat="46.30313" lon="-0.24946">
        <ele>140.8</ele>
        <time>2012-03-06T14:31:32Z</time>
      </trkpt>
      <trkpt lat="46.30315" lon="-0.24945">
        <ele>141.1</ele>
        <time>2012-03-06T14:31:40Z</time>
      </trkpt>
      <trkpt lat="46.30314" lon="-0.24943">
        <ele>140.6</ele>
        <time>2012-03-06T14:31:41Z</time>
      </trkpt>
      <trkpt lat="46.30314" lon="-0.24943">
        <ele>140.8</ele>
        <time>2012-03-06T14:31:46Z</time>
      </trkpt>
      <trkpt lat="46.30313" lon="-0.2494">
        <ele>140.4</ele>
        <time>2012-03-06T14:31:51Z</time>
      </trkpt>
      <trkpt lat="46.30314" lon="-0.2494">
        <ele>140.5</ele>
        <time>2012-03-06T14:31:56Z</time>
      </trkpt>
      <trkpt lat="46.30314" lon="-0.24934">
        <ele>140.9</ele>
        <time>2012-03-06T14:32:01Z</time>
      </trkpt>
      <trkpt lat="46.30313" lon="-0.24927">
        <ele>143.1</ele>
        <time>2012-03-06T14:32:06Z</time>
      </trkpt>
      <trkpt lat="46.30313" lon="-0.24922">
        <ele>141.6</ele>
        <time>2012-03-06T14:32:11Z</time>
      </trkpt>
      <trkpt lat="46.30313" lon="-0.24923">
        <ele>141.8</ele>
        <time>2012-03-06T14:32:16Z</time>
      </trkpt>
      <trkpt lat="46.30313" lon="-0.24922">
        <ele>141.7</ele>
        <time>2012-03-06T14:32:23Z</time>
      </trkpt>
      <trkpt lat="46.30313" lon="-0.24922">
        <ele>141.6</ele>
        <time>2012-03-06T14:32:28Z</time>
      </trkpt>
      <trkpt lat="46.30313" lon="-0.24922">
        <ele>141.9</ele>
        <time>2012-03-06T14:32:34Z</time>
      </trkpt>
      <trkpt lat="46.30313" lon="-0.24922">
        <ele>141.9</ele>
        <time>2012-03-06T14:32:38Z</time>
      </trkpt>
      <trkpt lat="46.30313" lon="-0.24921">
        <ele>142</ele>
        <time>2012-03-06T14:32:44Z</time>
      </trkpt>
      <trkpt lat="46.30313" lon="-0.24921">
        <ele>142</ele>
        <time>2012-03-06T14:32:47Z</time>
      </trkpt>
      <trkpt lat="46.30313" lon="-0.24921">
        <ele>142</ele>
        <time>2012-03-06T14:32:52Z</time>
      </trkpt>
      <trkpt lat="46.30313" lon="-0.24921">
        <ele>142</ele>
        <time>2012-03-06T14:33:00Z</time>
      </trkpt>
      <trkpt lat="46.30313" lon="-0.24921">
        <ele>142</ele>
        <time>2012-03-06T14:33:01Z</time>
      </trkpt>
      <trkpt lat="46.30313" lon="-0.24921">
        <ele>142</ele>
        <time>2012-03-06T14:33:11Z</time>
      </trkpt>
      <trkpt lat="46.30313" lon="-0.24921">
        <ele>141.9</ele>
        <time>2012-03-06T14:33:12Z</time>
      </trkpt>
      <trkpt lat="46.30313" lon="-0.24921">
        <ele>142</ele>
        <time>2012-03-06T14:33:16Z</time>
      </trkpt>
      <trkpt lat="46.30315" lon="-0.24931">
        <ele>140.8</ele>
        <time>2012-03-06T14:33:27Z</time>
      </trkpt>
      <trkpt lat="46.30313" lon="-0.24937">
        <ele>139.6</ele>
        <time>2012-03-06T14:33:36Z</time>
      </trkpt>
      <trkpt lat="46.30313" lon="-0.24937">
        <ele>140.2</ele>
        <time>2012-03-06T14:33:36Z</time>
      </trkpt>
      <trkpt lat="46.30313" lon="-0.24944">
        <ele>138.8</ele>
        <time>2012-03-06T14:33:46Z</time>
      </trkpt>
      <trkpt lat="46.30313" lon="-0.24947">
        <ele>138.4</ele>
        <time>2012-03-06T14:33:46Z</time>
      </trkpt>
      <trkpt lat="46.30315" lon="-0.24958">
        <ele>138.9</ele>
        <time>2012-03-06T14:33:56Z</time>
      </trkpt>
      <trkpt lat="46.30316" lon="-0.24959">
        <ele>139.1</ele>
        <time>2012-03-06T14:33:57Z</time>
      </trkpt>
      <trkpt lat="46.30319" lon="-0.24974">
        <ele>138.9</ele>
        <time>2012-03-06T14:34:07Z</time>
      </trkpt>
      <trkpt lat="46.30319" lon="-0.24976">
        <ele>139.2</ele>
        <time>2012-03-06T14:34:08Z</time>
      </trkpt>
      <trkpt lat="46.30322" lon="-0.24983">
        <ele>138.3</ele>
        <time>2012-03-06T14:34:15Z</time>
      </trkpt>
      <trkpt lat="46.30322" lon="-0.24987">
        <ele>137.8</ele>
        <time>2012-03-06T14:34:16Z</time>
      </trkpt>
      <trkpt lat="46.30324" lon="-0.25002">
        <ele>136.5</ele>
        <time>2012-03-06T14:34:28Z</time>
      </trkpt>
      <trkpt lat="46.30323" lon="-0.25006">
        <ele>135.8</ele>
        <time>2012-03-06T14:34:28Z</time>
      </trkpt>
      <trkpt lat="46.30323" lon="-0.25012">
        <ele>137.1</ele>
        <time>2012-03-06T14:34:34Z</time>
      </trkpt>
      <trkpt lat="46.30321" lon="-0.25018">
        <ele>137.7</ele>
        <time>2012-03-06T14:34:37Z</time>
      </trkpt>
      <trkpt lat="46.3032" lon="-0.25025">
        <ele>135.4</ele>
        <time>2012-03-06T14:34:43Z</time>
      </trkpt>
      <trkpt lat="46.30318" lon="-0.2503">
        <ele>137</ele>
        <time>2012-03-06T14:34:48Z</time>
      </trkpt>
      <trkpt lat="46.30314" lon="-0.25031">
        <ele>138.3</ele>
        <time>2012-03-06T14:34:54Z</time>
      </trkpt>
      <trkpt lat="46.3031" lon="-0.2503">
        <ele>138.7</ele>
        <time>2012-03-06T14:34:57Z</time>
      </trkpt>
      <trkpt lat="46.30307" lon="-0.25024">
        <ele>136.7</ele>
        <time>2012-03-06T14:35:02Z</time>
      </trkpt>
      <trkpt lat="46.30306" lon="-0.25021">
        <ele>137.1</ele>
        <time>2012-03-06T14:35:06Z</time>
      </trkpt>
      <trkpt lat="46.30303" lon="-0.25014">
        <ele>138.1</ele>
        <time>2012-03-06T14:35:11Z</time>
      </trkpt>
      <trkpt lat="46.30299" lon="-0.2501">
        <ele>138.5</ele>
        <time>2012-03-06T14:35:16Z</time>
      </trkpt>
      <trkpt lat="46.30293" lon="-0.25">
        <ele>136.9</ele>
        <time>2012-03-06T14:35:22Z</time>
      </trkpt>
      <trkpt lat="46.30283" lon="-0.24995">
        <ele>141</ele>
        <time>2012-03-06T14:35:32Z</time>
      </trkpt>
      <trkpt lat="46.30283" lon="-0.24995">
        <ele>141.1</ele>
        <time>2012-03-06T14:35:32Z</time>
      </trkpt>
      <trkpt lat="46.30273" lon="-0.24995">
        <ele>145</ele>
        <time>2012-03-06T14:35:42Z</time>
      </trkpt>
      <trkpt lat="46.30272" lon="-0.24997">
        <ele>145.1</ele>
        <time>2012-03-06T14:35:43Z</time>
      </trkpt>
      <trkpt lat="46.3027" lon="-0.24999">
        <ele>146.5</ele>
        <time>2012-03-06T14:35:46Z</time>
      </trkpt>
      <trkpt lat="46.30261" lon="-0.25009">
        <ele>149</ele>
        <time>2012-03-06T14:35:55Z</time>
      </trkpt>
      <trkpt lat="46.3026" lon="-0.2501">
        <ele>149</ele>
        <time>2012-03-06T14:35:56Z</time>
      </trkpt>
      <trkpt lat="46.30254" lon="-0.25022">
        <ele>148.9</ele>
        <time>2012-03-06T14:36:09Z</time>
      </trkpt>
      <trkpt lat="46.30254" lon="-0.25024">
        <ele>149.1</ele>
        <time>2012-03-06T14:36:09Z</time>
      </trkpt>
      <trkpt lat="46.30253" lon="-0.25026">
        <ele>149.8</ele>
        <time>2012-03-06T14:36:13Z</time>
      </trkpt>
      <trkpt lat="46.30248" lon="-0.25028">
        <ele>149.9</ele>
        <time>2012-03-06T14:36:17Z</time>
      </trkpt>
      <trkpt lat="46.30241" lon="-0.25033">
        <ele>149.6</ele>
        <time>2012-03-06T14:36:24Z</time>
      </trkpt>
      <trkpt lat="46.30238" lon="-0.25033">
        <ele>149.4</ele>
        <time>2012-03-06T14:36:26Z</time>
      </trkpt>
      <trkpt lat="46.30235" lon="-0.25046">
        <ele>152.3</ele>
        <time>2012-03-06T14:36:38Z</time>
      </trkpt>
      <trkpt lat="46.30233" lon="-0.25053">
        <ele>152.3</ele>
        <time>2012-03-06T14:36:41Z</time>
      </trkpt>
      <trkpt lat="46.30225" lon="-0.25063">
        <ele>152.4</ele>
        <time>2012-03-06T14:36:50Z</time>
      </trkpt>
      <trkpt lat="46.30225" lon="-0.25065">
        <ele>152.1</ele>
        <time>2012-03-06T14:36:51Z</time>
      </trkpt>
      <trkpt lat="46.30217" lon="-0.25078">
        <ele>154.3</ele>
        <time>2012-03-06T14:37:04Z</time>
      </trkpt>
      <trkpt lat="46.30217" lon="-0.2508">
        <ele>152.7</ele>
        <time>2012-03-06T14:37:04Z</time>
      </trkpt>
      <trkpt lat="46.30212" lon="-0.25084">
        <ele>153.8</ele>
        <time>2012-03-06T14:37:08Z</time>
      </trkpt>
      <trkpt lat="46.30206" lon="-0.25092">
        <ele>158.1</ele>
        <time>2012-03-06T14:37:15Z</time>
      </trkpt>
      <trkpt lat="46.30204" lon="-0.25093">
        <ele>157.9</ele>
        <time>2012-03-06T14:37:17Z</time>
      </trkpt>
      <trkpt lat="46.30198" lon="-0.25096">
        <ele>159.4</ele>
        <time>2012-03-06T14:37:24Z</time>
      </trkpt>
      <trkpt lat="46.30202" lon="-0.25105">
        <ele>159.4</ele>
        <time>2012-03-06T14:37:29Z</time>
      </trkpt>
      <trkpt lat="46.30199" lon="-0.25111">
        <ele>160.2</ele>
        <time>2012-03-06T14:37:33Z</time>
      </trkpt>
      <trkpt lat="46.30195" lon="-0.25121">
        <ele>161.8</ele>
        <time>2012-03-06T14:37:40Z</time>
      </trkpt>
      <trkpt lat="46.30195" lon="-0.25123">
        <ele>161.9</ele>
        <time>2012-03-06T14:37:41Z</time>
      </trkpt>
      <trkpt lat="46.3019" lon="-0.25131">
        <ele>161.4</ele>
        <time>2012-03-06T14:37:49Z</time>
      </trkpt>
      <trkpt lat="46.30189" lon="-0.25134">
        <ele>161.3</ele>
        <time>2012-03-06T14:37:52Z</time>
      </trkpt>
      <trkpt lat="46.30185" lon="-0.25139">
        <ele>160.6</ele>
        <time>2012-03-06T14:38:01Z</time>
      </trkpt>
      <trkpt lat="46.30185" lon="-0.2514">
        <ele>161.4</ele>
        <time>2012-03-06T14:38:01Z</time>
      </trkpt>
      <trkpt lat="46.30185" lon="-0.25141">
        <ele>162.9</ele>
        <time>2012-03-06T14:38:13Z</time>
      </trkpt>
      <trkpt lat="46.30185" lon="-0.25141">
        <ele>162.4</ele>
        <time>2012-03-06T14:38:13Z</time>
      </trkpt>
      <trkpt lat="46.30184" lon="-0.2514">
        <ele>161.8</ele>
        <time>2012-03-06T14:38:20Z</time>
      </trkpt>
      <trkpt lat="46.30185" lon="-0.2514">
        <ele>161.5</ele>
        <time>2012-03-06T14:38:22Z</time>
      </trkpt>
      <trkpt lat="46.30185" lon="-0.2514">
        <ele>161.7</ele>
        <time>2012-03-06T14:38:26Z</time>
      </trkpt>
      <trkpt lat="46.30185" lon="-0.2514">
        <ele>161.6</ele>
        <time>2012-03-06T14:38:34Z</time>
      </trkpt>
      <trkpt lat="46.30185" lon="-0.2514">
        <ele>161.6</ele>
        <time>2012-03-06T14:38:36Z</time>
      </trkpt>
      <trkpt lat="46.30184" lon="-0.25141">
        <ele>161.6</ele>
        <time>2012-03-06T14:38:43Z</time>
      </trkpt>
      <trkpt lat="46.30184" lon="-0.25141">
        <ele>161.7</ele>
        <time>2012-03-06T14:38:48Z</time>
      </trkpt>
      <trkpt lat="46.30184" lon="-0.25141">
        <ele>161.7</ele>
        <time>2012-03-06T14:38:55Z</time>
      </trkpt>
      <trkpt lat="46.30184" lon="-0.25141">
        <ele>161.7</ele>
        <time>2012-03-06T14:38:57Z</time>
      </trkpt>
      <trkpt lat="46.30184" lon="-0.25149">
        <ele>161.6</ele>
        <time>2012-03-06T14:39:08Z</time>
      </trkpt>
      <trkpt lat="46.30183" lon="-0.25151">
        <ele>161.3</ele>
        <time>2012-03-06T14:39:08Z</time>
      </trkpt>
      <trkpt lat="46.3018" lon="-0.25158">
        <ele>161.2</ele>
        <time>2012-03-06T14:39:15Z</time>
      </trkpt>
      <trkpt lat="46.30179" lon="-0.25161">
        <ele>161.4</ele>
        <time>2012-03-06T14:39:16Z</time>
      </trkpt>
      <trkpt lat="46.30174" lon="-0.25175">
        <ele>159.2</ele>
        <time>2012-03-06T14:39:28Z</time>
      </trkpt>
      <trkpt lat="46.3017" lon="-0.25182">
        <ele>159.8</ele>
        <time>2012-03-06T14:39:35Z</time>
      </trkpt>
      <trkpt lat="46.30168" lon="-0.25183">
        <ele>159.3</ele>
        <time>2012-03-06T14:39:36Z</time>
      </trkpt>
      <trkpt lat="46.3016" lon="-0.25195">
        <ele>160.9</ele>
        <time>2012-03-06T14:39:44Z</time>
      </trkpt>
      <trkpt lat="46.30158" lon="-0.25199">
        <ele>161.6</ele>
        <time>2012-03-06T14:39:48Z</time>
      </trkpt>
      <trkpt lat="46.30156" lon="-0.25206">
        <ele>162.7</ele>
        <time>2012-03-06T14:39:53Z</time>
      </trkpt>
      <trkpt lat="46.30151" lon="-0.25212">
        <ele>163.2</ele>
        <time>2012-03-06T14:40:00Z</time>
      </trkpt>
      <trkpt lat="46.30149" lon="-0.25212">
        <ele>163.9</ele>
        <time>2012-03-06T14:40:02Z</time>
      </trkpt>
      <trkpt lat="46.30146" lon="-0.25221">
        <ele>164.2</ele>
        <time>2012-03-06T14:40:12Z</time>
      </trkpt>
      <trkpt lat="46.30145" lon="-0.25221">
        <ele>163.6</ele>
        <time>2012-03-06T14:40:12Z</time>
      </trkpt>
      <trkpt lat="46.30137" lon="-0.25235">
        <ele>165.4</ele>
        <time>2012-03-06T14:40:22Z</time>
      </trkpt>
      <trkpt lat="46.30131" lon="-0.25242">
        <ele>166.7</ele>
        <time>2012-03-06T14:40:29Z</time>
      </trkpt>
      <trkpt lat="46.30127" lon="-0.25249">
        <ele>166.2</ele>
        <time>2012-03-06T14:40:33Z</time>
      </trkpt>
      <trkpt lat="46.30124" lon="-0.25253">
        <ele>168.9</ele>
        <time>2012-03-06T14:40:40Z</time>
      </trkpt>
      <trkpt lat="46.30124" lon="-0.25252">
        <ele>168.3</ele>
        <time>2012-03-06T14:40:41Z</time>
      </trkpt>
      <trkpt lat="46.30124" lon="-0.25252">
        <ele>166.5</ele>
        <time>2012-03-06T14:40:48Z</time>
      </trkpt>
      <trkpt lat="46.30124" lon="-0.25252">
        <ele>166.2</ele>
        <time>2012-03-06T14:40:52Z</time>
      </trkpt>
      <trkpt lat="46.30121" lon="-0.25252">
        <ele>163.7</ele>
        <time>2012-03-06T14:41:01Z</time>
      </trkpt>
      <trkpt lat="46.30121" lon="-0.25252">
        <ele>163.9</ele>
        <time>2012-03-06T14:41:01Z</time>
      </trkpt>
      <trkpt lat="46.30117" lon="-0.25257">
        <ele>163.3</ele>
        <time>2012-03-06T14:41:13Z</time>
      </trkpt>
      <trkpt lat="46.30116" lon="-0.25259">
        <ele>163.2</ele>
        <time>2012-03-06T14:41:14Z</time>
      </trkpt>
      <trkpt lat="46.30112" lon="-0.25265">
        <ele>163.4</ele>
        <time>2012-03-06T14:41:18Z</time>
      </trkpt>
      <trkpt lat="46.30106" lon="-0.25273">
        <ele>164.1</ele>
        <time>2012-03-06T14:41:25Z</time>
      </trkpt>
      <trkpt lat="46.30105" lon="-0.25273">
        <ele>164.4</ele>
        <time>2012-03-06T14:41:26Z</time>
      </trkpt>
      <trkpt lat="46.30094" lon="-0.25286">
        <ele>165.7</ele>
        <time>2012-03-06T14:41:38Z</time>
      </trkpt>
      <trkpt lat="46.30092" lon="-0.25291">
        <ele>162.6</ele>
        <time>2012-03-06T14:41:43Z</time>
      </trkpt>
      <trkpt lat="46.30089" lon="-0.25294">
        <ele>162</ele>
        <time>2012-03-06T14:41:49Z</time>
      </trkpt>
      <trkpt lat="46.3009" lon="-0.25297">
        <ele>161</ele>
        <time>2012-03-06T14:41:53Z</time>
      </trkpt>
      <trkpt lat="46.30094" lon="-0.25301">
        <ele>160.6</ele>
        <time>2012-03-06T14:41:56Z</time>
      </trkpt>
      <trkpt lat="46.30098" lon="-0.25307">
        <ele>159</ele>
        <time>2012-03-06T14:42:03Z</time>
      </trkpt>
      <trkpt lat="46.30103" lon="-0.25317">
        <ele>158.6</ele>
        <time>2012-03-06T14:42:10Z</time>
      </trkpt>
      <trkpt lat="46.30104" lon="-0.25318">
        <ele>158.9</ele>
        <time>2012-03-06T14:42:11Z</time>
      </trkpt>
      <trkpt lat="46.30109" lon="-0.25334">
        <ele>160.4</ele>
        <time>2012-03-06T14:42:21Z</time>
      </trkpt>
      <trkpt lat="46.30117" lon="-0.25345">
        <ele>159.5</ele>
        <time>2012-03-06T14:42:34Z</time>
      </trkpt>
      <trkpt lat="46.30117" lon="-0.25347">
        <ele>159.2</ele>
        <time>2012-03-06T14:42:34Z</time>
      </trkpt>
      <trkpt lat="46.3012" lon="-0.2535">
        <ele>160.2</ele>
        <time>2012-03-06T14:42:38Z</time>
      </trkpt>
      <trkpt lat="46.30124" lon="-0.25355">
        <ele>159.2</ele>
        <time>2012-03-06T14:42:43Z</time>
      </trkpt>
      <trkpt lat="46.30126" lon="-0.25361">
        <ele>158.8</ele>
        <time>2012-03-06T14:42:48Z</time>
      </trkpt>
      <trkpt lat="46.3013" lon="-0.2537">
        <ele>158.9</ele>
        <time>2012-03-06T14:42:55Z</time>
      </trkpt>
      <trkpt lat="46.30131" lon="-0.25374">
        <ele>159.5</ele>
        <time>2012-03-06T14:42:56Z</time>
      </trkpt>
      <trkpt lat="46.30139" lon="-0.25387">
        <ele>160.6</ele>
        <time>2012-03-06T14:43:08Z</time>
      </trkpt>
      <trkpt lat="46.30139" lon="-0.25388">
        <ele>160.7</ele>
        <time>2012-03-06T14:43:08Z</time>
      </trkpt>
      <trkpt lat="46.30144" lon="-0.25399">
        <ele>161.4</ele>
        <time>2012-03-06T14:43:14Z</time>
      </trkpt>
      <trkpt lat="46.30148" lon="-0.25401">
        <ele>160.6</ele>
        <time>2012-03-06T14:43:18Z</time>
      </trkpt>
      <trkpt lat="46.30151" lon="-0.2541">
        <ele>160.9</ele>
        <time>2012-03-06T14:43:24Z</time>
      </trkpt>
      <trkpt lat="46.30153" lon="-0.25414">
        <ele>160.9</ele>
        <time>2012-03-06T14:43:27Z</time>
      </trkpt>
      <trkpt lat="46.30158" lon="-0.25424">
        <ele>159.7</ele>
        <time>2012-03-06T14:43:37Z</time>
      </trkpt>
      <trkpt lat="46.3016" lon="-0.25426">
        <ele>159.7</ele>
        <time>2012-03-06T14:43:37Z</time>
      </trkpt>
      <trkpt lat="46.30163" lon="-0.25437">
        <ele>160.5</ele>
        <time>2012-03-06T14:43:43Z</time>
      </trkpt>
      <trkpt lat="46.30165" lon="-0.25438">
        <ele>160.2</ele>
        <time>2012-03-06T14:43:46Z</time>
      </trkpt>
      <trkpt lat="46.30172" lon="-0.25448">
        <ele>160.8</ele>
        <time>2012-03-06T14:43:57Z</time>
      </trkpt>
      <trkpt lat="46.30177" lon="-0.25461">
        <ele>161.2</ele>
        <time>2012-03-06T14:44:06Z</time>
      </trkpt>
      <trkpt lat="46.30185" lon="-0.2547">
        <ele>159.2</ele>
        <time>2012-03-06T14:44:18Z</time>
      </trkpt>
      <trkpt lat="46.30185" lon="-0.25472">
        <ele>159.6</ele>
        <time>2012-03-06T14:44:18Z</time>
      </trkpt>
      <trkpt lat="46.3019" lon="-0.25475">
        <ele>159</ele>
        <time>2012-03-06T14:44:25Z</time>
      </trkpt>
      <trkpt lat="46.3019" lon="-0.25476">
        <ele>159.7</ele>
        <time>2012-03-06T14:44:26Z</time>
      </trkpt>
      <trkpt lat="46.30198" lon="-0.25494">
        <ele>160</ele>
        <time>2012-03-06T14:44:38Z</time>
      </trkpt>
      <trkpt lat="46.30198" lon="-0.25495">
        <ele>159.7</ele>
        <time>2012-03-06T14:44:39Z</time>
      </trkpt>
      <trkpt lat="46.302" lon="-0.255">
        <ele>160.9</ele>
        <time>2012-03-06T14:44:42Z</time>
      </trkpt>
      <trkpt lat="46.30203" lon="-0.25507">
        <ele>161.6</ele>
        <time>2012-03-06T14:44:49Z</time>
      </trkpt>
      <trkpt lat="46.30206" lon="-0.25511">
        <ele>161.2</ele>
        <time>2012-03-06T14:44:52Z</time>
      </trkpt>
      <trkpt lat="46.30209" lon="-0.25523">
        <ele>160</ele>
        <time>2012-03-06T14:45:01Z</time>
      </trkpt>
      <trkpt lat="46.3021" lon="-0.25524">
        <ele>159.9</ele>
        <time>2012-03-06T14:45:01Z</time>
      </trkpt>
      <trkpt lat="46.30213" lon="-0.25538">
        <ele>160.8</ele>
        <time>2012-03-06T14:45:11Z</time>
      </trkpt>
      <trkpt lat="46.30214" lon="-0.25539">
        <ele>160.7</ele>
        <time>2012-03-06T14:45:11Z</time>
      </trkpt>
      <trkpt lat="46.30216" lon="-0.25556">
        <ele>160.9</ele>
        <time>2012-03-06T14:45:23Z</time>
      </trkpt>
      <trkpt lat="46.30217" lon="-0.25558">
        <ele>160.9</ele>
        <time>2012-03-06T14:45:24Z</time>
      </trkpt>
      <trkpt lat="46.30219" lon="-0.25567">
        <ele>161.2</ele>
        <time>2012-03-06T14:45:30Z</time>
      </trkpt>
      <trkpt lat="46.3022" lon="-0.25571">
        <ele>161.6</ele>
        <time>2012-03-06T14:45:31Z</time>
      </trkpt>
      <trkpt lat="46.30222" lon="-0.25582">
        <ele>161.3</ele>
        <time>2012-03-06T14:45:41Z</time>
      </trkpt>
      <trkpt lat="46.30222" lon="-0.25584">
        <ele>161.2</ele>
        <time>2012-03-06T14:45:41Z</time>
      </trkpt>
      <trkpt lat="46.30225" lon="-0.25594">
        <ele>160.2</ele>
        <time>2012-03-06T14:45:50Z</time>
      </trkpt>
      <trkpt lat="46.30226" lon="-0.25597">
        <ele>161.2</ele>
        <time>2012-03-06T14:45:51Z</time>
      </trkpt>
      <trkpt lat="46.30229" lon="-0.25614">
        <ele>162.1</ele>
        <time>2012-03-06T14:46:04Z</time>
      </trkpt>
      <trkpt lat="46.30229" lon="-0.25616">
        <ele>162.6</ele>
        <time>2012-03-06T14:46:04Z</time>
      </trkpt>
      <trkpt lat="46.30229" lon="-0.2562">
        <ele>162.8</ele>
        <time>2012-03-06T14:46:08Z</time>
      </trkpt>
      <trkpt lat="46.30233" lon="-0.2563">
        <ele>162.4</ele>
        <time>2012-03-06T14:46:15Z</time>
      </trkpt>
      <trkpt lat="46.30233" lon="-0.25633">
        <ele>161.3</ele>
        <time>2012-03-06T14:46:16Z</time>
      </trkpt>
      <trkpt lat="46.30235" lon="-0.25648">
        <ele>160.6</ele>
        <time>2012-03-06T14:46:28Z</time>
      </trkpt>
      <trkpt lat="46.30235" lon="-0.25649">
        <ele>160.8</ele>
        <time>2012-03-06T14:46:28Z</time>
      </trkpt>
      <trkpt lat="46.30236" lon="-0.25658">
        <ele>162.7</ele>
        <time>2012-03-06T14:46:35Z</time>
      </trkpt>
      <trkpt lat="46.30237" lon="-0.2566">
        <ele>162.9</ele>
        <time>2012-03-06T14:46:36Z</time>
      </trkpt>
      <trkpt lat="46.30237" lon="-0.25673">
        <ele>163</ele>
        <time>2012-03-06T14:46:44Z</time>
      </trkpt>
      <trkpt lat="46.30238" lon="-0.25676">
        <ele>162.4</ele>
        <time>2012-03-06T14:46:47Z</time>
      </trkpt>
      <trkpt lat="46.30239" lon="-0.25685">
        <ele>160.9</ele>
        <time>2012-03-06T14:46:54Z</time>
      </trkpt>
      <trkpt lat="46.3024" lon="-0.2569">
        <ele>160.5</ele>
        <time>2012-03-06T14:46:57Z</time>
      </trkpt>
      <trkpt lat="46.30241" lon="-0.25703">
        <ele>159.9</ele>
        <time>2012-03-06T14:47:05Z</time>
      </trkpt>
      <trkpt lat="46.30242" lon="-0.25724">
        <ele>160.7</ele>
        <time>2012-03-06T14:47:18Z</time>
      </trkpt>
      <trkpt lat="46.30242" lon="-0.25726">
        <ele>160.7</ele>
        <time>2012-03-06T14:47:19Z</time>
      </trkpt>
      <trkpt lat="46.30243" lon="-0.25732">
        <ele>160.3</ele>
        <time>2012-03-06T14:47:24Z</time>
      </trkpt>
      <trkpt lat="46.30243" lon="-0.25738">
        <ele>160</ele>
        <time>2012-03-06T14:47:28Z</time>
      </trkpt>
      <trkpt lat="46.30244" lon="-0.25744">
        <ele>158.5</ele>
        <time>2012-03-06T14:47:33Z</time>
      </trkpt>
      <trkpt lat="46.30245" lon="-0.25755">
        <ele>159.3</ele>
        <time>2012-03-06T14:47:40Z</time>
      </trkpt>
      <trkpt lat="46.30245" lon="-0.25759">
        <ele>159.1</ele>
        <time>2012-03-06T14:47:42Z</time>
      </trkpt>
      <trkpt lat="46.30245" lon="-0.25768">
        <ele>157.8</ele>
        <time>2012-03-06T14:47:49Z</time>
      </trkpt>
      <trkpt lat="46.30245" lon="-0.25774">
        <ele>158</ele>
        <time>2012-03-06T14:47:53Z</time>
      </trkpt>
      <trkpt lat="46.30247" lon="-0.25786">
        <ele>158.4</ele>
        <time>2012-03-06T14:48:00Z</time>
      </trkpt>
      <trkpt lat="46.30247" lon="-0.25788">
        <ele>158.5</ele>
        <time>2012-03-06T14:48:01Z</time>
      </trkpt>
      <trkpt lat="46.30248" lon="-0.25807">
        <ele>158.5</ele>
        <time>2012-03-06T14:48:13Z</time>
      </trkpt>
      <trkpt lat="46.30248" lon="-0.25809">
        <ele>158.3</ele>
        <time>2012-03-06T14:48:14Z</time>
      </trkpt>
      <trkpt lat="46.30248" lon="-0.25816">
        <ele>159.9</ele>
        <time>2012-03-06T14:48:18Z</time>
      </trkpt>
      <trkpt lat="46.30249" lon="-0.25821">
        <ele>159.9</ele>
        <time>2012-03-06T14:48:23Z</time>
      </trkpt>
      <trkpt lat="46.30251" lon="-0.25829">
        <ele>158.4</ele>
        <time>2012-03-06T14:48:30Z</time>
      </trkpt>
      <trkpt lat="46.30251" lon="-0.25834">
        <ele>158.9</ele>
        <time>2012-03-06T14:48:32Z</time>
      </trkpt>
      <trkpt lat="46.30253" lon="-0.2585">
        <ele>159.8</ele>
        <time>2012-03-06T14:48:42Z</time>
      </trkpt>
      <trkpt lat="46.30253" lon="-0.25851">
        <ele>160</ele>
        <time>2012-03-06T14:48:42Z</time>
      </trkpt>
      <trkpt lat="46.30254" lon="-0.25861">
        <ele>159.9</ele>
        <time>2012-03-06T14:48:49Z</time>
      </trkpt>
      <trkpt lat="46.30255" lon="-0.25866">
        <ele>159.9</ele>
        <time>2012-03-06T14:48:52Z</time>
      </trkpt>
      <trkpt lat="46.30257" lon="-0.25869">
        <ele>158.7</ele>
        <time>2012-03-06T14:48:56Z</time>
      </trkpt>
      <trkpt lat="46.30259" lon="-0.25877">
        <ele>158.3</ele>
        <time>2012-03-06T14:49:04Z</time>
      </trkpt>
      <trkpt lat="46.30261" lon="-0.25888">
        <ele>159.7</ele>
        <time>2012-03-06T14:49:09Z</time>
      </trkpt>
      <trkpt lat="46.30263" lon="-0.25894">
        <ele>160.6</ele>
        <time>2012-03-06T14:49:13Z</time>
      </trkpt>
      <trkpt lat="46.30265" lon="-0.25903">
        <ele>159.9</ele>
        <time>2012-03-06T14:49:20Z</time>
      </trkpt>
      <trkpt lat="46.30266" lon="-0.25905">
        <ele>159.6</ele>
        <time>2012-03-06T14:49:22Z</time>
      </trkpt>
      <trkpt lat="46.3027" lon="-0.25919">
        <ele>158.7</ele>
        <time>2012-03-06T14:49:32Z</time>
      </trkpt>
      <trkpt lat="46.30271" lon="-0.25933">
        <ele>158.1</ele>
        <time>2012-03-06T14:49:42Z</time>
      </trkpt>
      <trkpt lat="46.30272" lon="-0.25934">
        <ele>158.1</ele>
        <time>2012-03-06T14:49:42Z</time>
      </trkpt>
      <trkpt lat="46.30276" lon="-0.25938">
        <ele>162.1</ele>
        <time>2012-03-06T14:49:48Z</time>
      </trkpt>
      <trkpt lat="46.3028" lon="-0.25933">
        <ele>161.7</ele>
        <time>2012-03-06T14:49:55Z</time>
      </trkpt>
      <trkpt lat="46.30281" lon="-0.25932">
        <ele>161.1</ele>
        <time>2012-03-06T14:49:57Z</time>
      </trkpt>
      <trkpt lat="46.30285" lon="-0.25925">
        <ele>158.9</ele>
        <time>2012-03-06T14:50:07Z</time>
      </trkpt>
      <trkpt lat="46.30286" lon="-0.25924">
        <ele>159</ele>
        <time>2012-03-06T14:50:07Z</time>
      </trkpt>
      <trkpt lat="46.30295" lon="-0.25919">
        <ele>159.8</ele>
        <time>2012-03-06T14:50:16Z</time>
      </trkpt>
      <trkpt lat="46.30295" lon="-0.25918">
        <ele>159.1</ele>
        <time>2012-03-06T14:50:16Z</time>
      </trkpt>
      <trkpt lat="46.30302" lon="-0.2591">
        <ele>158.1</ele>
        <time>2012-03-06T14:50:27Z</time>
      </trkpt>
      <trkpt lat="46.30303" lon="-0.25909">
        <ele>158.1</ele>
        <time>2012-03-06T14:50:28Z</time>
      </trkpt>
      <trkpt lat="46.30309" lon="-0.25902">
        <ele>156.7</ele>
        <time>2012-03-06T14:50:36Z</time>
      </trkpt>
      <trkpt lat="46.3031" lon="-0.25901">
        <ele>156.6</ele>
        <time>2012-03-06T14:50:36Z</time>
      </trkpt>
      <trkpt lat="46.30316" lon="-0.25894">
        <ele>152</ele>
        <time>2012-03-06T14:50:44Z</time>
      </trkpt>
      <trkpt lat="46.30317" lon="-0.25893">
        <ele>151.2</ele>
        <time>2012-03-06T14:50:47Z</time>
      </trkpt>
      <trkpt lat="46.30324" lon="-0.25885">
        <ele>149.1</ele>
        <time>2012-03-06T14:50:56Z</time>
      </trkpt>
      <trkpt lat="46.30331" lon="-0.25879">
        <ele>149.8</ele>
        <time>2012-03-06T14:51:04Z</time>
      </trkpt>
      <trkpt lat="46.30334" lon="-0.25878">
        <ele>149.9</ele>
        <time>2012-03-06T14:51:07Z</time>
      </trkpt>
      <trkpt lat="46.30344" lon="-0.25871">
        <ele>150.2</ele>
        <time>2012-03-06T14:51:16Z</time>
      </trkpt>
      <trkpt lat="46.30345" lon="-0.2587">
        <ele>150.5</ele>
        <time>2012-03-06T14:51:16Z</time>
      </trkpt>
      <trkpt lat="46.30356" lon="-0.25863">
        <ele>155.1</ele>
        <time>2012-03-06T14:51:28Z</time>
      </trkpt>
      <trkpt lat="46.30356" lon="-0.25863">
        <ele>155</ele>
        <time>2012-03-06T14:51:29Z</time>
      </trkpt>
      <trkpt lat="46.3036" lon="-0.2586">
        <ele>157.8</ele>
        <time>2012-03-06T14:51:33Z</time>
      </trkpt>
      <trkpt lat="46.30366" lon="-0.25858">
        <ele>160.4</ele>
        <time>2012-03-06T14:51:40Z</time>
      </trkpt>
      <trkpt lat="46.30368" lon="-0.25856">
        <ele>160.4</ele>
        <time>2012-03-06T14:51:42Z</time>
      </trkpt>
      <trkpt lat="46.30376" lon="-0.25855">
        <ele>160.6</ele>
        <time>2012-03-06T14:51:48Z</time>
      </trkpt>
      <trkpt lat="46.30386" lon="-0.25851">
        <ele>158.8</ele>
        <time>2012-03-06T14:51:54Z</time>
      </trkpt>
      <trkpt lat="46.30388" lon="-0.25849">
        <ele>158.9</ele>
        <time>2012-03-06T14:51:58Z</time>
      </trkpt>
      <trkpt lat="46.30397" lon="-0.25843">
        <ele>158.6</ele>
        <time>2012-03-06T14:52:04Z</time>
      </trkpt>
      <trkpt lat="46.30398" lon="-0.25844">
        <ele>158.6</ele>
        <time>2012-03-06T14:52:07Z</time>
      </trkpt>
      <trkpt lat="46.30411" lon="-0.2584">
        <ele>159.7</ele>
        <time>2012-03-06T14:52:16Z</time>
      </trkpt>
      <trkpt lat="46.30421" lon="-0.25835">
        <ele>157.1</ele>
        <time>2012-03-06T14:52:26Z</time>
      </trkpt>
      <trkpt lat="46.3043" lon="-0.25833">
        <ele>158.4</ele>
        <time>2012-03-06T14:52:37Z</time>
      </trkpt>
      <trkpt lat="46.30434" lon="-0.25831">
        <ele>158</ele>
        <time>2012-03-06T14:52:44Z</time>
      </trkpt>
      <trkpt lat="46.30434" lon="-0.25832">
        <ele>158.1</ele>
        <time>2012-03-06T14:52:49Z</time>
      </trkpt>
      <trkpt lat="46.30436" lon="-0.25834">
        <ele>157.9</ele>
        <time>2012-03-06T14:52:53Z</time>
      </trkpt>
      <trkpt lat="46.30437" lon="-0.25842">
        <ele>153.7</ele>
        <time>2012-03-06T14:53:00Z</time>
      </trkpt>
      <trkpt lat="46.30437" lon="-0.25844">
        <ele>152.6</ele>
        <time>2012-03-06T14:53:02Z</time>
      </trkpt>
      <trkpt lat="46.3044" lon="-0.2585">
        <ele>152.9</ele>
        <time>2012-03-06T14:53:11Z</time>
      </trkpt>
      <trkpt lat="46.3044" lon="-0.2585">
        <ele>153</ele>
        <time>2012-03-06T14:53:11Z</time>
      </trkpt>
      <trkpt lat="46.30442" lon="-0.25872">
        <ele>156.5</ele>
        <time>2012-03-06T14:53:24Z</time>
      </trkpt>
      <trkpt lat="46.30442" lon="-0.25873">
        <ele>156.5</ele>
        <time>2012-03-06T14:53:24Z</time>
      </trkpt>
      <trkpt lat="46.30443" lon="-0.25877">
        <ele>156.5</ele>
        <time>2012-03-06T14:53:28Z</time>
      </trkpt>
      <trkpt lat="46.30443" lon="-0.2588">
        <ele>156.2</ele>
        <time>2012-03-06T14:53:31Z</time>
      </trkpt>
      <trkpt lat="46.30446" lon="-0.25894">
        <ele>155.3</ele>
        <time>2012-03-06T14:53:41Z</time>
      </trkpt>
      <trkpt lat="46.30446" lon="-0.25895">
        <ele>154.6</ele>
        <time>2012-03-06T14:53:41Z</time>
      </trkpt>
      <trkpt lat="46.30447" lon="-0.25904">
        <ele>154.7</ele>
        <time>2012-03-06T14:53:50Z</time>
      </trkpt>
      <trkpt lat="46.30447" lon="-0.25905">
        <ele>154.7</ele>
        <time>2012-03-06T14:53:51Z</time>
      </trkpt>
      <trkpt lat="46.30449" lon="-0.25922">
        <ele>153.4</ele>
        <time>2012-03-06T14:54:02Z</time>
      </trkpt>
      <trkpt lat="46.30449" lon="-0.25923">
        <ele>153.6</ele>
        <time>2012-03-06T14:54:02Z</time>
      </trkpt>
      <trkpt lat="46.30446" lon="-0.25936">
        <ele>155.5</ele>
        <time>2012-03-06T14:54:11Z</time>
      </trkpt>
      <trkpt lat="46.30444" lon="-0.25948">
        <ele>156.7</ele>
        <time>2012-03-06T14:54:22Z</time>
      </trkpt>
      <trkpt lat="46.30444" lon="-0.25949">
        <ele>157.3</ele>
        <time>2012-03-06T14:54:23Z</time>
      </trkpt>
      <trkpt lat="46.30442" lon="-0.25955">
        <ele>157.8</ele>
        <time>2012-03-06T14:54:29Z</time>
      </trkpt>
      <trkpt lat="46.30441" lon="-0.25959">
        <ele>156.8</ele>
        <time>2012-03-06T14:54:33Z</time>
      </trkpt>
      <trkpt lat="46.30439" lon="-0.25969">
        <ele>156.3</ele>
        <time>2012-03-06T14:54:40Z</time>
      </trkpt>
      <trkpt lat="46.3044" lon="-0.25972">
        <ele>155.9</ele>
        <time>2012-03-06T14:54:41Z</time>
      </trkpt>
      <trkpt lat="46.30441" lon="-0.25982">
        <ele>152.5</ele>
        <time>2012-03-06T14:54:50Z</time>
      </trkpt>
      <trkpt lat="46.30443" lon="-0.26004">
        <ele>153.2</ele>
        <time>2012-03-06T14:55:04Z</time>
      </trkpt>
      <trkpt lat="46.30443" lon="-0.26005">
        <ele>153.3</ele>
        <time>2012-03-06T14:55:04Z</time>
      </trkpt>
      <trkpt lat="46.30445" lon="-0.2601">
        <ele>153.7</ele>
        <time>2012-03-06T14:55:08Z</time>
      </trkpt>
      <trkpt lat="46.30446" lon="-0.2602">
        <ele>154</ele>
        <time>2012-03-06T14:55:14Z</time>
      </trkpt>
      <trkpt lat="46.30446" lon="-0.26026">
        <ele>155.9</ele>
        <time>2012-03-06T14:55:18Z</time>
      </trkpt>
      <trkpt lat="46.3045" lon="-0.26036">
        <ele>157.4</ele>
        <time>2012-03-06T14:55:24Z</time>
      </trkpt>
      <trkpt lat="46.30451" lon="-0.26038">
        <ele>157.5</ele>
        <time>2012-03-06T14:55:28Z</time>
      </trkpt>
      <trkpt lat="46.30454" lon="-0.26045">
        <ele>156.9</ele>
        <time>2012-03-06T14:55:32Z</time>
      </trkpt>
      <trkpt lat="46.30458" lon="-0.2606">
        <ele>154.2</ele>
        <time>2012-03-06T14:55:42Z</time>
      </trkpt>
      <trkpt lat="46.30459" lon="-0.26062">
        <ele>154.3</ele>
        <time>2012-03-06T14:55:43Z</time>
      </trkpt>
      <trkpt lat="46.30462" lon="-0.26068">
        <ele>152.9</ele>
        <time>2012-03-06T14:55:48Z</time>
      </trkpt>
      <trkpt lat="46.30464" lon="-0.26072">
        <ele>150.7</ele>
        <time>2012-03-06T14:55:52Z</time>
      </trkpt>
      <trkpt lat="46.30467" lon="-0.26078">
        <ele>149.6</ele>
        <time>2012-03-06T14:55:57Z</time>
      </trkpt>
      <trkpt lat="46.30469" lon="-0.2609">
        <ele>152</ele>
        <time>2012-03-06T14:56:03Z</time>
      </trkpt>
      <trkpt lat="46.30475" lon="-0.26086">
        <ele>151.7</ele>
        <time>2012-03-06T14:56:08Z</time>
      </trkpt>
      <trkpt lat="46.30477" lon="-0.26093">
        <ele>149.6</ele>
        <time>2012-03-06T14:56:11Z</time>
      </trkpt>
      <trkpt lat="46.30483" lon="-0.26101">
        <ele>147.2</ele>
        <time>2012-03-06T14:56:20Z</time>
      </trkpt>
      <trkpt lat="46.30483" lon="-0.26103">
        <ele>147.8</ele>
        <time>2012-03-06T14:56:21Z</time>
      </trkpt>
      <trkpt lat="46.30488" lon="-0.26113">
        <ele>150.3</ele>
        <time>2012-03-06T14:56:31Z</time>
      </trkpt>
      <trkpt lat="46.30489" lon="-0.26116">
        <ele>150.7</ele>
        <time>2012-03-06T14:56:32Z</time>
      </trkpt>
      <trkpt lat="46.30498" lon="-0.26131">
        <ele>151</ele>
        <time>2012-03-06T14:56:43Z</time>
      </trkpt>
      <trkpt lat="46.305" lon="-0.26137">
        <ele>153.1</ele>
        <time>2012-03-06T14:56:48Z</time>
      </trkpt>
      <trkpt lat="46.30502" lon="-0.26142">
        <ele>153.9</ele>
        <time>2012-03-06T14:56:54Z</time>
      </trkpt>
      <trkpt lat="46.30502" lon="-0.26141">
        <ele>153.8</ele>
        <time>2012-03-06T14:56:58Z</time>
      </trkpt>
      <trkpt lat="46.30503" lon="-0.2614">
        <ele>154.1</ele>
        <time>2012-03-06T14:57:01Z</time>
      </trkpt>
      <trkpt lat="46.30503" lon="-0.26141">
        <ele>154.4</ele>
        <time>2012-03-06T14:57:06Z</time>
      </trkpt>
      <trkpt lat="46.30503" lon="-0.26141">
        <ele>154.5</ele>
        <time>2012-03-06T14:57:11Z</time>
      </trkpt>
      <trkpt lat="46.30503" lon="-0.26141">
        <ele>154.5</ele>
        <time>2012-03-06T14:57:16Z</time>
      </trkpt>
      <trkpt lat="46.30503" lon="-0.26141">
        <ele>154.5</ele>
        <time>2012-03-06T14:57:21Z</time>
      </trkpt>
      <trkpt lat="46.30503" lon="-0.26141">
        <ele>154.5</ele>
        <time>2012-03-06T14:57:26Z</time>
      </trkpt>
      <trkpt lat="46.30503" lon="-0.26141">
        <ele>154.5</ele>
        <time>2012-03-06T14:57:31Z</time>
      </trkpt>
      <trkpt lat="46.30503" lon="-0.26141">
        <ele>154.5</ele>
        <time>2012-03-06T14:57:41Z</time>
      </trkpt>
      <trkpt lat="46.30503" lon="-0.26141">
        <ele>154.5</ele>
        <time>2012-03-06T14:57:42Z</time>
      </trkpt>
      <trkpt lat="46.30502" lon="-0.26139">
        <ele>153.9</ele>
        <time>2012-03-06T14:57:47Z</time>
      </trkpt>
      <trkpt lat="46.30502" lon="-0.26139">
        <ele>154.7</ele>
        <time>2012-03-06T14:57:54Z</time>
      </trkpt>
      <trkpt lat="46.30503" lon="-0.26139">
        <ele>154.5</ele>
        <time>2012-03-06T14:57:58Z</time>
      </trkpt>
      <trkpt lat="46.30502" lon="-0.26139">
        <ele>153</ele>
        <time>2012-03-06T14:58:03Z</time>
      </trkpt>
      <trkpt lat="46.305" lon="-0.26141">
        <ele>154.8</ele>
        <time>2012-03-06T14:58:09Z</time>
      </trkpt>
      <trkpt lat="46.305" lon="-0.26142">
        <ele>155.3</ele>
        <time>2012-03-06T14:58:12Z</time>
      </trkpt>
      <trkpt lat="46.305" lon="-0.26142">
        <ele>155.3</ele>
        <time>2012-03-06T14:58:18Z</time>
      </trkpt>
      <trkpt lat="46.305" lon="-0.26142">
        <ele>155.3</ele>
        <time>2012-03-06T14:58:23Z</time>
      </trkpt>
      <trkpt lat="46.305" lon="-0.26142">
        <ele>155.2</ele>
        <time>2012-03-06T14:58:26Z</time>
      </trkpt>
      <trkpt lat="46.30501" lon="-0.26141">
        <ele>155.4</ele>
        <time>2012-03-06T14:58:34Z</time>
      </trkpt>
      <trkpt lat="46.30504" lon="-0.26141">
        <ele>155</ele>
        <time>2012-03-06T14:58:38Z</time>
      </trkpt>
      <trkpt lat="46.30507" lon="-0.26141">
        <ele>155</ele>
        <time>2012-03-06T14:58:43Z</time>
      </trkpt>
      <trkpt lat="46.30509" lon="-0.26143">
        <ele>156.7</ele>
        <time>2012-03-06T14:58:49Z</time>
      </trkpt>
      <trkpt lat="46.30512" lon="-0.26144">
        <ele>157.4</ele>
        <time>2012-03-06T14:58:53Z</time>
      </trkpt>
      <trkpt lat="46.30516" lon="-0.26146">
        <ele>157.8</ele>
        <time>2012-03-06T14:58:59Z</time>
      </trkpt>
      <trkpt lat="46.3052" lon="-0.26147">
        <ele>156.3</ele>
        <time>2012-03-06T14:59:02Z</time>
      </trkpt>
      <trkpt lat="46.30525" lon="-0.26152">
        <ele>156.9</ele>
        <time>2012-03-06T14:59:11Z</time>
      </trkpt>
      <trkpt lat="46.30526" lon="-0.26153">
        <ele>156.9</ele>
        <time>2012-03-06T14:59:11Z</time>
      </trkpt>
      <trkpt lat="46.3054" lon="-0.26158">
        <ele>156.5</ele>
        <time>2012-03-06T14:59:23Z</time>
      </trkpt>
      <trkpt lat="46.30541" lon="-0.26158">
        <ele>155.5</ele>
        <time>2012-03-06T14:59:24Z</time>
      </trkpt>
      <trkpt lat="46.30547" lon="-0.26159">
        <ele>153.5</ele>
        <time>2012-03-06T14:59:30Z</time>
      </trkpt>
      <trkpt lat="46.30549" lon="-0.2616">
        <ele>153</ele>
        <time>2012-03-06T14:59:31Z</time>
      </trkpt>
      <trkpt lat="46.30557" lon="-0.26166">
        <ele>154.7</ele>
        <time>2012-03-06T14:59:41Z</time>
      </trkpt>
      <trkpt lat="46.30558" lon="-0.26168">
        <ele>154.6</ele>
        <time>2012-03-06T14:59:42Z</time>
      </trkpt>
      <trkpt lat="46.30564" lon="-0.26171">
        <ele>154.6</ele>
        <time>2012-03-06T14:59:48Z</time>
      </trkpt>
      <trkpt lat="46.30568" lon="-0.26171">
        <ele>154.8</ele>
        <time>2012-03-06T14:59:55Z</time>
      </trkpt>
      <trkpt lat="46.3057" lon="-0.26172">
        <ele>156.3</ele>
        <time>2012-03-06T14:59:56Z</time>
      </trkpt>
      <trkpt lat="46.30574" lon="-0.26172">
        <ele>157.2</ele>
        <time>2012-03-06T15:00:07Z</time>
      </trkpt>
      <trkpt lat="46.30575" lon="-0.26173">
        <ele>157.1</ele>
        <time>2012-03-06T15:00:07Z</time>
      </trkpt>
      <trkpt lat="46.30581" lon="-0.26174">
        <ele>153.6</ele>
        <time>2012-03-06T15:00:16Z</time>
      </trkpt>
      <trkpt lat="46.30583" lon="-0.26174">
        <ele>153.1</ele>
        <time>2012-03-06T15:00:17Z</time>
      </trkpt>
      <trkpt lat="46.30592" lon="-0.26174">
        <ele>152.5</ele>
        <time>2012-03-06T15:00:26Z</time>
      </trkpt>
      <trkpt lat="46.30601" lon="-0.26175">
        <ele>153.4</ele>
        <time>2012-03-06T15:00:37Z</time>
      </trkpt>
      <trkpt lat="46.30603" lon="-0.26174">
        <ele>153.5</ele>
        <time>2012-03-06T15:00:37Z</time>
      </trkpt>
      <trkpt lat="46.30611" lon="-0.26171">
        <ele>154.5</ele>
        <time>2012-03-06T15:00:44Z</time>
      </trkpt>
      <trkpt lat="46.30612" lon="-0.26171">
        <ele>155</ele>
        <time>2012-03-06T15:00:46Z</time>
      </trkpt>
      <trkpt lat="46.30623" lon="-0.26169">
        <ele>156.1</ele>
        <time>2012-03-06T15:00:58Z</time>
      </trkpt>
      <trkpt lat="46.30624" lon="-0.2617">
        <ele>155.9</ele>
        <time>2012-03-06T15:00:58Z</time>
      </trkpt>
      <trkpt lat="46.30628" lon="-0.26166">
        <ele>154.1</ele>
        <time>2012-03-06T15:01:04Z</time>
      </trkpt>
      <trkpt lat="46.30629" lon="-0.26166">
        <ele>153.9</ele>
        <time>2012-03-06T15:01:08Z</time>
      </trkpt>
      <trkpt lat="46.30632" lon="-0.26163">
        <ele>151.3</ele>
        <time>2012-03-06T15:01:15Z</time>
      </trkpt>
      <trkpt lat="46.30632" lon="-0.26162">
        <ele>150.8</ele>
        <time>2012-03-06T15:01:16Z</time>
      </trkpt>
      <trkpt lat="46.30635" lon="-0.2616">
        <ele>148.5</ele>
        <time>2012-03-06T15:01:29Z</time>
      </trkpt>
      <trkpt lat="46.30635" lon="-0.2616">
        <ele>148.3</ele>
        <time>2012-03-06T15:01:29Z</time>
      </trkpt>
      <trkpt lat="46.3064" lon="-0.26159">
        <ele>150.2</ele>
        <time>2012-03-06T15:01:33Z</time>
      </trkpt>
      <trkpt lat="46.30644" lon="-0.26158">
        <ele>150.4</ele>
        <time>2012-03-06T15:01:40Z</time>
      </trkpt>
      <trkpt lat="46.30644" lon="-0.26158">
        <ele>150.4</ele>
        <time>2012-03-06T15:01:41Z</time>
      </trkpt>
      <trkpt lat="46.3065" lon="-0.26156">
        <ele>150.2</ele>
        <time>2012-03-06T15:01:51Z</time>
      </trkpt>
      <trkpt lat="46.30657" lon="-0.26162">
        <ele>150.4</ele>
        <time>2012-03-06T15:02:03Z</time>
      </trkpt>
      <trkpt lat="46.30658" lon="-0.26163">
        <ele>150.5</ele>
        <time>2012-03-06T15:02:03Z</time>
      </trkpt>
      <trkpt lat="46.3066" lon="-0.26173">
        <ele>153.6</ele>
        <time>2012-03-06T15:02:10Z</time>
      </trkpt>
      <trkpt lat="46.30661" lon="-0.26173">
        <ele>153.7</ele>
        <time>2012-03-06T15:02:12Z</time>
      </trkpt>
      <trkpt lat="46.30664" lon="-0.26183">
        <ele>153.4</ele>
        <time>2012-03-06T15:02:22Z</time>
      </trkpt>
      <trkpt lat="46.30665" lon="-0.26182">
        <ele>151.6</ele>
        <time>2012-03-06T15:02:22Z</time>
      </trkpt>
      <trkpt lat="46.30669" lon="-0.26185">
        <ele>148.8</ele>
        <time>2012-03-06T15:02:29Z</time>
      </trkpt>
      <trkpt lat="46.30669" lon="-0.26187">
        <ele>148.9</ele>
        <time>2012-03-06T15:02:31Z</time>
      </trkpt>
      <trkpt lat="46.30673" lon="-0.26201">
        <ele>152.7</ele>
        <time>2012-03-06T15:02:41Z</time>
      </trkpt>
      <trkpt lat="46.30676" lon="-0.26207">
        <ele>151.8</ele>
        <time>2012-03-06T15:02:48Z</time>
      </trkpt>
      <trkpt lat="46.30676" lon="-0.26214">
        <ele>154</ele>
        <time>2012-03-06T15:02:51Z</time>
      </trkpt>
      <trkpt lat="46.30677" lon="-0.26223">
        <ele>154.9</ele>
        <time>2012-03-06T15:03:00Z</time>
      </trkpt>
      <trkpt lat="46.30678" lon="-0.2623">
        <ele>155.2</ele>
        <time>2012-03-06T15:03:01Z</time>
      </trkpt>
      <trkpt lat="46.30673" lon="-0.26247">
        <ele>157.2</ele>
        <time>2012-03-06T15:03:12Z</time>
      </trkpt>
      <trkpt lat="46.30673" lon="-0.26248">
        <ele>157.2</ele>
        <time>2012-03-06T15:03:12Z</time>
      </trkpt>
      <trkpt lat="46.3067" lon="-0.26256">
        <ele>157</ele>
        <time>2012-03-06T15:03:21Z</time>
      </trkpt>
      <trkpt lat="46.3067" lon="-0.26257">
        <ele>157.1</ele>
        <time>2012-03-06T15:03:22Z</time>
      </trkpt>
      <trkpt lat="46.30665" lon="-0.26268">
        <ele>155.7</ele>
        <time>2012-03-06T15:03:33Z</time>
      </trkpt>
      <trkpt lat="46.30665" lon="-0.26268">
        <ele>154.8</ele>
        <time>2012-03-06T15:03:33Z</time>
      </trkpt>
      <trkpt lat="46.30665" lon="-0.26269">
        <ele>155.3</ele>
        <time>2012-03-06T15:03:40Z</time>
      </trkpt>
      <trkpt lat="46.30664" lon="-0.2627">
        <ele>154.4</ele>
        <time>2012-03-06T15:03:41Z</time>
      </trkpt>
      <trkpt lat="46.30664" lon="-0.2627">
        <ele>155.3</ele>
        <time>2012-03-06T15:03:50Z</time>
      </trkpt>
      <trkpt lat="46.30664" lon="-0.26271">
        <ele>155.2</ele>
        <time>2012-03-06T15:03:51Z</time>
      </trkpt>
      <trkpt lat="46.30664" lon="-0.26272">
        <ele>153.6</ele>
        <time>2012-03-06T15:04:02Z</time>
      </trkpt>
      <trkpt lat="46.30664" lon="-0.26272">
        <ele>153.5</ele>
        <time>2012-03-06T15:04:02Z</time>
      </trkpt>
      <trkpt lat="46.30664" lon="-0.26272">
        <ele>153.5</ele>
        <time>2012-03-06T15:04:06Z</time>
      </trkpt>
      <trkpt lat="46.30659" lon="-0.26275">
        <ele>155</ele>
        <time>2012-03-06T15:04:11Z</time>
      </trkpt>
      <trkpt lat="46.30654" lon="-0.26281">
        <ele>155.4</ele>
        <time>2012-03-06T15:04:16Z</time>
      </trkpt>
      <trkpt lat="46.30649" lon="-0.26285">
        <ele>155.7</ele>
        <time>2012-03-06T15:04:21Z</time>
      </trkpt>
      <trkpt lat="46.30644" lon="-0.2629">
        <ele>156.8</ele>
        <time>2012-03-06T15:04:26Z</time>
      </trkpt>
      <trkpt lat="46.3064" lon="-0.26294">
        <ele>157.6</ele>
        <time>2012-03-06T15:04:31Z</time>
      </trkpt>
      <trkpt lat="46.30635" lon="-0.26299">
        <ele>154.5</ele>
        <time>2012-03-06T15:04:38Z</time>
      </trkpt>
      <trkpt lat="46.3063" lon="-0.26302">
        <ele>154.4</ele>
        <time>2012-03-06T15:04:43Z</time>
      </trkpt>
      <trkpt lat="46.30626" lon="-0.26307">
        <ele>152.5</ele>
        <time>2012-03-06T15:04:48Z</time>
      </trkpt>
      <trkpt lat="46.30622" lon="-0.2631">
        <ele>153.8</ele>
        <time>2012-03-06T15:04:53Z</time>
      </trkpt>
      <trkpt lat="46.30616" lon="-0.26316">
        <ele>154.2</ele>
        <time>2012-03-06T15:04:59Z</time>
      </trkpt>
      <trkpt lat="46.30612" lon="-0.2632">
        <ele>155.4</ele>
        <time>2012-03-06T15:05:02Z</time>
      </trkpt>
      <trkpt lat="46.30604" lon="-0.26328">
        <ele>156.7</ele>
        <time>2012-03-06T15:05:10Z</time>
      </trkpt>
      <trkpt lat="46.30595" lon="-0.26338">
        <ele>157.8</ele>
        <time>2012-03-06T15:05:21Z</time>
      </trkpt>
      <trkpt lat="46.30594" lon="-0.26338">
        <ele>157.1</ele>
        <time>2012-03-06T15:05:22Z</time>
      </trkpt>
      <trkpt lat="46.30587" lon="-0.26349">
        <ele>157.2</ele>
        <time>2012-03-06T15:05:32Z</time>
      </trkpt>
      <trkpt lat="46.30585" lon="-0.26354">
        <ele>158</ele>
        <time>2012-03-06T15:05:36Z</time>
      </trkpt>
      <trkpt lat="46.30575" lon="-0.26363">
        <ele>161.5</ele>
        <time>2012-03-06T15:05:44Z</time>
      </trkpt>
      <trkpt lat="46.30574" lon="-0.26365">
        <ele>161.2</ele>
        <time>2012-03-06T15:05:47Z</time>
      </trkpt>
      <trkpt lat="46.30566" lon="-0.26377">
        <ele>161.1</ele>
        <time>2012-03-06T15:05:56Z</time>
      </trkpt>
      <trkpt lat="46.30565" lon="-0.26378">
        <ele>161.2</ele>
        <time>2012-03-06T15:05:56Z</time>
      </trkpt>
      <trkpt lat="46.30557" lon="-0.26388">
        <ele>161.7</ele>
        <time>2012-03-06T15:06:07Z</time>
      </trkpt>
      <trkpt lat="46.30556" lon="-0.26389">
        <ele>161.6</ele>
        <time>2012-03-06T15:06:07Z</time>
      </trkpt>
      <trkpt lat="46.3055" lon="-0.26396">
        <ele>160.6</ele>
        <time>2012-03-06T15:06:15Z</time>
      </trkpt>
      <trkpt lat="46.3055" lon="-0.26397">
        <ele>160</ele>
        <time>2012-03-06T15:06:16Z</time>
      </trkpt>
      <trkpt lat="46.3054" lon="-0.26409">
        <ele>159.9</ele>
        <time>2012-03-06T15:06:29Z</time>
      </trkpt>
      <trkpt lat="46.3054" lon="-0.2641">
        <ele>160.1</ele>
        <time>2012-03-06T15:06:30Z</time>
      </trkpt>
      <trkpt lat="46.30538" lon="-0.26412">
        <ele>160.6</ele>
        <time>2012-03-06T15:06:32Z</time>
      </trkpt>
      <trkpt lat="46.30533" lon="-0.2642">
        <ele>160.3</ele>
        <time>2012-03-06T15:06:39Z</time>
      </trkpt>
      <trkpt lat="46.30533" lon="-0.26421">
        <ele>161</ele>
        <time>2012-03-06T15:06:43Z</time>
      </trkpt>
      <trkpt lat="46.30533" lon="-0.26421">
        <ele>160.7</ele>
        <time>2012-03-06T15:06:47Z</time>
      </trkpt>
      <trkpt lat="46.30532" lon="-0.26421">
        <ele>161</ele>
        <time>2012-03-06T15:06:55Z</time>
      </trkpt>
      <trkpt lat="46.30531" lon="-0.2642">
        <ele>160.8</ele>
        <time>2012-03-06T15:06:56Z</time>
      </trkpt>
      <trkpt lat="46.30522" lon="-0.26418">
        <ele>159.4</ele>
        <time>2012-03-06T15:07:05Z</time>
      </trkpt>
      <trkpt lat="46.30518" lon="-0.26415">
        <ele>160.3</ele>
        <time>2012-03-06T15:07:06Z</time>
      </trkpt>
      <trkpt lat="46.3051" lon="-0.26407">
        <ele>159.7</ele>
        <time>2012-03-06T15:07:18Z</time>
      </trkpt>
      <trkpt lat="46.30507" lon="-0.26403">
        <ele>159.6</ele>
        <time>2012-03-06T15:07:24Z</time>
      </trkpt>
      <trkpt lat="46.30503" lon="-0.26399">
        <ele>159.1</ele>
        <time>2012-03-06T15:07:28Z</time>
      </trkpt>
      <trkpt lat="46.30499" lon="-0.26394">
        <ele>158</ele>
        <time>2012-03-06T15:07:34Z</time>
      </trkpt>
      <trkpt lat="46.30494" lon="-0.2639">
        <ele>157.5</ele>
        <time>2012-03-06T15:07:38Z</time>
      </trkpt>
      <trkpt lat="46.30489" lon="-0.26383">
        <ele>157.3</ele>
        <time>2012-03-06T15:07:44Z</time>
      </trkpt>
      <trkpt lat="46.30487" lon="-0.26378">
        <ele>157.9</ele>
        <time>2012-03-06T15:07:47Z</time>
      </trkpt>
      <trkpt lat="46.3048" lon="-0.26368">
        <ele>159</ele>
        <time>2012-03-06T15:07:57Z</time>
      </trkpt>
      <trkpt lat="46.30479" lon="-0.26366">
        <ele>159.8</ele>
        <time>2012-03-06T15:07:57Z</time>
      </trkpt>
      <trkpt lat="46.30469" lon="-0.26356">
        <ele>157.2</ele>
        <time>2012-03-06T15:08:07Z</time>
      </trkpt>
      <trkpt lat="46.30468" lon="-0.26355">
        <ele>156.9</ele>
        <time>2012-03-06T15:08:07Z</time>
      </trkpt>
      <trkpt lat="46.30465" lon="-0.26354">
        <ele>157.2</ele>
        <time>2012-03-06T15:08:16Z</time>
      </trkpt>
      <trkpt lat="46.30463" lon="-0.26351">
        <ele>156.7</ele>
        <time>2012-03-06T15:08:16Z</time>
      </trkpt>
      <trkpt lat="46.30455" lon="-0.26342">
        <ele>156.9</ele>
        <time>2012-03-06T15:08:28Z</time>
      </trkpt>
      <trkpt lat="46.30455" lon="-0.26341">
        <ele>157.4</ele>
        <time>2012-03-06T15:08:28Z</time>
      </trkpt>
      <trkpt lat="46.30452" lon="-0.26337">
        <ele>157.8</ele>
        <time>2012-03-06T15:08:32Z</time>
      </trkpt>
      <trkpt lat="46.30447" lon="-0.26332">
        <ele>157.9</ele>
        <time>2012-03-06T15:08:36Z</time>
      </trkpt>
      <trkpt lat="46.30439" lon="-0.26323">
        <ele>156.8</ele>
        <time>2012-03-06T15:08:44Z</time>
      </trkpt>
      <trkpt lat="46.30437" lon="-0.26321">
        <ele>157.4</ele>
        <time>2012-03-06T15:08:47Z</time>
      </trkpt>
      <trkpt lat="46.30429" lon="-0.2631">
        <ele>159</ele>
        <time>2012-03-06T15:08:56Z</time>
      </trkpt>
      <trkpt lat="46.30425" lon="-0.26306">
        <ele>157</ele>
        <time>2012-03-06T15:09:07Z</time>
      </trkpt>
      <trkpt lat="46.30425" lon="-0.26306">
        <ele>156.9</ele>
        <time>2012-03-06T15:09:07Z</time>
      </trkpt>
      <trkpt lat="46.30421" lon="-0.26301">
        <ele>156.1</ele>
        <time>2012-03-06T15:09:15Z</time>
      </trkpt>
      <trkpt lat="46.30416" lon="-0.26294">
        <ele>156</ele>
        <time>2012-03-06T15:09:16Z</time>
      </trkpt>
      <trkpt lat="46.30411" lon="-0.26287">
        <ele>157.2</ele>
        <time>2012-03-06T15:09:26Z</time>
      </trkpt>
      <trkpt lat="46.30405" lon="-0.26278">
        <ele>156.6</ele>
        <time>2012-03-06T15:09:37Z</time>
      </trkpt>
      <trkpt lat="46.30402" lon="-0.26274">
        <ele>156.4</ele>
        <time>2012-03-06T15:09:43Z</time>
      </trkpt>
      <trkpt lat="46.30398" lon="-0.26265">
        <ele>157.8</ele>
        <time>2012-03-06T15:09:47Z</time>
      </trkpt>
      <trkpt lat="46.30398" lon="-0.26264">
        <ele>156.8</ele>
        <time>2012-03-06T15:09:51Z</time>
      </trkpt>
      <trkpt lat="46.30391" lon="-0.2625">
        <ele>157.8</ele>
        <time>2012-03-06T15:10:01Z</time>
      </trkpt>
      <trkpt lat="46.30391" lon="-0.26249">
        <ele>158</ele>
        <time>2012-03-06T15:10:01Z</time>
      </trkpt>
      <trkpt lat="46.30378" lon="-0.26225">
        <ele>158.8</ele>
        <time>2012-03-06T15:10:13Z</time>
      </trkpt>
      <trkpt lat="46.30372" lon="-0.26211">
        <ele>159</ele>
        <time>2012-03-06T15:10:20Z</time>
      </trkpt>
      <trkpt lat="46.30372" lon="-0.26209">
        <ele>159</ele>
        <time>2012-03-06T15:10:21Z</time>
      </trkpt>
      <trkpt lat="46.30364" lon="-0.26193">
        <ele>158.7</ele>
        <time>2012-03-06T15:10:32Z</time>
      </trkpt>
      <trkpt lat="46.30364" lon="-0.26192">
        <ele>158.3</ele>
        <time>2012-03-06T15:10:33Z</time>
      </trkpt>
      <trkpt lat="46.30362" lon="-0.26186">
        <ele>157.9</ele>
        <time>2012-03-06T15:10:37Z</time>
      </trkpt>
      <trkpt lat="46.30362" lon="-0.26185">
        <ele>158.8</ele>
        <time>2012-03-06T15:10:41Z</time>
      </trkpt>
      <trkpt lat="46.3036" lon="-0.26182">
        <ele>159.8</ele>
        <time>2012-03-06T15:10:49Z</time>
      </trkpt>
      <trkpt lat="46.30357" lon="-0.26177">
        <ele>159.2</ele>
        <time>2012-03-06T15:10:54Z</time>
      </trkpt>
      <trkpt lat="46.30348" lon="-0.26158">
        <ele>160.5</ele>
        <time>2012-03-06T15:10:59Z</time>
      </trkpt>
      <trkpt lat="46.30345" lon="-0.26152">
        <ele>161.1</ele>
        <time>2012-03-06T15:11:02Z</time>
      </trkpt>
      <trkpt lat="46.30342" lon="-0.26146">
        <ele>161</ele>
        <time>2012-03-06T15:11:11Z</time>
      </trkpt>
      <trkpt lat="46.30338" lon="-0.26138">
        <ele>162</ele>
        <time>2012-03-06T15:11:24Z</time>
      </trkpt>
      <trkpt lat="46.30339" lon="-0.26138">
        <ele>161.9</ele>
        <time>2012-03-06T15:11:24Z</time>
      </trkpt>
      <trkpt lat="46.30338" lon="-0.26136">
        <ele>161.3</ele>
        <time>2012-03-06T15:11:29Z</time>
      </trkpt>
      <trkpt lat="46.30327" lon="-0.26122">
        <ele>163.1</ele>
        <time>2012-03-06T15:11:33Z</time>
      </trkpt>
      <trkpt lat="46.30324" lon="-0.26113">
        <ele>164.7</ele>
        <time>2012-03-06T15:11:38Z</time>
      </trkpt>
      <trkpt lat="46.3032" lon="-0.26096">
        <ele>163.8</ele>
        <time>2012-03-06T15:11:44Z</time>
      </trkpt>
      <trkpt lat="46.30317" lon="-0.26096">
        <ele>163.9</ele>
        <time>2012-03-06T15:11:47Z</time>
      </trkpt>
      <trkpt lat="46.30315" lon="-0.26093">
        <ele>162.3</ele>
        <time>2012-03-06T15:11:57Z</time>
      </trkpt>
      <trkpt lat="46.30317" lon="-0.26092">
        <ele>162.2</ele>
        <time>2012-03-06T15:11:57Z</time>
      </trkpt>
      <trkpt lat="46.30309" lon="-0.2608">
        <ele>162.2</ele>
        <time>2012-03-06T15:12:08Z</time>
      </trkpt>
      <trkpt lat="46.30309" lon="-0.26079">
        <ele>161.4</ele>
        <time>2012-03-06T15:12:08Z</time>
      </trkpt>
      <trkpt lat="46.30302" lon="-0.26065">
        <ele>163.9</ele>
        <time>2012-03-06T15:12:15Z</time>
      </trkpt>
      <trkpt lat="46.30302" lon="-0.26064">
        <ele>163.5</ele>
        <time>2012-03-06T15:12:16Z</time>
      </trkpt>
      <trkpt lat="46.3029" lon="-0.26045">
        <ele>165.8</ele>
        <time>2012-03-06T15:12:28Z</time>
      </trkpt>
      <trkpt lat="46.30285" lon="-0.26038">
        <ele>164.9</ele>
        <time>2012-03-06T15:12:35Z</time>
      </trkpt>
      <trkpt lat="46.30282" lon="-0.26034">
        <ele>165.7</ele>
        <time>2012-03-06T15:12:37Z</time>
      </trkpt>
      <trkpt lat="46.30275" lon="-0.26027">
        <ele>164.8</ele>
        <time>2012-03-06T15:12:44Z</time>
      </trkpt>
      <trkpt lat="46.30275" lon="-0.26027">
        <ele>165.2</ele>
        <time>2012-03-06T15:12:47Z</time>
      </trkpt>
      <trkpt lat="46.30271" lon="-0.26023">
        <ele>165.4</ele>
        <time>2012-03-06T15:12:57Z</time>
      </trkpt>
      <trkpt lat="46.30271" lon="-0.26023">
        <ele>165.2</ele>
        <time>2012-03-06T15:12:57Z</time>
      </trkpt>
      <trkpt lat="46.30269" lon="-0.26029">
        <ele>164.6</ele>
        <time>2012-03-06T15:13:05Z</time>
      </trkpt>
      <trkpt lat="46.30268" lon="-0.2603">
        <ele>163.9</ele>
        <time>2012-03-06T15:13:06Z</time>
      </trkpt>
      <trkpt lat="46.30259" lon="-0.26044">
        <ele>165.9</ele>
        <time>2012-03-06T15:13:17Z</time>
      </trkpt>
      <trkpt lat="46.30254" lon="-0.26054">
        <ele>165.9</ele>
        <time>2012-03-06T15:13:25Z</time>
      </trkpt>
      <trkpt lat="46.30253" lon="-0.26056">
        <ele>165.7</ele>
        <time>2012-03-06T15:13:26Z</time>
      </trkpt>
      <trkpt lat="46.30245" lon="-0.26072">
        <ele>166.4</ele>
        <time>2012-03-06T15:13:37Z</time>
      </trkpt>
      <trkpt lat="46.30242" lon="-0.26078">
        <ele>165.4</ele>
        <time>2012-03-06T15:13:44Z</time>
      </trkpt>
      <trkpt lat="46.3024" lon="-0.26081">
        <ele>164.8</ele>
        <time>2012-03-06T15:13:47Z</time>
      </trkpt>
      <trkpt lat="46.30235" lon="-0.26091">
        <ele>162.4</ele>
        <time>2012-03-06T15:13:56Z</time>
      </trkpt>
      <trkpt lat="46.30235" lon="-0.26092">
        <ele>162.4</ele>
        <time>2012-03-06T15:13:57Z</time>
      </trkpt>
      <trkpt lat="46.30227" lon="-0.26107">
        <ele>162.8</ele>
        <time>2012-03-06T15:14:08Z</time>
      </trkpt>
      <trkpt lat="46.30227" lon="-0.26108">
        <ele>163</ele>
        <time>2012-03-06T15:14:08Z</time>
      </trkpt>
      <trkpt lat="46.30224" lon="-0.26115">
        <ele>163.2</ele>
        <time>2012-03-06T15:14:14Z</time>
      </trkpt>
      <trkpt lat="46.30221" lon="-0.26121">
        <ele>164.5</ele>
        <time>2012-03-06T15:14:18Z</time>
      </trkpt>
      <trkpt lat="46.30216" lon="-0.2613">
        <ele>165.6</ele>
        <time>2012-03-06T15:14:24Z</time>
      </trkpt>
      <trkpt lat="46.30214" lon="-0.26134">
        <ele>165.8</ele>
        <time>2012-03-06T15:14:28Z</time>
      </trkpt>
      <trkpt lat="46.30209" lon="-0.26143">
        <ele>164.7</ele>
        <time>2012-03-06T15:14:35Z</time>
      </trkpt>
      <trkpt lat="46.30208" lon="-0.26144">
        <ele>164.6</ele>
        <time>2012-03-06T15:14:36Z</time>
      </trkpt>
      <trkpt lat="46.30204" lon="-0.26154">
        <ele>163.8</ele>
        <time>2012-03-06T15:14:45Z</time>
      </trkpt>
      <trkpt lat="46.30203" lon="-0.26157">
        <ele>164</ele>
        <time>2012-03-06T15:14:47Z</time>
      </trkpt>
      <trkpt lat="46.30198" lon="-0.26167">
        <ele>162.6</ele>
        <time>2012-03-06T15:14:56Z</time>
      </trkpt>
      <trkpt lat="46.30197" lon="-0.26168">
        <ele>162.5</ele>
        <time>2012-03-06T15:14:56Z</time>
      </trkpt>
      <trkpt lat="46.30193" lon="-0.26177">
        <ele>160.3</ele>
        <time>2012-03-06T15:15:06Z</time>
      </trkpt>
      <trkpt lat="46.30192" lon="-0.26178">
        <ele>160.3</ele>
        <time>2012-03-06T15:15:06Z</time>
      </trkpt>
      <trkpt lat="46.30185" lon="-0.2619">
        <ele>161.7</ele>
        <time>2012-03-06T15:15:16Z</time>
      </trkpt>
      <trkpt lat="46.30184" lon="-0.26193">
        <ele>161.7</ele>
        <time>2012-03-06T15:15:17Z</time>
      </trkpt>
      <trkpt lat="46.30177" lon="-0.26205">
        <ele>160</ele>
        <time>2012-03-06T15:15:28Z</time>
      </trkpt>
      <trkpt lat="46.30176" lon="-0.26206">
        <ele>159.9</ele>
        <time>2012-03-06T15:15:28Z</time>
      </trkpt>
      <trkpt lat="46.30172" lon="-0.26213">
        <ele>160.1</ele>
        <time>2012-03-06T15:15:35Z</time>
      </trkpt>
      <trkpt lat="46.3017" lon="-0.26215">
        <ele>160.5</ele>
        <time>2012-03-06T15:15:37Z</time>
      </trkpt>
      <trkpt lat="46.30164" lon="-0.26226">
        <ele>161</ele>
        <time>2012-03-06T15:15:44Z</time>
      </trkpt>
      <trkpt lat="46.30162" lon="-0.26229">
        <ele>161.1</ele>
        <time>2012-03-06T15:15:47Z</time>
      </trkpt>
      <trkpt lat="46.30153" lon="-0.26243">
        <ele>162.4</ele>
        <time>2012-03-06T15:15:57Z</time>
      </trkpt>
      <trkpt lat="46.30152" lon="-0.26245">
        <ele>162.5</ele>
        <time>2012-03-06T15:15:57Z</time>
      </trkpt>
      <trkpt lat="46.30147" lon="-0.26255">
        <ele>160.4</ele>
        <time>2012-03-06T15:16:06Z</time>
      </trkpt>
      <trkpt lat="46.30139" lon="-0.26268">
        <ele>160</ele>
        <time>2012-03-06T15:16:18Z</time>
      </trkpt>
      <trkpt lat="46.30139" lon="-0.2627">
        <ele>159.9</ele>
        <time>2012-03-06T15:16:18Z</time>
      </trkpt>
      <trkpt lat="46.30135" lon="-0.26276">
        <ele>159.9</ele>
        <time>2012-03-06T15:16:24Z</time>
      </trkpt>
      <trkpt lat="46.30132" lon="-0.26281">
        <ele>159.7</ele>
        <time>2012-03-06T15:16:28Z</time>
      </trkpt>
      <trkpt lat="46.30128" lon="-0.26289">
        <ele>158.9</ele>
        <time>2012-03-06T15:16:35Z</time>
      </trkpt>
      <trkpt lat="46.30126" lon="-0.26291">
        <ele>158.5</ele>
        <time>2012-03-06T15:16:36Z</time>
      </trkpt>
      <trkpt lat="46.30119" lon="-0.26301">
        <ele>159.1</ele>
        <time>2012-03-06T15:16:44Z</time>
      </trkpt>
      <trkpt lat="46.30118" lon="-0.26304">
        <ele>159.1</ele>
        <time>2012-03-06T15:16:46Z</time>
      </trkpt>
      <trkpt lat="46.30115" lon="-0.26309">
        <ele>158.6</ele>
        <time>2012-03-06T15:16:51Z</time>
      </trkpt>
      <trkpt lat="46.30106" lon="-0.26324">
        <ele>157.3</ele>
        <time>2012-03-06T15:17:03Z</time>
      </trkpt>
      <trkpt lat="46.30102" lon="-0.26329">
        <ele>158</ele>
        <time>2012-03-06T15:17:09Z</time>
      </trkpt>
      <trkpt lat="46.30099" lon="-0.26335">
        <ele>158.8</ele>
        <time>2012-03-06T15:17:12Z</time>
      </trkpt>
      <trkpt lat="46.30094" lon="-0.26345">
        <ele>159.6</ele>
        <time>2012-03-06T15:17:20Z</time>
      </trkpt>
      <trkpt lat="46.30093" lon="-0.26346">
        <ele>159.4</ele>
        <time>2012-03-06T15:17:21Z</time>
      </trkpt>
      <trkpt lat="46.30084" lon="-0.2636">
        <ele>159.3</ele>
        <time>2012-03-06T15:17:33Z</time>
      </trkpt>
      <trkpt lat="46.30083" lon="-0.26361">
        <ele>159.5</ele>
        <time>2012-03-06T15:17:33Z</time>
      </trkpt>
      <trkpt lat="46.30079" lon="-0.26368">
        <ele>157.5</ele>
        <time>2012-03-06T15:17:40Z</time>
      </trkpt>
      <trkpt lat="46.30079" lon="-0.2637">
        <ele>156.8</ele>
        <time>2012-03-06T15:17:41Z</time>
      </trkpt>
      <trkpt lat="46.30073" lon="-0.2638">
        <ele>155.7</ele>
        <time>2012-03-06T15:17:49Z</time>
      </trkpt>
      <trkpt lat="46.30072" lon="-0.26382">
        <ele>155.9</ele>
        <time>2012-03-06T15:17:53Z</time>
      </trkpt>
      <trkpt lat="46.30067" lon="-0.26393">
        <ele>155.5</ele>
        <time>2012-03-06T15:18:00Z</time>
      </trkpt>
      <trkpt lat="46.30065" lon="-0.26396">
        <ele>155.5</ele>
        <time>2012-03-06T15:18:01Z</time>
      </trkpt>
      <trkpt lat="46.30058" lon="-0.26409">
        <ele>154.6</ele>
        <time>2012-03-06T15:18:12Z</time>
      </trkpt>
      <trkpt lat="46.30058" lon="-0.2641">
        <ele>154.6</ele>
        <time>2012-03-06T15:18:12Z</time>
      </trkpt>
      <trkpt lat="46.30051" lon="-0.26422">
        <ele>154.9</ele>
        <time>2012-03-06T15:18:21Z</time>
      </trkpt>
      <trkpt lat="46.30044" lon="-0.26433">
        <ele>153.9</ele>
        <time>2012-03-06T15:18:31Z</time>
      </trkpt>
      <trkpt lat="46.30043" lon="-0.26435">
        <ele>154</ele>
        <time>2012-03-06T15:18:31Z</time>
      </trkpt>
      <trkpt lat="46.30035" lon="-0.26448">
        <ele>153</ele>
        <time>2012-03-06T15:18:43Z</time>
      </trkpt>
      <trkpt lat="46.30035" lon="-0.26449">
        <ele>153.1</ele>
        <time>2012-03-06T15:18:43Z</time>
      </trkpt>
      <trkpt lat="46.30033" lon="-0.26453">
        <ele>153.2</ele>
        <time>2012-03-06T15:18:47Z</time>
      </trkpt>
      <trkpt lat="46.30026" lon="-0.26464">
        <ele>152.8</ele>
        <time>2012-03-06T15:18:55Z</time>
      </trkpt>
      <trkpt lat="46.30016" lon="-0.26482">
        <ele>154.1</ele>
        <time>2012-03-06T15:19:09Z</time>
      </trkpt>
      <trkpt lat="46.30014" lon="-0.26485">
        <ele>154.3</ele>
        <time>2012-03-06T15:19:13Z</time>
      </trkpt>
      <trkpt lat="46.30009" lon="-0.26494">
        <ele>153.9</ele>
        <time>2012-03-06T15:19:20Z</time>
      </trkpt>
      <trkpt lat="46.30008" lon="-0.26495">
        <ele>153.8</ele>
        <time>2012-03-06T15:19:21Z</time>
      </trkpt>
      <trkpt lat="46.29999" lon="-0.26511">
        <ele>153.7</ele>
        <time>2012-03-06T15:19:33Z</time>
      </trkpt>
      <trkpt lat="46.29999" lon="-0.26513">
        <ele>153.7</ele>
        <time>2012-03-06T15:19:33Z</time>
      </trkpt>
      <trkpt lat="46.29995" lon="-0.26519">
        <ele>154</ele>
        <time>2012-03-06T15:19:40Z</time>
      </trkpt>
      <trkpt lat="46.29993" lon="-0.26521">
        <ele>154.2</ele>
        <time>2012-03-06T15:19:41Z</time>
      </trkpt>
      <trkpt lat="46.29988" lon="-0.26529">
        <ele>154.6</ele>
        <time>2012-03-06T15:19:47Z</time>
      </trkpt>
      <trkpt lat="46.29981" lon="-0.2654">
        <ele>155.4</ele>
        <time>2012-03-06T15:19:56Z</time>
      </trkpt>
      <trkpt lat="46.2998" lon="-0.26541">
        <ele>155.3</ele>
        <time>2012-03-06T15:19:56Z</time>
      </trkpt>
      <trkpt lat="46.29971" lon="-0.26553">
        <ele>155.5</ele>
        <time>2012-03-06T15:20:08Z</time>
      </trkpt>
      <trkpt lat="46.2997" lon="-0.26554">
        <ele>155.5</ele>
        <time>2012-03-06T15:20:08Z</time>
      </trkpt>
      <trkpt lat="46.29965" lon="-0.26562">
        <ele>156.1</ele>
        <time>2012-03-06T15:20:14Z</time>
      </trkpt>
      <trkpt lat="46.29963" lon="-0.26566">
        <ele>155.7</ele>
        <time>2012-03-06T15:20:18Z</time>
      </trkpt>
      <trkpt lat="46.29958" lon="-0.26574">
        <ele>155.7</ele>
        <time>2012-03-06T15:20:24Z</time>
      </trkpt>
      <trkpt lat="46.29957" lon="-0.26578">
        <ele>155</ele>
        <time>2012-03-06T15:20:28Z</time>
      </trkpt>
      <trkpt lat="46.29952" lon="-0.26586">
        <ele>155.9</ele>
        <time>2012-03-06T15:20:34Z</time>
      </trkpt>
      <trkpt lat="46.2995" lon="-0.2659">
        <ele>156.1</ele>
        <time>2012-03-06T15:20:37Z</time>
      </trkpt>
      <trkpt lat="46.29945" lon="-0.26599">
        <ele>156.2</ele>
        <time>2012-03-06T15:20:44Z</time>
      </trkpt>
      <trkpt lat="46.29943" lon="-0.26601">
        <ele>156.2</ele>
        <time>2012-03-06T15:20:47Z</time>
      </trkpt>
      <trkpt lat="46.29936" lon="-0.26612">
        <ele>157.7</ele>
        <time>2012-03-06T15:20:55Z</time>
      </trkpt>
      <trkpt lat="46.29935" lon="-0.26613">
        <ele>157.7</ele>
        <time>2012-03-06T15:20:56Z</time>
      </trkpt>
      <trkpt lat="46.29926" lon="-0.26627">
        <ele>157.7</ele>
        <time>2012-03-06T15:21:09Z</time>
      </trkpt>
      <trkpt lat="46.29925" lon="-0.26628">
        <ele>157.7</ele>
        <time>2012-03-06T15:21:09Z</time>
      </trkpt>
      <trkpt lat="46.29923" lon="-0.26631">
        <ele>157.6</ele>
        <time>2012-03-06T15:21:13Z</time>
      </trkpt>
      <trkpt lat="46.29917" lon="-0.2664">
        <ele>157.8</ele>
        <time>2012-03-06T15:21:20Z</time>
      </trkpt>
      <trkpt lat="46.29916" lon="-0.26641">
        <ele>157.8</ele>
        <time>2012-03-06T15:21:21Z</time>
      </trkpt>
      <trkpt lat="46.29907" lon="-0.26655">
        <ele>157.5</ele>
        <time>2012-03-06T15:21:33Z</time>
      </trkpt>
      <trkpt lat="46.29906" lon="-0.26657">
        <ele>157.4</ele>
        <time>2012-03-06T15:21:33Z</time>
      </trkpt>
      <trkpt lat="46.29901" lon="-0.26662">
        <ele>155.7</ele>
        <time>2012-03-06T15:21:40Z</time>
      </trkpt>
      <trkpt lat="46.299" lon="-0.26663">
        <ele>155.6</ele>
        <time>2012-03-06T15:21:41Z</time>
      </trkpt>
      <trkpt lat="46.29892" lon="-0.26677">
        <ele>159.1</ele>
        <time>2012-03-06T15:21:50Z</time>
      </trkpt>
      <trkpt lat="46.29892" lon="-0.26678">
        <ele>158.2</ele>
        <time>2012-03-06T15:21:51Z</time>
      </trkpt>
      <trkpt lat="46.29884" lon="-0.26687">
        <ele>153.4</ele>
        <time>2012-03-06T15:22:03Z</time>
      </trkpt>
      <trkpt lat="46.29884" lon="-0.26687">
        <ele>152.2</ele>
        <time>2012-03-06T15:22:03Z</time>
      </trkpt>
      <trkpt lat="46.29878" lon="-0.26695">
        <ele>154.1</ele>
        <time>2012-03-06T15:22:09Z</time>
      </trkpt>
      <trkpt lat="46.29876" lon="-0.267">
        <ele>155.1</ele>
        <time>2012-03-06T15:22:12Z</time>
      </trkpt>
      <trkpt lat="46.2987" lon="-0.26709">
        <ele>154.7</ele>
        <time>2012-03-06T15:22:21Z</time>
      </trkpt>
      <trkpt lat="46.2987" lon="-0.2671">
        <ele>154.3</ele>
        <time>2012-03-06T15:22:22Z</time>
      </trkpt>
      <trkpt lat="46.29861" lon="-0.26721">
        <ele>153.2</ele>
        <time>2012-03-06T15:22:33Z</time>
      </trkpt>
      <trkpt lat="46.2986" lon="-0.26723">
        <ele>154.2</ele>
        <time>2012-03-06T15:22:33Z</time>
      </trkpt>
      <trkpt lat="46.29856" lon="-0.2673">
        <ele>156.2</ele>
        <time>2012-03-06T15:22:39Z</time>
      </trkpt>
      <trkpt lat="46.29853" lon="-0.26734">
        <ele>155.9</ele>
        <time>2012-03-06T15:22:43Z</time>
      </trkpt>
      <trkpt lat="46.29851" lon="-0.26737">
        <ele>152.9</ele>
        <time>2012-03-06T15:22:47Z</time>
      </trkpt>
      <trkpt lat="46.29843" lon="-0.26744">
        <ele>151.6</ele>
        <time>2012-03-06T15:22:56Z</time>
      </trkpt>
      <trkpt lat="46.29842" lon="-0.26745">
        <ele>151.5</ele>
        <time>2012-03-06T15:22:56Z</time>
      </trkpt>
      <trkpt lat="46.29839" lon="-0.26749">
        <ele>149.8</ele>
        <time>2012-03-06T15:23:07Z</time>
      </trkpt>
      <trkpt lat="46.29838" lon="-0.26748">
        <ele>150.1</ele>
        <time>2012-03-06T15:23:08Z</time>
      </trkpt>
      <trkpt lat="46.29837" lon="-0.26748">
        <ele>150.1</ele>
        <time>2012-03-06T15:23:17Z</time>
      </trkpt>
      <trkpt lat="46.29837" lon="-0.26748">
        <ele>150.1</ele>
        <time>2012-03-06T15:23:17Z</time>
      </trkpt>
      <trkpt lat="46.29837" lon="-0.26749">
        <ele>149.4</ele>
        <time>2012-03-06T15:23:26Z</time>
      </trkpt>
      <trkpt lat="46.29837" lon="-0.26749">
        <ele>149.3</ele>
        <time>2012-03-06T15:23:26Z</time>
      </trkpt>
      <trkpt lat="46.29837" lon="-0.26748">
        <ele>148.2</ele>
        <time>2012-03-06T15:23:33Z</time>
      </trkpt>
      <trkpt lat="46.29837" lon="-0.26748">
        <ele>148.3</ele>
        <time>2012-03-06T15:23:39Z</time>
      </trkpt>
      <trkpt lat="46.29837" lon="-0.26748">
        <ele>148.3</ele>
        <time>2012-03-06T15:23:42Z</time>
      </trkpt>
      <trkpt lat="46.29838" lon="-0.26747">
        <ele>148</ele>
        <time>2012-03-06T15:23:47Z</time>
      </trkpt>
      <trkpt lat="46.29837" lon="-0.26745">
        <ele>148.1</ele>
        <time>2012-03-06T15:23:52Z</time>
      </trkpt>
      <trkpt lat="46.29835" lon="-0.26738">
        <ele>148.6</ele>
        <time>2012-03-06T15:24:01Z</time>
      </trkpt>
      <trkpt lat="46.29835" lon="-0.26737">
        <ele>148.2</ele>
        <time>2012-03-06T15:24:02Z</time>
      </trkpt>
      <trkpt lat="46.29831" lon="-0.26731">
        <ele>147.1</ele>
        <time>2012-03-06T15:24:12Z</time>
      </trkpt>
      <trkpt lat="46.29822" lon="-0.26722">
        <ele>148.1</ele>
        <time>2012-03-06T15:24:21Z</time>
      </trkpt>
      <trkpt lat="46.29814" lon="-0.26709">
        <ele>148.4</ele>
        <time>2012-03-06T15:24:30Z</time>
      </trkpt>
      <trkpt lat="46.29812" lon="-0.26707">
        <ele>148.3</ele>
        <time>2012-03-06T15:24:31Z</time>
      </trkpt>
      <trkpt lat="46.29806" lon="-0.26701">
        <ele>149.1</ele>
        <time>2012-03-06T15:24:41Z</time>
      </trkpt>
      <trkpt lat="46.29806" lon="-0.267">
        <ele>149</ele>
        <time>2012-03-06T15:24:41Z</time>
      </trkpt>
      <trkpt lat="46.29801" lon="-0.26693">
        <ele>147.7</ele>
        <time>2012-03-06T15:24:49Z</time>
      </trkpt>
      <trkpt lat="46.29797" lon="-0.26689">
        <ele>146.8</ele>
        <time>2012-03-06T15:24:53Z</time>
      </trkpt>
      <trkpt lat="46.29796" lon="-0.26688">
        <ele>146.5</ele>
        <time>2012-03-06T15:24:59Z</time>
      </trkpt>
      <trkpt lat="46.29792" lon="-0.26687">
        <ele>143.7</ele>
        <time>2012-03-06T15:25:03Z</time>
      </trkpt>
      <trkpt lat="46.29787" lon="-0.26679">
        <ele>143.2</ele>
        <time>2012-03-06T15:25:09Z</time>
      </trkpt>
      <trkpt lat="46.29783" lon="-0.26676">
        <ele>143.3</ele>
        <time>2012-03-06T15:25:13Z</time>
      </trkpt>
      <trkpt lat="46.29778" lon="-0.26671">
        <ele>142.5</ele>
        <time>2012-03-06T15:25:20Z</time>
      </trkpt>
      <trkpt lat="46.29778" lon="-0.26671">
        <ele>142.6</ele>
        <time>2012-03-06T15:25:21Z</time>
      </trkpt>
      <trkpt lat="46.29771" lon="-0.26662">
        <ele>143</ele>
        <time>2012-03-06T15:25:33Z</time>
      </trkpt>
      <trkpt lat="46.29762" lon="-0.26647">
        <ele>144.1</ele>
        <time>2012-03-06T15:25:40Z</time>
      </trkpt>
      <trkpt lat="46.29762" lon="-0.26645">
        <ele>143.8</ele>
        <time>2012-03-06T15:25:41Z</time>
      </trkpt>
      <trkpt lat="46.29756" lon="-0.2664">
        <ele>142</ele>
        <time>2012-03-06T15:25:50Z</time>
      </trkpt>
      <trkpt lat="46.29757" lon="-0.26641">
        <ele>142</ele>
        <time>2012-03-06T15:25:51Z</time>
      </trkpt>
      <trkpt lat="46.2975" lon="-0.2663">
        <ele>138.5</ele>
        <time>2012-03-06T15:26:02Z</time>
      </trkpt>
      <trkpt lat="46.29748" lon="-0.26627">
        <ele>140.1</ele>
        <time>2012-03-06T15:26:02Z</time>
      </trkpt>
      <trkpt lat="46.29742" lon="-0.2662">
        <ele>140.2</ele>
        <time>2012-03-06T15:26:11Z</time>
      </trkpt>
      <trkpt lat="46.29734" lon="-0.26601">
        <ele>146</ele>
        <time>2012-03-06T15:26:23Z</time>
      </trkpt>
      <trkpt lat="46.29728" lon="-0.26592">
        <ele>148.8</ele>
        <time>2012-03-06T15:26:29Z</time>
      </trkpt>
      <trkpt lat="46.29725" lon="-0.2659">
        <ele>149.3</ele>
        <time>2012-03-06T15:26:33Z</time>
      </trkpt>
      <trkpt lat="46.29719" lon="-0.26585">
        <ele>149</ele>
        <time>2012-03-06T15:26:38Z</time>
      </trkpt>
      <trkpt lat="46.29714" lon="-0.26579">
        <ele>148.2</ele>
        <time>2012-03-06T15:26:44Z</time>
      </trkpt>
      <trkpt lat="46.29711" lon="-0.26577">
        <ele>147.6</ele>
        <time>2012-03-06T15:26:47Z</time>
      </trkpt>
      <trkpt lat="46.29705" lon="-0.26571">
        <ele>146.9</ele>
        <time>2012-03-06T15:26:56Z</time>
      </trkpt>
      <trkpt lat="46.29704" lon="-0.2657">
        <ele>147</ele>
        <time>2012-03-06T15:26:56Z</time>
      </trkpt>
      <trkpt lat="46.29695" lon="-0.26559">
        <ele>147.7</ele>
        <time>2012-03-06T15:27:07Z</time>
      </trkpt>
      <trkpt lat="46.29694" lon="-0.26558">
        <ele>148</ele>
        <time>2012-03-06T15:27:08Z</time>
      </trkpt>
      <trkpt lat="46.29688" lon="-0.26549">
        <ele>149.2</ele>
        <time>2012-03-06T15:27:15Z</time>
      </trkpt>
      <trkpt lat="46.29687" lon="-0.26549">
        <ele>149.1</ele>
        <time>2012-03-06T15:27:16Z</time>
      </trkpt>
      <trkpt lat="46.29678" lon="-0.26541">
        <ele>148.6</ele>
        <time>2012-03-06T15:27:27Z</time>
      </trkpt>
      <trkpt lat="46.29677" lon="-0.2654">
        <ele>148.5</ele>
        <time>2012-03-06T15:27:27Z</time>
      </trkpt>
      <trkpt lat="46.29671" lon="-0.26532">
        <ele>149.5</ele>
        <time>2012-03-06T15:27:36Z</time>
      </trkpt>
      <trkpt lat="46.29668" lon="-0.26531">
        <ele>148.9</ele>
        <time>2012-03-06T15:27:37Z</time>
      </trkpt>
      <trkpt lat="46.29666" lon="-0.26527">
        <ele>148.4</ele>
        <time>2012-03-06T15:27:41Z</time>
      </trkpt>
      <trkpt lat="46.2966" lon="-0.26523">
        <ele>146.9</ele>
        <time>2012-03-06T15:27:48Z</time>
      </trkpt>
      <trkpt lat="46.29655" lon="-0.26522">
        <ele>145</ele>
        <time>2012-03-06T15:27:55Z</time>
      </trkpt>
      <trkpt lat="46.29654" lon="-0.26519">
        <ele>144.2</ele>
        <time>2012-03-06T15:27:56Z</time>
      </trkpt>
      <trkpt lat="46.29645" lon="-0.2651">
        <ele>143.1</ele>
        <time>2012-03-06T15:28:09Z</time>
      </trkpt>
      <trkpt lat="46.29644" lon="-0.26508">
        <ele>143</ele>
        <time>2012-03-06T15:28:09Z</time>
      </trkpt>
      <trkpt lat="46.29642" lon="-0.26507">
        <ele>142.4</ele>
        <time>2012-03-06T15:28:12Z</time>
      </trkpt>
      <trkpt lat="46.29635" lon="-0.265">
        <ele>141.4</ele>
        <time>2012-03-06T15:28:22Z</time>
      </trkpt>
      <trkpt lat="46.29634" lon="-0.26499">
        <ele>141.5</ele>
        <time>2012-03-06T15:28:22Z</time>
      </trkpt>
      <trkpt lat="46.29627" lon="-0.2649">
        <ele>141.5</ele>
        <time>2012-03-06T15:28:31Z</time>
      </trkpt>
      <trkpt lat="46.29626" lon="-0.2649">
        <ele>141.2</ele>
        <time>2012-03-06T15:28:31Z</time>
      </trkpt>
      <trkpt lat="46.29618" lon="-0.2648">
        <ele>140.5</ele>
        <time>2012-03-06T15:28:43Z</time>
      </trkpt>
      <trkpt lat="46.29617" lon="-0.26479">
        <ele>140.4</ele>
        <time>2012-03-06T15:28:43Z</time>
      </trkpt>
      <trkpt lat="46.29614" lon="-0.26476">
        <ele>140.7</ele>
        <time>2012-03-06T15:28:47Z</time>
      </trkpt>
      <trkpt lat="46.29609" lon="-0.26468">
        <ele>142.2</ele>
        <time>2012-03-06T15:28:55Z</time>
      </trkpt>
      <trkpt lat="46.29609" lon="-0.26468">
        <ele>142.3</ele>
        <time>2012-03-06T15:28:56Z</time>
      </trkpt>
      <trkpt lat="46.29608" lon="-0.26463">
        <ele>143.3</ele>
        <time>2012-03-06T15:29:08Z</time>
      </trkpt>
      <trkpt lat="46.29608" lon="-0.26463">
        <ele>144</ele>
        <time>2012-03-06T15:29:15Z</time>
      </trkpt>
      <trkpt lat="46.29608" lon="-0.26462">
        <ele>144</ele>
        <time>2012-03-06T15:29:16Z</time>
      </trkpt>
      <trkpt lat="46.29607" lon="-0.26461">
        <ele>143.4</ele>
        <time>2012-03-06T15:29:28Z</time>
      </trkpt>
      <trkpt lat="46.29606" lon="-0.26459">
        <ele>143.9</ele>
        <time>2012-03-06T15:29:28Z</time>
      </trkpt>
      <trkpt lat="46.296" lon="-0.2645">
        <ele>145.8</ele>
        <time>2012-03-06T15:29:34Z</time>
      </trkpt>
      <trkpt lat="46.29598" lon="-0.26449">
        <ele>145.9</ele>
        <time>2012-03-06T15:29:38Z</time>
      </trkpt>
      <trkpt lat="46.29595" lon="-0.26446">
        <ele>143.9</ele>
        <time>2012-03-06T15:29:44Z</time>
      </trkpt>
      <trkpt lat="46.29591" lon="-0.26442">
        <ele>144</ele>
        <time>2012-03-06T15:29:47Z</time>
      </trkpt>
      <trkpt lat="46.29585" lon="-0.26437">
        <ele>144.1</ele>
        <time>2012-03-06T15:29:53Z</time>
      </trkpt>
      <trkpt lat="46.29581" lon="-0.26433">
        <ele>144</ele>
        <time>2012-03-06T15:29:58Z</time>
      </trkpt>
      <trkpt lat="46.29575" lon="-0.26426">
        <ele>144</ele>
        <time>2012-03-06T15:30:04Z</time>
      </trkpt>
      <trkpt lat="46.29572" lon="-0.26421">
        <ele>143.9</ele>
        <time>2012-03-06T15:30:08Z</time>
      </trkpt>
      <trkpt lat="46.29571" lon="-0.26414">
        <ele>143.3</ele>
        <time>2012-03-06T15:30:14Z</time>
      </trkpt>
      <trkpt lat="46.29569" lon="-0.26401">
        <ele>145.6</ele>
        <time>2012-03-06T15:30:18Z</time>
      </trkpt>
      <trkpt lat="46.29574" lon="-0.26391">
        <ele>147</ele>
        <time>2012-03-06T15:30:25Z</time>
      </trkpt>
      <trkpt lat="46.29576" lon="-0.2639">
        <ele>147.5</ele>
        <time>2012-03-06T15:30:26Z</time>
      </trkpt>
      <trkpt lat="46.29583" lon="-0.26377">
        <ele>149.2</ele>
        <time>2012-03-06T15:30:38Z</time>
      </trkpt>
      <trkpt lat="46.29585" lon="-0.26376">
        <ele>149.7</ele>
        <time>2012-03-06T15:30:38Z</time>
      </trkpt>
      <trkpt lat="46.29589" lon="-0.26368">
        <ele>149.3</ele>
        <time>2012-03-06T15:30:44Z</time>
      </trkpt>
      <trkpt lat="46.2959" lon="-0.26366">
        <ele>148.7</ele>
        <time>2012-03-06T15:30:46Z</time>
      </trkpt>
      <trkpt lat="46.29592" lon="-0.26361">
        <ele>149.4</ele>
        <time>2012-03-06T15:30:52Z</time>
      </trkpt>
      <trkpt lat="46.29598" lon="-0.26347">
        <ele>151.1</ele>
        <time>2012-03-06T15:31:02Z</time>
      </trkpt>
      <trkpt lat="46.29598" lon="-0.26346">
        <ele>151.1</ele>
        <time>2012-03-06T15:31:02Z</time>
      </trkpt>
      <trkpt lat="46.29602" lon="-0.26335">
        <ele>151</ele>
        <time>2012-03-06T15:31:11Z</time>
      </trkpt>
      <trkpt lat="46.29609" lon="-0.26321">
        <ele>152.6</ele>
        <time>2012-03-06T15:31:23Z</time>
      </trkpt>
      <trkpt lat="46.2961" lon="-0.2632">
        <ele>152.8</ele>
        <time>2012-03-06T15:31:23Z</time>
      </trkpt>
      <trkpt lat="46.29614" lon="-0.26314">
        <ele>150.3</ele>
        <time>2012-03-06T15:31:30Z</time>
      </trkpt>
      <trkpt lat="46.29615" lon="-0.26311">
        <ele>150.1</ele>
        <time>2012-03-06T15:31:31Z</time>
      </trkpt>
      <trkpt lat="46.29621" lon="-0.263">
        <ele>149.7</ele>
        <time>2012-03-06T15:31:41Z</time>
      </trkpt>
      <trkpt lat="46.29629" lon="-0.2629">
        <ele>150</ele>
        <time>2012-03-06T15:31:50Z</time>
      </trkpt>
      <trkpt lat="46.2963" lon="-0.2629">
        <ele>151</ele>
        <time>2012-03-06T15:31:51Z</time>
      </trkpt>
      <trkpt lat="46.29632" lon="-0.26275">
        <ele>149.2</ele>
        <time>2012-03-06T15:32:01Z</time>
      </trkpt>
      <trkpt lat="46.29633" lon="-0.26274">
        <ele>148.9</ele>
        <time>2012-03-06T15:32:01Z</time>
      </trkpt>
      <trkpt lat="46.2963" lon="-0.26264">
        <ele>148.4</ele>
        <time>2012-03-06T15:32:13Z</time>
      </trkpt>
      <trkpt lat="46.29628" lon="-0.26263">
        <ele>148.2</ele>
        <time>2012-03-06T15:32:13Z</time>
      </trkpt>
      <trkpt lat="46.29621" lon="-0.26253">
        <ele>149.3</ele>
        <time>2012-03-06T15:32:20Z</time>
      </trkpt>
      <trkpt lat="46.29607" lon="-0.26236">
        <ele>147.7</ele>
        <time>2012-03-06T15:32:35Z</time>
      </trkpt>
      <trkpt lat="46.29605" lon="-0.26234">
        <ele>147.4</ele>
        <time>2012-03-06T15:32:35Z</time>
      </trkpt>
      <trkpt lat="46.29598" lon="-0.26228">
        <ele>147</ele>
        <time>2012-03-06T15:32:46Z</time>
      </trkpt>
      <trkpt lat="46.29599" lon="-0.26228">
        <ele>147.1</ele>
        <time>2012-03-06T15:32:46Z</time>
      </trkpt>
      <trkpt lat="46.29587" lon="-0.26213">
        <ele>144.7</ele>
        <time>2012-03-06T15:32:58Z</time>
      </trkpt>
      <trkpt lat="46.29583" lon="-0.26207">
        <ele>144.1</ele>
        <time>2012-03-06T15:33:04Z</time>
      </trkpt>
      <trkpt lat="46.29578" lon="-0.26202">
        <ele>144.4</ele>
        <time>2012-03-06T15:33:08Z</time>
      </trkpt>
      <trkpt lat="46.29574" lon="-0.26195">
        <ele>143.7</ele>
        <time>2012-03-06T15:33:14Z</time>
      </trkpt>
      <trkpt lat="46.29572" lon="-0.26193">
        <ele>144.2</ele>
        <time>2012-03-06T15:33:17Z</time>
      </trkpt>
      <trkpt lat="46.29563" lon="-0.26187">
        <ele>140.8</ele>
        <time>2012-03-06T15:33:26Z</time>
      </trkpt>
      <trkpt lat="46.29554" lon="-0.26176">
        <ele>141.6</ele>
        <time>2012-03-06T15:33:38Z</time>
      </trkpt>
      <trkpt lat="46.29552" lon="-0.26174">
        <ele>142.1</ele>
        <time>2012-03-06T15:33:38Z</time>
      </trkpt>
      <trkpt lat="46.29549" lon="-0.26171">
        <ele>141</ele>
        <time>2012-03-06T15:33:44Z</time>
      </trkpt>
      <trkpt lat="46.29547" lon="-0.26168">
        <ele>139.7</ele>
        <time>2012-03-06T15:33:47Z</time>
      </trkpt>
      <trkpt lat="46.2954" lon="-0.26158">
        <ele>138.9</ele>
        <time>2012-03-06T15:33:56Z</time>
      </trkpt>
      <trkpt lat="46.29533" lon="-0.26148">
        <ele>139.3</ele>
        <time>2012-03-06T15:34:07Z</time>
      </trkpt>
      <trkpt lat="46.29532" lon="-0.26146">
        <ele>139.6</ele>
        <time>2012-03-06T15:34:07Z</time>
      </trkpt>
      <trkpt lat="46.29526" lon="-0.26138">
        <ele>139.8</ele>
        <time>2012-03-06T15:34:16Z</time>
      </trkpt>
      <trkpt lat="46.29525" lon="-0.26137">
        <ele>140</ele>
        <time>2012-03-06T15:34:16Z</time>
      </trkpt>
      <trkpt lat="46.29516" lon="-0.26125">
        <ele>140.4</ele>
        <time>2012-03-06T15:34:28Z</time>
      </trkpt>
      <trkpt lat="46.29515" lon="-0.26124">
        <ele>140.6</ele>
        <time>2012-03-06T15:34:28Z</time>
      </trkpt>
      <trkpt lat="46.2951" lon="-0.26119">
        <ele>140.5</ele>
        <time>2012-03-06T15:34:35Z</time>
      </trkpt>
      <trkpt lat="46.29509" lon="-0.26118">
        <ele>140.6</ele>
        <time>2012-03-06T15:34:36Z</time>
      </trkpt>
      <trkpt lat="46.29501" lon="-0.26108">
        <ele>141.2</ele>
        <time>2012-03-06T15:34:45Z</time>
      </trkpt>
      <trkpt lat="46.295" lon="-0.26105">
        <ele>141.7</ele>
        <time>2012-03-06T15:34:47Z</time>
      </trkpt>
      <trkpt lat="46.29491" lon="-0.26095">
        <ele>141.9</ele>
        <time>2012-03-06T15:34:55Z</time>
      </trkpt>
      <trkpt lat="46.2949" lon="-0.26094">
        <ele>142</ele>
        <time>2012-03-06T15:34:57Z</time>
      </trkpt>
      <trkpt lat="46.29481" lon="-0.26081">
        <ele>145</ele>
        <time>2012-03-06T15:35:06Z</time>
      </trkpt>
      <trkpt lat="46.2948" lon="-0.2608">
        <ele>145.2</ele>
        <time>2012-03-06T15:35:06Z</time>
      </trkpt>
      <trkpt lat="46.2947" lon="-0.26068">
        <ele>146.8</ele>
        <time>2012-03-06T15:35:17Z</time>
      </trkpt>
      <trkpt lat="46.29464" lon="-0.26059">
        <ele>146.9</ele>
        <time>2012-03-06T15:35:26Z</time>
      </trkpt>
      <trkpt lat="46.29455" lon="-0.26049">
        <ele>147.5</ele>
        <time>2012-03-06T15:35:37Z</time>
      </trkpt>
      <trkpt lat="46.29454" lon="-0.26048">
        <ele>147.2</ele>
        <time>2012-03-06T15:35:37Z</time>
      </trkpt>
      <trkpt lat="46.29448" lon="-0.26041">
        <ele>148.4</ele>
        <time>2012-03-06T15:35:44Z</time>
      </trkpt>
      <trkpt lat="46.29446" lon="-0.26038">
        <ele>148.2</ele>
        <time>2012-03-06T15:35:47Z</time>
      </trkpt>
      <trkpt lat="46.29439" lon="-0.26029">
        <ele>148.1</ele>
        <time>2012-03-06T15:35:56Z</time>
      </trkpt>
      <trkpt lat="46.29438" lon="-0.26028">
        <ele>147.8</ele>
        <time>2012-03-06T15:35:56Z</time>
      </trkpt>
      <trkpt lat="46.29431" lon="-0.26019">
        <ele>148.5</ele>
        <time>2012-03-06T15:36:08Z</time>
      </trkpt>
      <trkpt lat="46.29429" lon="-0.26017">
        <ele>148.6</ele>
        <time>2012-03-06T15:36:08Z</time>
      </trkpt>
      <trkpt lat="46.29424" lon="-0.26012">
        <ele>149.8</ele>
        <time>2012-03-06T15:36:14Z</time>
      </trkpt>
      <trkpt lat="46.29421" lon="-0.26009">
        <ele>149.2</ele>
        <time>2012-03-06T15:36:18Z</time>
      </trkpt>
      <trkpt lat="46.29416" lon="-0.26006">
        <ele>149.2</ele>
        <time>2012-03-06T15:36:24Z</time>
      </trkpt>
      <trkpt lat="46.29415" lon="-0.26004">
        <ele>149.2</ele>
        <time>2012-03-06T15:36:28Z</time>
      </trkpt>
      <trkpt lat="46.2941" lon="-0.25994">
        <ele>148.7</ele>
        <time>2012-03-06T15:36:34Z</time>
      </trkpt>
      <trkpt lat="46.2941" lon="-0.25991">
        <ele>151</ele>
        <time>2012-03-06T15:36:37Z</time>
      </trkpt>
      <trkpt lat="46.2941" lon="-0.25991">
        <ele>151</ele>
        <time>2012-03-06T15:36:44Z</time>
      </trkpt>
      <trkpt lat="46.2941" lon="-0.2599">
        <ele>152</ele>
        <time>2012-03-06T15:36:47Z</time>
      </trkpt>
      <trkpt lat="46.2941" lon="-0.2599">
        <ele>152.2</ele>
        <time>2012-03-06T15:36:57Z</time>
      </trkpt>
      <trkpt lat="46.29406" lon="-0.25989">
        <ele>151.9</ele>
        <time>2012-03-06T15:37:06Z</time>
      </trkpt>
      <trkpt lat="46.29404" lon="-0.25986">
        <ele>151.2</ele>
        <time>2012-03-06T15:37:06Z</time>
      </trkpt>
      <trkpt lat="46.29396" lon="-0.25995">
        <ele>153.3</ele>
        <time>2012-03-06T15:37:18Z</time>
      </trkpt>
      <trkpt lat="46.29395" lon="-0.25997">
        <ele>153.4</ele>
        <time>2012-03-06T15:37:18Z</time>
      </trkpt>
      <trkpt lat="46.29394" lon="-0.26003">
        <ele>153.2</ele>
        <time>2012-03-06T15:37:24Z</time>
      </trkpt>
      <trkpt lat="46.29393" lon="-0.26005">
        <ele>152.9</ele>
        <time>2012-03-06T15:37:27Z</time>
      </trkpt>
      <trkpt lat="46.29389" lon="-0.26019">
        <ele>153.6</ele>
        <time>2012-03-06T15:37:36Z</time>
      </trkpt>
      <trkpt lat="46.29389" lon="-0.2602">
        <ele>153.8</ele>
        <time>2012-03-06T15:37:36Z</time>
      </trkpt>
      <trkpt lat="46.29384" lon="-0.26031">
        <ele>155.4</ele>
        <time>2012-03-06T15:37:44Z</time>
      </trkpt>
      <trkpt lat="46.29384" lon="-0.26033">
        <ele>155.7</ele>
        <time>2012-03-06T15:37:46Z</time>
      </trkpt>
      <trkpt lat="46.2938" lon="-0.26045">
        <ele>157.5</ele>
        <time>2012-03-06T15:37:55Z</time>
      </trkpt>
      <trkpt lat="46.29377" lon="-0.26047">
        <ele>158.9</ele>
        <time>2012-03-06T15:37:57Z</time>
      </trkpt>
      <trkpt lat="46.29374" lon="-0.26056">
        <ele>156.3</ele>
        <time>2012-03-06T15:38:06Z</time>
      </trkpt>
      <trkpt lat="46.29373" lon="-0.26057">
        <ele>156.9</ele>
        <time>2012-03-06T15:38:06Z</time>
      </trkpt>
      <trkpt lat="46.29366" lon="-0.26072">
        <ele>158</ele>
        <time>2012-03-06T15:38:18Z</time>
      </trkpt>
      <trkpt lat="46.29365" lon="-0.26074">
        <ele>157.8</ele>
        <time>2012-03-06T15:38:18Z</time>
      </trkpt>
      <trkpt lat="46.29363" lon="-0.26081">
        <ele>157.5</ele>
        <time>2012-03-06T15:38:24Z</time>
      </trkpt>
      <trkpt lat="46.29361" lon="-0.26085">
        <ele>156.6</ele>
        <time>2012-03-06T15:38:28Z</time>
      </trkpt>
      <trkpt lat="46.29359" lon="-0.26089">
        <ele>155.8</ele>
        <time>2012-03-06T15:38:31Z</time>
      </trkpt>
      <trkpt lat="46.29357" lon="-0.26096">
        <ele>154.7</ele>
        <time>2012-03-06T15:38:38Z</time>
      </trkpt>
      <trkpt lat="46.29355" lon="-0.26099">
        <ele>153.9</ele>
        <time>2012-03-06T15:38:42Z</time>
      </trkpt>
      <trkpt lat="46.2935" lon="-0.26106">
        <ele>151.9</ele>
        <time>2012-03-06T15:38:48Z</time>
      </trkpt>
      <trkpt lat="46.29347" lon="-0.26112">
        <ele>151.9</ele>
        <time>2012-03-06T15:38:53Z</time>
      </trkpt>
      <trkpt lat="46.29345" lon="-0.26116">
        <ele>151.3</ele>
        <time>2012-03-06T15:38:59Z</time>
      </trkpt>
      <trkpt lat="46.29344" lon="-0.26122">
        <ele>149.5</ele>
        <time>2012-03-06T15:39:03Z</time>
      </trkpt>
      <trkpt lat="46.29339" lon="-0.26131">
        <ele>147.5</ele>
        <time>2012-03-06T15:39:10Z</time>
      </trkpt>
      <trkpt lat="46.29339" lon="-0.26132">
        <ele>147.3</ele>
        <time>2012-03-06T15:39:11Z</time>
      </trkpt>
      <trkpt lat="46.29332" lon="-0.26145">
        <ele>146.6</ele>
        <time>2012-03-06T15:39:21Z</time>
      </trkpt>
      <trkpt lat="46.29324" lon="-0.26157">
        <ele>147.5</ele>
        <time>2012-03-06T15:39:33Z</time>
      </trkpt>
      <trkpt lat="46.29323" lon="-0.26158">
        <ele>147.4</ele>
        <time>2012-03-06T15:39:33Z</time>
      </trkpt>
      <trkpt lat="46.2932" lon="-0.26166">
        <ele>146.9</ele>
        <time>2012-03-06T15:39:40Z</time>
      </trkpt>
      <trkpt lat="46.29318" lon="-0.26168">
        <ele>146.8</ele>
        <time>2012-03-06T15:39:41Z</time>
      </trkpt>
      <trkpt lat="46.29313" lon="-0.26178">
        <ele>147.1</ele>
        <time>2012-03-06T15:39:49Z</time>
      </trkpt>
      <trkpt lat="46.2931" lon="-0.26183">
        <ele>146.9</ele>
        <time>2012-03-06T15:39:53Z</time>
      </trkpt>
      <trkpt lat="46.29306" lon="-0.26192">
        <ele>147.4</ele>
        <time>2012-03-06T15:40:00Z</time>
      </trkpt>
      <trkpt lat="46.29305" lon="-0.26193">
        <ele>147.3</ele>
        <time>2012-03-06T15:40:01Z</time>
      </trkpt>
      <trkpt lat="46.29299" lon="-0.26204">
        <ele>147.3</ele>
        <time>2012-03-06T15:40:10Z</time>
      </trkpt>
      <trkpt lat="46.29299" lon="-0.26205">
        <ele>147.3</ele>
        <time>2012-03-06T15:40:11Z</time>
      </trkpt>
      <trkpt lat="46.29295" lon="-0.26212">
        <ele>148</ele>
        <time>2012-03-06T15:40:16Z</time>
      </trkpt>
      <trkpt lat="46.29292" lon="-0.26218">
        <ele>148.4</ele>
        <time>2012-03-06T15:40:21Z</time>
      </trkpt>
      <trkpt lat="46.29289" lon="-0.26225">
        <ele>149</ele>
        <time>2012-03-06T15:40:26Z</time>
      </trkpt>
      <trkpt lat="46.29285" lon="-0.2623">
        <ele>148.9</ele>
        <time>2012-03-06T15:40:31Z</time>
      </trkpt>
      <trkpt lat="46.29282" lon="-0.26236">
        <ele>148.9</ele>
        <time>2012-03-06T15:40:36Z</time>
      </trkpt>
      <trkpt lat="46.29279" lon="-0.26241">
        <ele>148.9</ele>
        <time>2012-03-06T15:40:41Z</time>
      </trkpt>
      <trkpt lat="46.29274" lon="-0.26248">
        <ele>148.5</ele>
        <time>2012-03-06T15:40:48Z</time>
      </trkpt>
      <trkpt lat="46.29267" lon="-0.26254">
        <ele>147.8</ele>
        <time>2012-03-06T15:40:54Z</time>
      </trkpt>
      <trkpt lat="46.29266" lon="-0.26256">
        <ele>147.7</ele>
        <time>2012-03-06T15:40:56Z</time>
      </trkpt>
      <trkpt lat="46.2926" lon="-0.26264">
        <ele>148</ele>
        <time>2012-03-06T15:41:06Z</time>
      </trkpt>
      <trkpt lat="46.29259" lon="-0.26264">
        <ele>148.1</ele>
        <time>2012-03-06T15:41:06Z</time>
      </trkpt>
      <trkpt lat="46.29248" lon="-0.26271">
        <ele>147.7</ele>
        <time>2012-03-06T15:41:17Z</time>
      </trkpt>
      <trkpt lat="46.29247" lon="-0.26272">
        <ele>147.7</ele>
        <time>2012-03-06T15:41:18Z</time>
      </trkpt>
      <trkpt lat="46.2924" lon="-0.26276">
        <ele>150.1</ele>
        <time>2012-03-06T15:41:25Z</time>
      </trkpt>
      <trkpt lat="46.29239" lon="-0.26277">
        <ele>149.5</ele>
        <time>2012-03-06T15:41:26Z</time>
      </trkpt>
      <trkpt lat="46.29229" lon="-0.26281">
        <ele>149.6</ele>
        <time>2012-03-06T15:41:36Z</time>
      </trkpt>
      <trkpt lat="46.29224" lon="-0.26281">
        <ele>147.9</ele>
        <time>2012-03-06T15:41:41Z</time>
      </trkpt>
      <trkpt lat="46.29217" lon="-0.26281">
        <ele>145.6</ele>
        <time>2012-03-06T15:41:47Z</time>
      </trkpt>
      <trkpt lat="46.29215" lon="-0.26283">
        <ele>144.7</ele>
        <time>2012-03-06T15:41:56Z</time>
      </trkpt>
      <trkpt lat="46.29216" lon="-0.26283">
        <ele>144.5</ele>
        <time>2012-03-06T15:41:56Z</time>
      </trkpt>
      <trkpt lat="46.29211" lon="-0.26282">
        <ele>145</ele>
        <time>2012-03-06T15:42:07Z</time>
      </trkpt>
      <trkpt lat="46.2921" lon="-0.26282">
        <ele>145.3</ele>
        <time>2012-03-06T15:42:07Z</time>
      </trkpt>
      <trkpt lat="46.29208" lon="-0.26272">
        <ele>144.4</ele>
        <time>2012-03-06T15:42:16Z</time>
      </trkpt>
      <trkpt lat="46.29208" lon="-0.26271">
        <ele>144.6</ele>
        <time>2012-03-06T15:42:17Z</time>
      </trkpt>
      <trkpt lat="46.29207" lon="-0.26253">
        <ele>147.5</ele>
        <time>2012-03-06T15:42:27Z</time>
      </trkpt>
      <trkpt lat="46.29207" lon="-0.26252">
        <ele>147.2</ele>
        <time>2012-03-06T15:42:28Z</time>
      </trkpt>
      <trkpt lat="46.29207" lon="-0.26237">
        <ele>146.1</ele>
        <time>2012-03-06T15:42:37Z</time>
      </trkpt>
      <trkpt lat="46.29206" lon="-0.26235">
        <ele>146.3</ele>
        <time>2012-03-06T15:42:37Z</time>
      </trkpt>
      <trkpt lat="46.29205" lon="-0.26223">
        <ele>147.1</ele>
        <time>2012-03-06T15:42:45Z</time>
      </trkpt>
      <trkpt lat="46.29205" lon="-0.26222">
        <ele>147.2</ele>
        <time>2012-03-06T15:42:46Z</time>
      </trkpt>
      <trkpt lat="46.29203" lon="-0.26211">
        <ele>148.6</ele>
        <time>2012-03-06T15:42:58Z</time>
      </trkpt>
      <trkpt lat="46.29204" lon="-0.2621">
        <ele>148.5</ele>
        <time>2012-03-06T15:42:58Z</time>
      </trkpt>
      <trkpt lat="46.29204" lon="-0.26198">
        <ele>148.7</ele>
        <time>2012-03-06T15:43:04Z</time>
      </trkpt>
      <trkpt lat="46.29202" lon="-0.26192">
        <ele>147.4</ele>
        <time>2012-03-06T15:43:07Z</time>
      </trkpt>
      <trkpt lat="46.292" lon="-0.26175">
        <ele>149.8</ele>
        <time>2012-03-06T15:43:16Z</time>
      </trkpt>
      <trkpt lat="46.292" lon="-0.26172">
        <ele>150.5</ele>
        <time>2012-03-06T15:43:16Z</time>
      </trkpt>
      <trkpt lat="46.29199" lon="-0.26155">
        <ele>151.1</ele>
        <time>2012-03-06T15:43:27Z</time>
      </trkpt>
      <trkpt lat="46.29199" lon="-0.26154">
        <ele>150.9</ele>
        <time>2012-03-06T15:43:27Z</time>
      </trkpt>
      <trkpt lat="46.29199" lon="-0.26146">
        <ele>152.8</ele>
        <time>2012-03-06T15:43:33Z</time>
      </trkpt>
      <trkpt lat="46.29199" lon="-0.26138">
        <ele>152.3</ele>
        <time>2012-03-06T15:43:39Z</time>
      </trkpt>
      <trkpt lat="46.29199" lon="-0.26133">
        <ele>150.2</ele>
        <time>2012-03-06T15:43:44Z</time>
      </trkpt>
      <trkpt lat="46.29199" lon="-0.26129">
        <ele>150.3</ele>
        <time>2012-03-06T15:43:46Z</time>
      </trkpt>
      <trkpt lat="46.29199" lon="-0.26111">
        <ele>152.9</ele>
        <time>2012-03-06T15:43:57Z</time>
      </trkpt>
      <trkpt lat="46.292" lon="-0.26098">
        <ele>153.6</ele>
        <time>2012-03-06T15:44:04Z</time>
      </trkpt>
      <trkpt lat="46.292" lon="-0.26093">
        <ele>152.8</ele>
        <time>2012-03-06T15:44:09Z</time>
      </trkpt>
      <trkpt lat="46.29201" lon="-0.26083">
        <ele>154.2</ele>
        <time>2012-03-06T15:44:13Z</time>
      </trkpt>
      <trkpt lat="46.292" lon="-0.26078">
        <ele>152.4</ele>
        <time>2012-03-06T15:44:18Z</time>
      </trkpt>
      <trkpt lat="46.29198" lon="-0.26073">
        <ele>149</ele>
        <time>2012-03-06T15:44:22Z</time>
      </trkpt>
      <trkpt lat="46.2919" lon="-0.26068">
        <ele>146.3</ele>
        <time>2012-03-06T15:44:30Z</time>
      </trkpt>
      <trkpt lat="46.29189" lon="-0.2607">
        <ele>146.2</ele>
        <time>2012-03-06T15:44:31Z</time>
      </trkpt>
      <trkpt lat="46.2918" lon="-0.26083">
        <ele>146.3</ele>
        <time>2012-03-06T15:44:43Z</time>
      </trkpt>
      <trkpt lat="46.2918" lon="-0.26084">
        <ele>145.9</ele>
        <time>2012-03-06T15:44:43Z</time>
      </trkpt>
      <trkpt lat="46.29178" lon="-0.26085">
        <ele>145.8</ele>
        <time>2012-03-06T15:44:46Z</time>
      </trkpt>
      <trkpt lat="46.29173" lon="-0.2609">
        <ele>145.5</ele>
        <time>2012-03-06T15:44:55Z</time>
      </trkpt>
      <trkpt lat="46.29171" lon="-0.26093">
        <ele>145</ele>
        <time>2012-03-06T15:44:56Z</time>
      </trkpt>
      <trkpt lat="46.29161" lon="-0.26102">
        <ele>146.8</ele>
        <time>2012-03-06T15:45:05Z</time>
      </trkpt>
      <trkpt lat="46.29161" lon="-0.26104">
        <ele>146.5</ele>
        <time>2012-03-06T15:45:06Z</time>
      </trkpt>
      <trkpt lat="46.29153" lon="-0.26114">
        <ele>145</ele>
        <time>2012-03-06T15:45:17Z</time>
      </trkpt>
      <trkpt lat="46.29148" lon="-0.26122">
        <ele>144.6</ele>
        <time>2012-03-06T15:45:26Z</time>
      </trkpt>
      <trkpt lat="46.29148" lon="-0.26124">
        <ele>144.4</ele>
        <time>2012-03-06T15:45:27Z</time>
      </trkpt>
      <trkpt lat="46.2914" lon="-0.26135">
        <ele>143</ele>
        <time>2012-03-06T15:45:37Z</time>
      </trkpt>
      <trkpt lat="46.29138" lon="-0.26136">
        <ele>143.9</ele>
        <time>2012-03-06T15:45:37Z</time>
      </trkpt>
      <trkpt lat="46.29127" lon="-0.26144">
        <ele>147.3</ele>
        <time>2012-03-06T15:45:45Z</time>
      </trkpt>
      <trkpt lat="46.29116" lon="-0.26148">
        <ele>148.6</ele>
        <time>2012-03-06T15:45:56Z</time>
      </trkpt>
      <trkpt lat="46.29114" lon="-0.26152">
        <ele>149.4</ele>
        <time>2012-03-06T15:45:56Z</time>
      </trkpt>
      <trkpt lat="46.29107" lon="-0.26159">
        <ele>149</ele>
        <time>2012-03-06T15:46:08Z</time>
      </trkpt>
      <trkpt lat="46.29107" lon="-0.2616">
        <ele>148.3</ele>
        <time>2012-03-06T15:46:08Z</time>
      </trkpt>
      <trkpt lat="46.29102" lon="-0.26165">
        <ele>146.6</ele>
        <time>2012-03-06T15:46:14Z</time>
      </trkpt>
      <trkpt lat="46.29097" lon="-0.26168">
        <ele>147</ele>
        <time>2012-03-06T15:46:17Z</time>
      </trkpt>
      <trkpt lat="46.29089" lon="-0.26176">
        <ele>148</ele>
        <time>2012-03-06T15:46:26Z</time>
      </trkpt>
      <trkpt lat="46.29088" lon="-0.26177">
        <ele>147.7</ele>
        <time>2012-03-06T15:46:26Z</time>
      </trkpt>
      <trkpt lat="46.29079" lon="-0.26187">
        <ele>145.5</ele>
        <time>2012-03-06T15:46:38Z</time>
      </trkpt>
      <trkpt lat="46.29078" lon="-0.26188">
        <ele>145.9</ele>
        <time>2012-03-06T15:46:38Z</time>
      </trkpt>
      <trkpt lat="46.29073" lon="-0.26195">
        <ele>146.4</ele>
        <time>2012-03-06T15:46:44Z</time>
      </trkpt>
      <trkpt lat="46.29071" lon="-0.26198">
        <ele>146.3</ele>
        <time>2012-03-06T15:46:46Z</time>
      </trkpt>
      <trkpt lat="46.29062" lon="-0.26205">
        <ele>145.4</ele>
        <time>2012-03-06T15:46:57Z</time>
      </trkpt>
      <trkpt lat="46.29061" lon="-0.26206">
        <ele>145.6</ele>
        <time>2012-03-06T15:46:58Z</time>
      </trkpt>
      <trkpt lat="46.29053" lon="-0.26212">
        <ele>146.4</ele>
        <time>2012-03-06T15:47:06Z</time>
      </trkpt>
      <trkpt lat="46.29053" lon="-0.26214">
        <ele>147.3</ele>
        <time>2012-03-06T15:47:06Z</time>
      </trkpt>
      <trkpt lat="46.29041" lon="-0.26224">
        <ele>149.3</ele>
        <time>2012-03-06T15:47:18Z</time>
      </trkpt>
      <trkpt lat="46.2904" lon="-0.26225">
        <ele>149.1</ele>
        <time>2012-03-06T15:47:18Z</time>
      </trkpt>
      <trkpt lat="46.29035" lon="-0.26227">
        <ele>148.6</ele>
        <time>2012-03-06T15:47:24Z</time>
      </trkpt>
      <trkpt lat="46.29032" lon="-0.2623">
        <ele>146.9</ele>
        <time>2012-03-06T15:47:28Z</time>
      </trkpt>
      <trkpt lat="46.29026" lon="-0.26237">
        <ele>146</ele>
        <time>2012-03-06T15:47:35Z</time>
      </trkpt>
      <trkpt lat="46.29025" lon="-0.26238">
        <ele>146.1</ele>
        <time>2012-03-06T15:47:36Z</time>
      </trkpt>
      <trkpt lat="46.29016" lon="-0.26248">
        <ele>145.7</ele>
        <time>2012-03-06T15:47:45Z</time>
      </trkpt>
      <trkpt lat="46.29005" lon="-0.26261">
        <ele>142.7</ele>
        <time>2012-03-06T15:47:58Z</time>
      </trkpt>
      <trkpt lat="46.29004" lon="-0.26261">
        <ele>142.7</ele>
        <time>2012-03-06T15:47:59Z</time>
      </trkpt>
      <trkpt lat="46.29002" lon="-0.26264">
        <ele>142.1</ele>
        <time>2012-03-06T15:48:02Z</time>
      </trkpt>
      <trkpt lat="46.28994" lon="-0.26274">
        <ele>141.8</ele>
        <time>2012-03-06T15:48:11Z</time>
      </trkpt>
      <trkpt lat="46.28993" lon="-0.26275">
        <ele>141.6</ele>
        <time>2012-03-06T15:48:11Z</time>
      </trkpt>
      <trkpt lat="46.28983" lon="-0.26289">
        <ele>144.5</ele>
        <time>2012-03-06T15:48:22Z</time>
      </trkpt>
      <trkpt lat="46.28978" lon="-0.26297">
        <ele>143.7</ele>
        <time>2012-03-06T15:48:31Z</time>
      </trkpt>
      <trkpt lat="46.28977" lon="-0.26298">
        <ele>143.2</ele>
        <time>2012-03-06T15:48:32Z</time>
      </trkpt>
      <trkpt lat="46.2897" lon="-0.2631">
        <ele>143</ele>
        <time>2012-03-06T15:48:42Z</time>
      </trkpt>
      <trkpt lat="46.28967" lon="-0.26317">
        <ele>143.1</ele>
        <time>2012-03-06T15:48:48Z</time>
      </trkpt>
      <trkpt lat="46.28962" lon="-0.26325">
        <ele>144.8</ele>
        <time>2012-03-06T15:48:54Z</time>
      </trkpt>
      <trkpt lat="46.28959" lon="-0.26331">
        <ele>145.3</ele>
        <time>2012-03-06T15:48:57Z</time>
      </trkpt>
      <trkpt lat="46.28959" lon="-0.26333">
        <ele>144</ele>
        <time>2012-03-06T15:49:02Z</time>
      </trkpt>
      <trkpt lat="46.2895" lon="-0.2635">
        <ele>147.5</ele>
        <time>2012-03-06T15:49:11Z</time>
      </trkpt>
      <trkpt lat="46.28949" lon="-0.26351">
        <ele>148.2</ele>
        <time>2012-03-06T15:49:11Z</time>
      </trkpt>
      <trkpt lat="46.28941" lon="-0.26364">
        <ele>150.7</ele>
        <time>2012-03-06T15:49:21Z</time>
      </trkpt>
      <trkpt lat="46.28935" lon="-0.26377">
        <ele>150.4</ele>
        <time>2012-03-06T15:49:31Z</time>
      </trkpt>
      <trkpt lat="46.28927" lon="-0.26393">
        <ele>149.5</ele>
        <time>2012-03-06T15:49:43Z</time>
      </trkpt>
      <trkpt lat="46.28926" lon="-0.26395">
        <ele>149.4</ele>
        <time>2012-03-06T15:49:43Z</time>
      </trkpt>
      <trkpt lat="46.28925" lon="-0.26398">
        <ele>150.3</ele>
        <time>2012-03-06T15:49:46Z</time>
      </trkpt>
      <trkpt lat="46.28916" lon="-0.26414">
        <ele>155</ele>
        <time>2012-03-06T15:49:57Z</time>
      </trkpt>
      <trkpt lat="46.28915" lon="-0.26413">
        <ele>154.5</ele>
        <time>2012-03-06T15:49:58Z</time>
      </trkpt>
      <trkpt lat="46.28909" lon="-0.26411">
        <ele>150.5</ele>
        <time>2012-03-06T15:50:06Z</time>
      </trkpt>
      <trkpt lat="46.28907" lon="-0.26406">
        <ele>147</ele>
        <time>2012-03-06T15:50:17Z</time>
      </trkpt>
      <trkpt lat="46.28907" lon="-0.26406">
        <ele>147.1</ele>
        <time>2012-03-06T15:50:17Z</time>
      </trkpt>
      <trkpt lat="46.28906" lon="-0.26405">
        <ele>146.6</ele>
        <time>2012-03-06T15:50:25Z</time>
      </trkpt>
      <trkpt lat="46.28906" lon="-0.26405">
        <ele>146.6</ele>
        <time>2012-03-06T15:50:27Z</time>
      </trkpt>
      <trkpt lat="46.28906" lon="-0.26405">
        <ele>146.5</ele>
        <time>2012-03-06T15:50:36Z</time>
      </trkpt>
      <trkpt lat="46.28904" lon="-0.26403">
        <ele>146</ele>
        <time>2012-03-06T15:50:37Z</time>
      </trkpt>
      <trkpt lat="46.28902" lon="-0.26395">
        <ele>143.9</ele>
        <time>2012-03-06T15:50:45Z</time>
      </trkpt>
      <trkpt lat="46.28896" lon="-0.2638">
        <ele>142.7</ele>
        <time>2012-03-06T15:50:56Z</time>
      </trkpt>
      <trkpt lat="46.28895" lon="-0.26379">
        <ele>142.1</ele>
        <time>2012-03-06T15:50:56Z</time>
      </trkpt>
      <trkpt lat="46.28894" lon="-0.26373">
        <ele>141.7</ele>
        <time>2012-03-06T15:51:02Z</time>
      </trkpt>
      <trkpt lat="46.28887" lon="-0.26363">
        <ele>139.5</ele>
        <time>2012-03-06T15:51:11Z</time>
      </trkpt>
      <trkpt lat="46.28886" lon="-0.26361">
        <ele>139.8</ele>
        <time>2012-03-06T15:51:12Z</time>
      </trkpt>
      <trkpt lat="46.28883" lon="-0.26347">
        <ele>139.7</ele>
        <time>2012-03-06T15:51:23Z</time>
      </trkpt>
      <trkpt lat="46.28883" lon="-0.26346">
        <ele>139.7</ele>
        <time>2012-03-06T15:51:23Z</time>
      </trkpt>
      <trkpt lat="46.28879" lon="-0.2633">
        <ele>140.6</ele>
        <time>2012-03-06T15:51:29Z</time>
      </trkpt>
      <trkpt lat="46.28878" lon="-0.26331">
        <ele>140.9</ele>
        <time>2012-03-06T15:51:33Z</time>
      </trkpt>
      <trkpt lat="46.28872" lon="-0.26319">
        <ele>140.4</ele>
        <time>2012-03-06T15:51:39Z</time>
      </trkpt>
      <trkpt lat="46.2887" lon="-0.26317">
        <ele>140.4</ele>
        <time>2012-03-06T15:51:41Z</time>
      </trkpt>
      <trkpt lat="46.28868" lon="-0.26311">
        <ele>139.1</ele>
        <time>2012-03-06T15:51:46Z</time>
      </trkpt>
      <trkpt lat="46.28862" lon="-0.26294">
        <ele>140.9</ele>
        <time>2012-03-06T15:51:58Z</time>
      </trkpt>
      <trkpt lat="46.28861" lon="-0.26292">
        <ele>140.8</ele>
        <time>2012-03-06T15:51:58Z</time>
      </trkpt>
      <trkpt lat="46.2886" lon="-0.26286">
        <ele>140.6</ele>
        <time>2012-03-06T15:52:05Z</time>
      </trkpt>
      <trkpt lat="46.28857" lon="-0.26282">
        <ele>140.3</ele>
        <time>2012-03-06T15:52:06Z</time>
      </trkpt>
      <trkpt lat="46.28853" lon="-0.26275">
        <ele>134.4</ele>
        <time>2012-03-06T15:52:17Z</time>
      </trkpt>
      <trkpt lat="46.28853" lon="-0.26268">
        <ele>134.5</ele>
        <time>2012-03-06T15:52:24Z</time>
      </trkpt>
      <trkpt lat="46.28851" lon="-0.26258">
        <ele>133.6</ele>
        <time>2012-03-06T15:52:29Z</time>
      </trkpt>
      <trkpt lat="46.28849" lon="-0.26255">
        <ele>131.9</ele>
        <time>2012-03-06T15:52:34Z</time>
      </trkpt>
      <trkpt lat="46.28847" lon="-0.26249">
        <ele>132</ele>
        <time>2012-03-06T15:52:37Z</time>
      </trkpt>
      <trkpt lat="46.28846" lon="-0.26242">
        <ele>131.8</ele>
        <time>2012-03-06T15:52:45Z</time>
      </trkpt>
      <trkpt lat="46.28843" lon="-0.26224">
        <ele>137.1</ele>
        <time>2012-03-06T15:52:54Z</time>
      </trkpt>
      <trkpt lat="46.28842" lon="-0.26218">
        <ele>139</ele>
        <time>2012-03-06T15:52:57Z</time>
      </trkpt>
      <trkpt lat="46.28835" lon="-0.26195">
        <ele>144.4</ele>
        <time>2012-03-06T15:53:06Z</time>
      </trkpt>
      <trkpt lat="46.28834" lon="-0.26193">
        <ele>145</ele>
        <time>2012-03-06T15:53:06Z</time>
      </trkpt>
      <trkpt lat="46.28832" lon="-0.26181">
        <ele>147.4</ele>
        <time>2012-03-06T15:53:15Z</time>
      </trkpt>
      <trkpt lat="46.28831" lon="-0.2618">
        <ele>146.8</ele>
        <time>2012-03-06T15:53:16Z</time>
      </trkpt>
      <trkpt lat="46.28828" lon="-0.26172">
        <ele>144.4</ele>
        <time>2012-03-06T15:53:27Z</time>
      </trkpt>
      <trkpt lat="46.28828" lon="-0.2617">
        <ele>143.9</ele>
        <time>2012-03-06T15:53:28Z</time>
      </trkpt>
      <trkpt lat="46.28826" lon="-0.26161">
        <ele>144.1</ele>
        <time>2012-03-06T15:53:36Z</time>
      </trkpt>
      <trkpt lat="46.28824" lon="-0.26156">
        <ele>143.9</ele>
        <time>2012-03-06T15:53:36Z</time>
      </trkpt>
      <trkpt lat="46.28818" lon="-0.26138">
        <ele>143.7</ele>
        <time>2012-03-06T15:53:46Z</time>
      </trkpt>
      <trkpt lat="46.28825" lon="-0.26133">
        <ele>140.8</ele>
        <time>2012-03-06T15:53:58Z</time>
      </trkpt>
      <trkpt lat="46.28826" lon="-0.26132">
        <ele>140.8</ele>
        <time>2012-03-06T15:53:59Z</time>
      </trkpt>
      <trkpt lat="46.2883" lon="-0.2613">
        <ele>140.6</ele>
        <time>2012-03-06T15:54:02Z</time>
      </trkpt>
      <trkpt lat="46.28835" lon="-0.2612">
        <ele>141.1</ele>
        <time>2012-03-06T15:54:10Z</time>
      </trkpt>
      <trkpt lat="46.28835" lon="-0.26118">
        <ele>140.9</ele>
        <time>2012-03-06T15:54:11Z</time>
      </trkpt>
      <trkpt lat="46.28835" lon="-0.26102">
        <ele>140.6</ele>
        <time>2012-03-06T15:54:21Z</time>
      </trkpt>
      <trkpt lat="46.28835" lon="-0.26103">
        <ele>140.5</ele>
        <time>2012-03-06T15:54:21Z</time>
      </trkpt>
      <trkpt lat="46.28841" lon="-0.26093">
        <ele>140.3</ele>
        <time>2012-03-06T15:54:30Z</time>
      </trkpt>
      <trkpt lat="46.28842" lon="-0.26092">
        <ele>140.5</ele>
        <time>2012-03-06T15:54:31Z</time>
      </trkpt>
      <trkpt lat="46.2885" lon="-0.26082">
        <ele>140.9</ele>
        <time>2012-03-06T15:54:44Z</time>
      </trkpt>
      <trkpt lat="46.2885" lon="-0.2608">
        <ele>141</ele>
        <time>2012-03-06T15:54:44Z</time>
      </trkpt>
      <trkpt lat="46.28849" lon="-0.26079">
        <ele>141.3</ele>
        <time>2012-03-06T15:54:46Z</time>
      </trkpt>
      <trkpt lat="46.28852" lon="-0.26077">
        <ele>141.5</ele>
        <time>2012-03-06T15:54:57Z</time>
      </trkpt>
      <trkpt lat="46.28852" lon="-0.26077">
        <ele>140.8</ele>
        <time>2012-03-06T15:54:57Z</time>
      </trkpt>
      <trkpt lat="46.28852" lon="-0.26076">
        <ele>140.3</ele>
        <time>2012-03-06T15:55:03Z</time>
      </trkpt>
      <trkpt lat="46.28853" lon="-0.26067">
        <ele>139.3</ele>
        <time>2012-03-06T15:55:09Z</time>
      </trkpt>
      <trkpt lat="46.28854" lon="-0.26062">
        <ele>139.5</ele>
        <time>2012-03-06T15:55:13Z</time>
      </trkpt>
      <trkpt lat="46.28856" lon="-0.26054">
        <ele>139.7</ele>
        <time>2012-03-06T15:55:19Z</time>
      </trkpt>
      <trkpt lat="46.28857" lon="-0.26051">
        <ele>139.6</ele>
        <time>2012-03-06T15:55:22Z</time>
      </trkpt>
      <trkpt lat="46.28862" lon="-0.26037">
        <ele>140</ele>
        <time>2012-03-06T15:55:31Z</time>
      </trkpt>
      <trkpt lat="46.28863" lon="-0.26036">
        <ele>140.3</ele>
        <time>2012-03-06T15:55:31Z</time>
      </trkpt>
      <trkpt lat="46.2887" lon="-0.26022">
        <ele>143.5</ele>
        <time>2012-03-06T15:55:43Z</time>
      </trkpt>
      <trkpt lat="46.28871" lon="-0.26022">
        <ele>143.5</ele>
        <time>2012-03-06T15:55:43Z</time>
      </trkpt>
      <trkpt lat="46.28875" lon="-0.2602">
        <ele>143.6</ele>
        <time>2012-03-06T15:55:46Z</time>
      </trkpt>
      <trkpt lat="46.28881" lon="-0.26012">
        <ele>141.9</ele>
        <time>2012-03-06T15:55:56Z</time>
      </trkpt>
      <trkpt lat="46.28885" lon="-0.26012">
        <ele>141.7</ele>
        <time>2012-03-06T15:55:56Z</time>
      </trkpt>
      <trkpt lat="46.28891" lon="-0.26002">
        <ele>143</ele>
        <time>2012-03-06T15:56:06Z</time>
      </trkpt>
      <trkpt lat="46.28893" lon="-0.26003">
        <ele>142.2</ele>
        <time>2012-03-06T15:56:06Z</time>
      </trkpt>
      <trkpt lat="46.28901" lon="-0.25997">
        <ele>142.5</ele>
        <time>2012-03-06T15:56:17Z</time>
      </trkpt>
      <trkpt lat="46.28903" lon="-0.25995">
        <ele>142.2</ele>
        <time>2012-03-06T15:56:17Z</time>
      </trkpt>
      <trkpt lat="46.28909" lon="-0.25991">
        <ele>140.7</ele>
        <time>2012-03-06T15:56:26Z</time>
      </trkpt>
      <trkpt lat="46.28911" lon="-0.2599">
        <ele>140.2</ele>
        <time>2012-03-06T15:56:26Z</time>
      </trkpt>
      <trkpt lat="46.28922" lon="-0.2598">
        <ele>139.8</ele>
        <time>2012-03-06T15:56:37Z</time>
      </trkpt>
      <trkpt lat="46.2893" lon="-0.25969">
        <ele>139.5</ele>
        <time>2012-03-06T15:56:45Z</time>
      </trkpt>
      <trkpt lat="46.28939" lon="-0.25961">
        <ele>139.7</ele>
        <time>2012-03-06T15:56:58Z</time>
      </trkpt>
      <trkpt lat="46.2894" lon="-0.2596">
        <ele>139.7</ele>
        <time>2012-03-06T15:56:58Z</time>
      </trkpt>
      <trkpt lat="46.28944" lon="-0.25953">
        <ele>141.3</ele>
        <time>2012-03-06T15:57:06Z</time>
      </trkpt>
      <trkpt lat="46.28944" lon="-0.25952">
        <ele>141.2</ele>
        <time>2012-03-06T15:57:06Z</time>
      </trkpt>
      <trkpt lat="46.28953" lon="-0.25943">
        <ele>144.5</ele>
        <time>2012-03-06T15:57:18Z</time>
      </trkpt>
      <trkpt lat="46.28955" lon="-0.25941">
        <ele>144.6</ele>
        <time>2012-03-06T15:57:18Z</time>
      </trkpt>
      <trkpt lat="46.28958" lon="-0.25937">
        <ele>145.2</ele>
        <time>2012-03-06T15:57:24Z</time>
      </trkpt>
      <trkpt lat="46.28961" lon="-0.25934">
        <ele>144.8</ele>
        <time>2012-03-06T15:57:28Z</time>
      </trkpt>
      <trkpt lat="46.2897" lon="-0.2593">
        <ele>144.9</ele>
        <time>2012-03-06T15:57:35Z</time>
      </trkpt>
      <trkpt lat="46.28972" lon="-0.25928">
        <ele>145.8</ele>
        <time>2012-03-06T15:57:36Z</time>
      </trkpt>
      <trkpt lat="46.28979" lon="-0.25922">
        <ele>146.2</ele>
        <time>2012-03-06T15:57:45Z</time>
      </trkpt>
      <trkpt lat="46.28982" lon="-0.25909">
        <ele>141.5</ele>
        <time>2012-03-06T15:57:58Z</time>
      </trkpt>
      <trkpt lat="46.28981" lon="-0.25908">
        <ele>140.4</ele>
        <time>2012-03-06T15:57:59Z</time>
      </trkpt>
      <trkpt lat="46.28979" lon="-0.25904">
        <ele>139.3</ele>
        <time>2012-03-06T15:58:02Z</time>
      </trkpt>
      <trkpt lat="46.2897" lon="-0.25893">
        <ele>136.6</ele>
        <time>2012-03-06T15:58:12Z</time>
      </trkpt>
      <trkpt lat="46.2897" lon="-0.25892">
        <ele>136.6</ele>
        <time>2012-03-06T15:58:12Z</time>
      </trkpt>
      <trkpt lat="46.28962" lon="-0.25883">
        <ele>140.9</ele>
        <time>2012-03-06T15:58:22Z</time>
      </trkpt>
      <trkpt lat="46.28962" lon="-0.25881">
        <ele>141.2</ele>
        <time>2012-03-06T15:58:22Z</time>
      </trkpt>
      <trkpt lat="46.28958" lon="-0.25871">
        <ele>142</ele>
        <time>2012-03-06T15:58:29Z</time>
      </trkpt>
      <trkpt lat="46.28957" lon="-0.25867">
        <ele>142.1</ele>
        <time>2012-03-06T15:58:33Z</time>
      </trkpt>
      <trkpt lat="46.28956" lon="-0.25862">
        <ele>142.6</ele>
        <time>2012-03-06T15:58:40Z</time>
      </trkpt>
      <trkpt lat="46.28957" lon="-0.25861">
        <ele>142.6</ele>
        <time>2012-03-06T15:58:41Z</time>
      </trkpt>
      <trkpt lat="46.28956" lon="-0.25854">
        <ele>144.5</ele>
        <time>2012-03-06T15:58:46Z</time>
      </trkpt>
      <trkpt lat="46.28955" lon="-0.25846">
        <ele>143.3</ele>
        <time>2012-03-06T15:58:52Z</time>
      </trkpt>
      <trkpt lat="46.28953" lon="-0.25829">
        <ele>143.2</ele>
        <time>2012-03-06T15:59:02Z</time>
      </trkpt>
      <trkpt lat="46.28953" lon="-0.25828">
        <ele>143.3</ele>
        <time>2012-03-06T15:59:02Z</time>
      </trkpt>
      <trkpt lat="46.28952" lon="-0.25811">
        <ele>141.5</ele>
        <time>2012-03-06T15:59:11Z</time>
      </trkpt>
      <trkpt lat="46.28951" lon="-0.25807">
        <ele>139.4</ele>
        <time>2012-03-06T15:59:23Z</time>
      </trkpt>
      <trkpt lat="46.2895" lon="-0.25794">
        <ele>134.8</ele>
        <time>2012-03-06T15:59:30Z</time>
      </trkpt>
      <trkpt lat="46.2895" lon="-0.25793">
        <ele>134.1</ele>
        <time>2012-03-06T15:59:31Z</time>
      </trkpt>
      <trkpt lat="46.2895" lon="-0.25769">
        <ele>135.8</ele>
        <time>2012-03-06T15:59:43Z</time>
      </trkpt>
      <trkpt lat="46.2895" lon="-0.25768">
        <ele>135.5</ele>
        <time>2012-03-06T15:59:46Z</time>
      </trkpt>
      <trkpt lat="46.28948" lon="-0.25747">
        <ele>139.1</ele>
        <time>2012-03-06T15:59:57Z</time>
      </trkpt>
      <trkpt lat="46.2895" lon="-0.25737">
        <ele>139.7</ele>
        <time>2012-03-06T16:00:06Z</time>
      </trkpt>
      <trkpt lat="46.2895" lon="-0.25736">
        <ele>140.3</ele>
        <time>2012-03-06T16:00:07Z</time>
      </trkpt>
      <trkpt lat="46.28948" lon="-0.25723">
        <ele>140</ele>
        <time>2012-03-06T16:00:17Z</time>
      </trkpt>
      <trkpt lat="46.28949" lon="-0.25717">
        <ele>138.7</ele>
        <time>2012-03-06T16:00:26Z</time>
      </trkpt>
      <trkpt lat="46.28949" lon="-0.25715">
        <ele>138.9</ele>
        <time>2012-03-06T16:00:27Z</time>
      </trkpt>
      <trkpt lat="46.28955" lon="-0.25697">
        <ele>142.1</ele>
        <time>2012-03-06T16:00:37Z</time>
      </trkpt>
      <trkpt lat="46.28958" lon="-0.25689">
        <ele>144.9</ele>
        <time>2012-03-06T16:00:45Z</time>
      </trkpt>
      <trkpt lat="46.28958" lon="-0.25688">
        <ele>145.1</ele>
        <time>2012-03-06T16:00:46Z</time>
      </trkpt>
      <trkpt lat="46.28963" lon="-0.25677">
        <ele>147.5</ele>
        <time>2012-03-06T16:00:56Z</time>
      </trkpt>
      <trkpt lat="46.28968" lon="-0.25669">
        <ele>146.6</ele>
        <time>2012-03-06T16:01:05Z</time>
      </trkpt>
      <trkpt lat="46.28975" lon="-0.25654">
        <ele>145</ele>
        <time>2012-03-06T16:01:19Z</time>
      </trkpt>
      <trkpt lat="46.28976" lon="-0.25653">
        <ele>145.4</ele>
        <time>2012-03-06T16:01:19Z</time>
      </trkpt>
      <trkpt lat="46.28977" lon="-0.25651">
        <ele>143.1</ele>
        <time>2012-03-06T16:01:22Z</time>
      </trkpt>
      <trkpt lat="46.28981" lon="-0.25645">
        <ele>142.1</ele>
        <time>2012-03-06T16:01:31Z</time>
      </trkpt>
      <trkpt lat="46.28983" lon="-0.25643">
        <ele>141.8</ele>
        <time>2012-03-06T16:01:31Z</time>
      </trkpt>
      <trkpt lat="46.28986" lon="-0.25627">
        <ele>141.7</ele>
        <time>2012-03-06T16:01:43Z</time>
      </trkpt>
      <trkpt lat="46.28986" lon="-0.25624">
        <ele>142.3</ele>
        <time>2012-03-06T16:01:43Z</time>
      </trkpt>
      <trkpt lat="46.28989" lon="-0.2562">
        <ele>140.6</ele>
        <time>2012-03-06T16:01:48Z</time>
      </trkpt>
      <trkpt lat="46.2899" lon="-0.25617">
        <ele>141.4</ele>
        <time>2012-03-06T16:01:53Z</time>
      </trkpt>
      <trkpt lat="46.28994" lon="-0.25611">
        <ele>142.3</ele>
        <time>2012-03-06T16:01:56Z</time>
      </trkpt>
      <trkpt lat="46.28995" lon="-0.25602">
        <ele>140.8</ele>
        <time>2012-03-06T16:02:01Z</time>
      </trkpt>
      <trkpt lat="46.29" lon="-0.25596">
        <ele>138.4</ele>
        <time>2012-03-06T16:02:11Z</time>
      </trkpt>
      <trkpt lat="46.29" lon="-0.25594">
        <ele>137.6</ele>
        <time>2012-03-06T16:02:11Z</time>
      </trkpt>
      <trkpt lat="46.29006" lon="-0.25583">
        <ele>137.4</ele>
        <time>2012-03-06T16:02:23Z</time>
      </trkpt>
      <trkpt lat="46.29005" lon="-0.25583">
        <ele>137.7</ele>
        <time>2012-03-06T16:02:23Z</time>
      </trkpt>
      <trkpt lat="46.29005" lon="-0.2557">
        <ele>139.9</ele>
        <time>2012-03-06T16:02:28Z</time>
      </trkpt>
      <trkpt lat="46.29006" lon="-0.25563">
        <ele>140.4</ele>
        <time>2012-03-06T16:02:34Z</time>
      </trkpt>
      <trkpt lat="46.29007" lon="-0.25557">
        <ele>138.9</ele>
        <time>2012-03-06T16:02:38Z</time>
      </trkpt>
      <trkpt lat="46.29008" lon="-0.25545">
        <ele>141.4</ele>
        <time>2012-03-06T16:02:44Z</time>
      </trkpt>
      <trkpt lat="46.29007" lon="-0.25538">
        <ele>143.4</ele>
        <time>2012-03-06T16:02:47Z</time>
      </trkpt>
      <trkpt lat="46.29007" lon="-0.25522">
        <ele>145.4</ele>
        <time>2012-03-06T16:02:56Z</time>
      </trkpt>
      <trkpt lat="46.29007" lon="-0.25503">
        <ele>148.6</ele>
        <time>2012-03-06T16:03:07Z</time>
      </trkpt>
      <trkpt lat="46.29007" lon="-0.25501">
        <ele>150</ele>
        <time>2012-03-06T16:03:07Z</time>
      </trkpt>
      <trkpt lat="46.29008" lon="-0.25492">
        <ele>148</ele>
        <time>2012-03-06T16:03:16Z</time>
      </trkpt>
      <trkpt lat="46.2901" lon="-0.2548">
        <ele>147.9</ele>
        <time>2012-03-06T16:03:26Z</time>
      </trkpt>
      <trkpt lat="46.2901" lon="-0.25479">
        <ele>148.1</ele>
        <time>2012-03-06T16:03:26Z</time>
      </trkpt>
      <trkpt lat="46.29008" lon="-0.25465">
        <ele>147</ele>
        <time>2012-03-06T16:03:38Z</time>
      </trkpt>
      <trkpt lat="46.29008" lon="-0.25464">
        <ele>146</ele>
        <time>2012-03-06T16:03:38Z</time>
      </trkpt>
      <trkpt lat="46.29008" lon="-0.25456">
        <ele>143.8</ele>
        <time>2012-03-06T16:03:44Z</time>
      </trkpt>
      <trkpt lat="46.29007" lon="-0.25455">
        <ele>143.6</ele>
        <time>2012-03-06T16:03:46Z</time>
      </trkpt>
      <trkpt lat="46.29005" lon="-0.25437">
        <ele>144.1</ele>
        <time>2012-03-06T16:03:55Z</time>
      </trkpt>
      <trkpt lat="46.29005" lon="-0.25429">
        <ele>144.4</ele>
        <time>2012-03-06T16:03:56Z</time>
      </trkpt>
      <trkpt lat="46.29002" lon="-0.25418">
        <ele>143.4</ele>
        <time>2012-03-06T16:04:07Z</time>
      </trkpt>
      <trkpt lat="46.29002" lon="-0.25413">
        <ele>143.8</ele>
        <time>2012-03-06T16:04:15Z</time>
      </trkpt>
      <trkpt lat="46.29002" lon="-0.25412">
        <ele>144</ele>
        <time>2012-03-06T16:04:16Z</time>
      </trkpt>
      <trkpt lat="46.29001" lon="-0.25411">
        <ele>145.3</ele>
        <time>2012-03-06T16:04:26Z</time>
      </trkpt>
      <trkpt lat="46.29001" lon="-0.25411">
        <ele>145.3</ele>
        <time>2012-03-06T16:04:27Z</time>
      </trkpt>
      <trkpt lat="46.29003" lon="-0.25408">
        <ele>145.9</ele>
        <time>2012-03-06T16:04:37Z</time>
      </trkpt>
      <trkpt lat="46.29004" lon="-0.25409">
        <ele>145.3</ele>
        <time>2012-03-06T16:04:37Z</time>
      </trkpt>
      <trkpt lat="46.29004" lon="-0.25412">
        <ele>143.1</ele>
        <time>2012-03-06T16:04:44Z</time>
      </trkpt>
      <trkpt lat="46.29004" lon="-0.2541">
        <ele>143.2</ele>
        <time>2012-03-06T16:04:46Z</time>
      </trkpt>
      <trkpt lat="46.29007" lon="-0.25411">
        <ele>141.7</ele>
        <time>2012-03-06T16:04:58Z</time>
      </trkpt>
      <trkpt lat="46.29007" lon="-0.25411">
        <ele>141.7</ele>
        <time>2012-03-06T16:04:59Z</time>
      </trkpt>
      <trkpt lat="46.29008" lon="-0.25411">
        <ele>141.8</ele>
        <time>2012-03-06T16:05:01Z</time>
      </trkpt>
      <trkpt lat="46.29019" lon="-0.25413">
        <ele>140.7</ele>
        <time>2012-03-06T16:05:13Z</time>
      </trkpt>
      <trkpt lat="46.2902" lon="-0.25413">
        <ele>140.6</ele>
        <time>2012-03-06T16:05:13Z</time>
      </trkpt>
      <trkpt lat="46.29023" lon="-0.25413">
        <ele>140.8</ele>
        <time>2012-03-06T16:05:17Z</time>
      </trkpt>
      <trkpt lat="46.29029" lon="-0.25413">
        <ele>142.4</ele>
        <time>2012-03-06T16:05:21Z</time>
      </trkpt>
      <trkpt lat="46.29033" lon="-0.25414">
        <ele>143.9</ele>
        <time>2012-03-06T16:05:26Z</time>
      </trkpt>
      <trkpt lat="46.29037" lon="-0.25413">
        <ele>143.8</ele>
        <time>2012-03-06T16:05:31Z</time>
      </trkpt>
      <trkpt lat="46.29042" lon="-0.25411">
        <ele>144.7</ele>
        <time>2012-03-06T16:05:36Z</time>
      </trkpt>
      <trkpt lat="46.29047" lon="-0.25411">
        <ele>146.7</ele>
        <time>2012-03-06T16:05:41Z</time>
      </trkpt>
      <trkpt lat="46.29051" lon="-0.25412">
        <ele>147.1</ele>
        <time>2012-03-06T16:05:46Z</time>
      </trkpt>
      <trkpt lat="46.29051" lon="-0.25412">
        <ele>146.9</ele>
        <time>2012-03-06T16:05:51Z</time>
      </trkpt>
      <trkpt lat="46.29051" lon="-0.25413">
        <ele>146.8</ele>
        <time>2012-03-06T16:05:56Z</time>
      </trkpt>
      <trkpt lat="46.29049" lon="-0.25413">
        <ele>147.1</ele>
        <time>2012-03-06T16:06:01Z</time>
      </trkpt>
      <trkpt lat="46.29058" lon="-0.25411">
        <ele>147.6</ele>
        <time>2012-03-06T16:06:07Z</time>
      </trkpt>
      <trkpt lat="46.29069" lon="-0.25409">
        <ele>148</ele>
        <time>2012-03-06T16:06:15Z</time>
      </trkpt>
      <trkpt lat="46.29072" lon="-0.25408">
        <ele>147.5</ele>
        <time>2012-03-06T16:06:16Z</time>
      </trkpt>
      <trkpt lat="46.29085" lon="-0.25409">
        <ele>148.3</ele>
        <time>2012-03-06T16:06:27Z</time>
      </trkpt>
      <trkpt lat="46.29094" lon="-0.25407">
        <ele>151.2</ele>
        <time>2012-03-06T16:06:35Z</time>
      </trkpt>
      <trkpt lat="46.29095" lon="-0.25406">
        <ele>151.2</ele>
        <time>2012-03-06T16:06:36Z</time>
      </trkpt>
      <trkpt lat="46.29098" lon="-0.25403">
        <ele>149.2</ele>
        <time>2012-03-06T16:06:46Z</time>
      </trkpt>
      <trkpt lat="46.291" lon="-0.25405">
        <ele>149.5</ele>
        <time>2012-03-06T16:06:46Z</time>
      </trkpt>
      <trkpt lat="46.29112" lon="-0.25405">
        <ele>152.1</ele>
        <time>2012-03-06T16:06:57Z</time>
      </trkpt>
      <trkpt lat="46.29113" lon="-0.25405">
        <ele>151.8</ele>
        <time>2012-03-06T16:06:57Z</time>
      </trkpt>
      <trkpt lat="46.29113" lon="-0.25405">
        <ele>151.1</ele>
        <time>2012-03-06T16:07:04Z</time>
      </trkpt>
      <trkpt lat="46.29115" lon="-0.25405">
        <ele>150.2</ele>
        <time>2012-03-06T16:07:06Z</time>
      </trkpt>
      <trkpt lat="46.29118" lon="-0.25402">
        <ele>149.3</ele>
        <time>2012-03-06T16:07:11Z</time>
      </trkpt>
      <trkpt lat="46.2913" lon="-0.25401">
        <ele>147.6</ele>
        <time>2012-03-06T16:07:22Z</time>
      </trkpt>
      <trkpt lat="46.29131" lon="-0.25401">
        <ele>147.4</ele>
        <time>2012-03-06T16:07:23Z</time>
      </trkpt>
      <trkpt lat="46.29138" lon="-0.25397">
        <ele>147.4</ele>
        <time>2012-03-06T16:07:31Z</time>
      </trkpt>
      <trkpt lat="46.29139" lon="-0.25397">
        <ele>147.2</ele>
        <time>2012-03-06T16:07:32Z</time>
      </trkpt>
      <trkpt lat="46.29142" lon="-0.25395">
        <ele>147.8</ele>
        <time>2012-03-06T16:07:37Z</time>
      </trkpt>
      <trkpt lat="46.29151" lon="-0.25393">
        <ele>147.3</ele>
        <time>2012-03-06T16:07:44Z</time>
      </trkpt>
      <trkpt lat="46.29154" lon="-0.25391">
        <ele>148.5</ele>
        <time>2012-03-06T16:07:48Z</time>
      </trkpt>
      <trkpt lat="46.29159" lon="-0.25388">
        <ele>148.4</ele>
        <time>2012-03-06T16:07:54Z</time>
      </trkpt>
      <trkpt lat="46.29165" lon="-0.25388">
        <ele>148</ele>
        <time>2012-03-06T16:07:57Z</time>
      </trkpt>
      <trkpt lat="46.29174" lon="-0.2539">
        <ele>148.6</ele>
        <time>2012-03-06T16:08:06Z</time>
      </trkpt>
      <trkpt lat="46.29174" lon="-0.25389">
        <ele>148.5</ele>
        <time>2012-03-06T16:08:06Z</time>
      </trkpt>
      <trkpt lat="46.29184" lon="-0.25384">
        <ele>149.8</ele>
        <time>2012-03-06T16:08:17Z</time>
      </trkpt>
      <trkpt lat="46.29187" lon="-0.25384">
        <ele>149.7</ele>
        <time>2012-03-06T16:08:18Z</time>
      </trkpt>
      <trkpt lat="46.29192" lon="-0.25382">
        <ele>150.4</ele>
        <time>2012-03-06T16:08:24Z</time>
      </trkpt>
      <trkpt lat="46.29195" lon="-0.2538">
        <ele>149.2</ele>
        <time>2012-03-06T16:08:28Z</time>
      </trkpt>
      <trkpt lat="46.29198" lon="-0.25378">
        <ele>149</ele>
        <time>2012-03-06T16:08:31Z</time>
      </trkpt>
      <trkpt lat="46.29204" lon="-0.25374">
        <ele>150</ele>
        <time>2012-03-06T16:08:38Z</time>
      </trkpt>
      <trkpt lat="46.29211" lon="-0.25371">
        <ele>148.4</ele>
        <time>2012-03-06T16:08:44Z</time>
      </trkpt>
      <trkpt lat="46.29212" lon="-0.25367">
        <ele>148.1</ele>
        <time>2012-03-06T16:08:47Z</time>
      </trkpt>
      <trkpt lat="46.29216" lon="-0.25361">
        <ele>149</ele>
        <time>2012-03-06T16:08:54Z</time>
      </trkpt>
      <trkpt lat="46.29218" lon="-0.25356">
        <ele>149.5</ele>
        <time>2012-03-06T16:08:58Z</time>
      </trkpt>
      <trkpt lat="46.29221" lon="-0.25348">
        <ele>153.1</ele>
        <time>2012-03-06T16:09:03Z</time>
      </trkpt>
      <trkpt lat="46.29223" lon="-0.25346">
        <ele>153.1</ele>
        <time>2012-03-06T16:09:07Z</time>
      </trkpt>
      <trkpt lat="46.29227" lon="-0.25336">
        <ele>153</ele>
        <time>2012-03-06T16:09:14Z</time>
      </trkpt>
      <trkpt lat="46.29226" lon="-0.25331">
        <ele>150.4</ele>
        <time>2012-03-06T16:09:18Z</time>
      </trkpt>
      <trkpt lat="46.29224" lon="-0.2532">
        <ele>151.5</ele>
        <time>2012-03-06T16:09:24Z</time>
      </trkpt>
      <trkpt lat="46.29224" lon="-0.25313">
        <ele>152.1</ele>
        <time>2012-03-06T16:09:28Z</time>
      </trkpt>
      <trkpt lat="46.29225" lon="-0.25306">
        <ele>150.6</ele>
        <time>2012-03-06T16:09:34Z</time>
      </trkpt>
      <trkpt lat="46.29222" lon="-0.25301">
        <ele>151</ele>
        <time>2012-03-06T16:09:39Z</time>
      </trkpt>
      <trkpt lat="46.29221" lon="-0.25297">
        <ele>150.1</ele>
        <time>2012-03-06T16:09:43Z</time>
      </trkpt>
      <trkpt lat="46.2922" lon="-0.25289">
        <ele>150.6</ele>
        <time>2012-03-06T16:09:47Z</time>
      </trkpt>
      <trkpt lat="46.2922" lon="-0.25284">
        <ele>148.6</ele>
        <time>2012-03-06T16:09:56Z</time>
      </trkpt>
      <trkpt lat="46.29219" lon="-0.25281">
        <ele>148.9</ele>
        <time>2012-03-06T16:09:56Z</time>
      </trkpt>
      <trkpt lat="46.29219" lon="-0.25264">
        <ele>152.2</ele>
        <time>2012-03-06T16:10:06Z</time>
      </trkpt>
      <trkpt lat="46.29219" lon="-0.25263">
        <ele>152.1</ele>
        <time>2012-03-06T16:10:06Z</time>
      </trkpt>
      <trkpt lat="46.29219" lon="-0.25245">
        <ele>153.6</ele>
        <time>2012-03-06T16:10:17Z</time>
      </trkpt>
      <trkpt lat="46.29219" lon="-0.25243">
        <ele>154.1</ele>
        <time>2012-03-06T16:10:17Z</time>
      </trkpt>
      <trkpt lat="46.29221" lon="-0.25243">
        <ele>153.9</ele>
        <time>2012-03-06T16:10:23Z</time>
      </trkpt>
      <trkpt lat="46.29222" lon="-0.25241">
        <ele>155.1</ele>
        <time>2012-03-06T16:10:26Z</time>
      </trkpt>
      <trkpt lat="46.29225" lon="-0.25237">
        <ele>157.8</ele>
        <time>2012-03-06T16:10:31Z</time>
      </trkpt>
      <trkpt lat="46.29227" lon="-0.25233">
        <ele>159.4</ele>
        <time>2012-03-06T16:10:36Z</time>
      </trkpt>
      <trkpt lat="46.2923" lon="-0.25226">
        <ele>159.4</ele>
        <time>2012-03-06T16:10:41Z</time>
      </trkpt>
      <trkpt lat="46.29234" lon="-0.25221">
        <ele>159.7</ele>
        <time>2012-03-06T16:10:46Z</time>
      </trkpt>
      <trkpt lat="46.29235" lon="-0.25219">
        <ele>160.1</ele>
        <time>2012-03-06T16:10:51Z</time>
      </trkpt>
      <trkpt lat="46.29239" lon="-0.25215">
        <ele>160</ele>
        <time>2012-03-06T16:10:56Z</time>
      </trkpt>
      <trkpt lat="46.2924" lon="-0.25215">
        <ele>160.3</ele>
        <time>2012-03-06T16:11:01Z</time>
      </trkpt>
      <trkpt lat="46.29239" lon="-0.25214">
        <ele>160.1</ele>
        <time>2012-03-06T16:11:06Z</time>
      </trkpt>
      <trkpt lat="46.29239" lon="-0.25214">
        <ele>160</ele>
        <time>2012-03-06T16:11:11Z</time>
      </trkpt>
      <trkpt lat="46.29239" lon="-0.25214">
        <ele>160.1</ele>
        <time>2012-03-06T16:11:16Z</time>
      </trkpt>
      <trkpt lat="46.29239" lon="-0.25214">
        <ele>160.1</ele>
        <time>2012-03-06T16:11:21Z</time>
      </trkpt>
      <trkpt lat="46.29239" lon="-0.25214">
        <ele>160.1</ele>
        <time>2012-03-06T16:11:26Z</time>
      </trkpt>
      <trkpt lat="46.29239" lon="-0.25214">
        <ele>160.1</ele>
        <time>2012-03-06T16:11:31Z</time>
      </trkpt>
      <trkpt lat="46.29239" lon="-0.25214">
        <ele>160.1</ele>
        <time>2012-03-06T16:11:36Z</time>
      </trkpt>
      <trkpt lat="46.29239" lon="-0.25214">
        <ele>160.1</ele>
        <time>2012-03-06T16:11:41Z</time>
      </trkpt>
      <trkpt lat="46.29239" lon="-0.25214">
        <ele>160.1</ele>
        <time>2012-03-06T16:11:46Z</time>
      </trkpt>
      <trkpt lat="46.29239" lon="-0.25214">
        <ele>160.1</ele>
        <time>2012-03-06T16:11:51Z</time>
      </trkpt>
      <trkpt lat="46.29239" lon="-0.25214">
        <ele>160.1</ele>
        <time>2012-03-06T16:11:56Z</time>
      </trkpt>
      <trkpt lat="46.29239" lon="-0.25214">
        <ele>160.1</ele>
        <time>2012-03-06T16:12:01Z</time>
      </trkpt>
      <trkpt lat="46.29239" lon="-0.25214">
        <ele>160.1</ele>
        <time>2012-03-06T16:12:06Z</time>
      </trkpt>
      <trkpt lat="46.29239" lon="-0.25214">
        <ele>160.1</ele>
        <time>2012-03-06T16:12:11Z</time>
      </trkpt>
      <trkpt lat="46.29239" lon="-0.25214">
        <ele>160.1</ele>
        <time>2012-03-06T16:12:16Z</time>
      </trkpt>
      <trkpt lat="46.29239" lon="-0.25214">
        <ele>160.1</ele>
        <time>2012-03-06T16:12:21Z</time>
      </trkpt>
      <trkpt lat="46.29239" lon="-0.25214">
        <ele>160.1</ele>
        <time>2012-03-06T16:12:26Z</time>
      </trkpt>
      <trkpt lat="46.29239" lon="-0.25214">
        <ele>160.1</ele>
        <time>2012-03-06T16:12:31Z</time>
      </trkpt>
      <trkpt lat="46.29239" lon="-0.25214">
        <ele>160.1</ele>
        <time>2012-03-06T16:12:36Z</time>
      </trkpt>
      <trkpt lat="46.29239" lon="-0.25214">
        <ele>160.1</ele>
        <time>2012-03-06T16:12:41Z</time>
      </trkpt>
      <trkpt lat="46.29239" lon="-0.25214">
        <ele>160.1</ele>
        <time>2012-03-06T16:12:46Z</time>
      </trkpt>
    </trkseg>
  </trk>
</gpx>